<?xml version="1.0" encoding="UTF-8" standalone="no" ?>
<gpx xmlns="http://www.topografix.com/GPX/1/1" xmlns:xsi="http://www.w3.org/2001/XMLSchema-instance" xsi:schemaLocation="http://www.topografix.com/GPX/1/1 http://www.topografix.com/GPX/1/1/gpx.xsd" version="1.1" creator="VisuGPX - https://www.visugpx.com">
  <metadata>
    <name>2019-02-16 boucle pédestre autour de ROUFFIAC (81)</name>
    <desc><![CDATA[circuit réalisé à partir de 2 circuits de la communauté d'agglomération de l'Albigeois "puech de Mourens" et "sentier de Fourmageouge" ]]></desc>
  </metadata>
  <trk>
    <name><![CDATA[2019-02-16 14:56:27]]></name>
    <desc><![CDATA[Total: 17.5km]]></desc>
    <trkseg>
      <trkpt lat="43.88257" lon="2.06922">
        <ele>212.27</ele>
        <time>2019-02-16T07:59:55Z</time>
      </trkpt>
      <trkpt lat="43.8825" lon="2.06926">
        <ele>212.12</ele>
        <time>2019-02-16T08:09:03Z</time>
      </trkpt>
      <trkpt lat="43.88245" lon="2.06939">
        <ele>211.22</ele>
        <time>2019-02-16T08:09:16Z</time>
      </trkpt>
      <trkpt lat="43.88244" lon="2.0695">
        <ele>210.46</ele>
        <time>2019-02-16T08:09:24Z</time>
      </trkpt>
      <trkpt lat="43.88245" lon="2.06966">
        <ele>208.83</ele>
        <time>2019-02-16T08:09:36Z</time>
      </trkpt>
      <trkpt lat="43.88249" lon="2.06987">
        <ele>208.16</ele>
        <time>2019-02-16T08:09:51Z</time>
      </trkpt>
      <trkpt lat="43.88251" lon="2.07002">
        <ele>206.69</ele>
        <time>2019-02-16T08:10:02Z</time>
      </trkpt>
      <trkpt lat="43.88251" lon="2.0702">
        <ele>205.32</ele>
        <time>2019-02-16T08:10:14Z</time>
      </trkpt>
      <trkpt lat="43.88247" lon="2.07038">
        <ele>204.3</ele>
        <time>2019-02-16T08:10:26Z</time>
      </trkpt>
      <trkpt lat="43.88242" lon="2.07057">
        <ele>202.76</ele>
        <time>2019-02-16T08:10:40Z</time>
      </trkpt>
      <trkpt lat="43.88242" lon="2.07058">
        <ele>202.42</ele>
        <time>2019-02-16T08:10:41Z</time>
      </trkpt>
      <trkpt lat="43.88241" lon="2.07062">
        <ele>201.95</ele>
        <time>2019-02-16T08:10:44Z</time>
      </trkpt>
      <trkpt lat="43.8824" lon="2.07065">
        <ele>202.28</ele>
        <time>2019-02-16T08:10:46Z</time>
      </trkpt>
      <trkpt lat="43.88235" lon="2.07087">
        <ele>200.48</ele>
        <time>2019-02-16T08:11:01Z</time>
      </trkpt>
      <trkpt lat="43.88229" lon="2.07103">
        <ele>199.71</ele>
        <time>2019-02-16T08:11:14Z</time>
      </trkpt>
      <trkpt lat="43.88227" lon="2.07108">
        <ele>199.57</ele>
        <time>2019-02-16T08:11:18Z</time>
      </trkpt>
      <trkpt lat="43.88226" lon="2.07111">
        <ele>198.69</ele>
        <time>2019-02-16T08:11:20Z</time>
      </trkpt>
      <trkpt lat="43.88221" lon="2.07135">
        <ele>197.17</ele>
        <time>2019-02-16T08:11:37Z</time>
      </trkpt>
      <trkpt lat="43.88216" lon="2.07155">
        <ele>195.79</ele>
        <time>2019-02-16T08:11:51Z</time>
      </trkpt>
      <trkpt lat="43.88211" lon="2.07173">
        <ele>194.65</ele>
        <time>2019-02-16T08:12:03Z</time>
      </trkpt>
      <trkpt lat="43.88206" lon="2.07198">
        <ele>193.92</ele>
        <time>2019-02-16T08:12:19Z</time>
      </trkpt>
      <trkpt lat="43.88205" lon="2.07205">
        <ele>193.57</ele>
        <time>2019-02-16T08:12:24Z</time>
      </trkpt>
      <trkpt lat="43.88209" lon="2.07221">
        <ele>194.55</ele>
        <time>2019-02-16T08:12:39Z</time>
      </trkpt>
      <trkpt lat="43.88218" lon="2.07238">
        <ele>196</ele>
        <time>2019-02-16T08:12:55Z</time>
      </trkpt>
      <trkpt lat="43.88227" lon="2.07253">
        <ele>196.96</ele>
        <time>2019-02-16T08:13:09Z</time>
      </trkpt>
      <trkpt lat="43.88229" lon="2.07257">
        <ele>196.7</ele>
        <time>2019-02-16T08:13:13Z</time>
      </trkpt>
      <trkpt lat="43.88239" lon="2.07275">
        <ele>196.15</ele>
        <time>2019-02-16T08:13:28Z</time>
      </trkpt>
      <trkpt lat="43.8825" lon="2.07295">
        <ele>196.8</ele>
        <time>2019-02-16T08:13:44Z</time>
      </trkpt>
      <trkpt lat="43.88258" lon="2.07317">
        <ele>197.33</ele>
        <time>2019-02-16T08:14:00Z</time>
      </trkpt>
      <trkpt lat="43.88258" lon="2.07318">
        <ele>197.21</ele>
        <time>2019-02-16T08:14:01Z</time>
      </trkpt>
      <trkpt lat="43.8826" lon="2.07324">
        <ele>197.02</ele>
        <time>2019-02-16T08:14:05Z</time>
      </trkpt>
      <trkpt lat="43.8826" lon="2.07327">
        <ele>197.03</ele>
        <time>2019-02-16T08:14:07Z</time>
      </trkpt>
      <trkpt lat="43.88267" lon="2.07348">
        <ele>198.08</ele>
        <time>2019-02-16T08:14:22Z</time>
      </trkpt>
      <trkpt lat="43.8827" lon="2.07357">
        <ele>198.83</ele>
        <time>2019-02-16T08:14:29Z</time>
      </trkpt>
      <trkpt lat="43.88275" lon="2.07375">
        <ele>200.01</ele>
        <time>2019-02-16T08:14:42Z</time>
      </trkpt>
      <trkpt lat="43.88278" lon="2.07386">
        <ele>200.51</ele>
        <time>2019-02-16T08:14:50Z</time>
      </trkpt>
      <trkpt lat="43.8828" lon="2.07394">
        <ele>201.14</ele>
        <time>2019-02-16T08:14:56Z</time>
      </trkpt>
      <trkpt lat="43.88281" lon="2.07398">
        <ele>201.41</ele>
        <time>2019-02-16T08:14:59Z</time>
      </trkpt>
      <trkpt lat="43.88282" lon="2.07402">
        <ele>202.11</ele>
        <time>2019-02-16T08:15:02Z</time>
      </trkpt>
      <trkpt lat="43.88283" lon="2.07405">
        <ele>201.98</ele>
        <time>2019-02-16T08:15:04Z</time>
      </trkpt>
      <trkpt lat="43.88284" lon="2.07415">
        <ele>203.07</ele>
        <time>2019-02-16T08:15:12Z</time>
      </trkpt>
      <trkpt lat="43.88293" lon="2.07435">
        <ele>205.08</ele>
        <time>2019-02-16T08:15:27Z</time>
      </trkpt>
      <trkpt lat="43.88295" lon="2.07443">
        <ele>205.27</ele>
        <time>2019-02-16T08:15:33Z</time>
      </trkpt>
      <trkpt lat="43.88304" lon="2.07461">
        <ele>206.91</ele>
        <time>2019-02-16T08:15:48Z</time>
      </trkpt>
      <trkpt lat="43.88311" lon="2.07475">
        <ele>208.72</ele>
        <time>2019-02-16T08:16:02Z</time>
      </trkpt>
      <trkpt lat="43.88311" lon="2.07478">
        <ele>208.65</ele>
        <time>2019-02-16T08:16:04Z</time>
      </trkpt>
      <trkpt lat="43.8831" lon="2.07499">
        <ele>208.28</ele>
        <time>2019-02-16T08:16:18Z</time>
      </trkpt>
      <trkpt lat="43.88308" lon="2.07517">
        <ele>208.92</ele>
        <time>2019-02-16T08:16:30Z</time>
      </trkpt>
      <trkpt lat="43.88307" lon="2.07518">
        <ele>208.68</ele>
        <time>2019-02-16T08:16:31Z</time>
      </trkpt>
      <trkpt lat="43.88304" lon="2.07531">
        <ele>208.53</ele>
        <time>2019-02-16T08:16:40Z</time>
      </trkpt>
      <trkpt lat="43.883" lon="2.07547">
        <ele>209.09</ele>
        <time>2019-02-16T08:16:52Z</time>
      </trkpt>
      <trkpt lat="43.88295" lon="2.07571">
        <ele>210.18</ele>
        <time>2019-02-16T08:17:09Z</time>
      </trkpt>
      <trkpt lat="43.88294" lon="2.07587">
        <ele>210.63</ele>
        <time>2019-02-16T08:17:22Z</time>
      </trkpt>
      <trkpt lat="43.88292" lon="2.07602">
        <ele>210.69</ele>
        <time>2019-02-16T08:17:35Z</time>
      </trkpt>
      <trkpt lat="43.88292" lon="2.07603">
        <ele>211.15</ele>
        <time>2019-02-16T08:17:36Z</time>
      </trkpt>
      <trkpt lat="43.88291" lon="2.07611">
        <ele>211.06</ele>
        <time>2019-02-16T08:17:43Z</time>
      </trkpt>
      <trkpt lat="43.88292" lon="2.07631">
        <ele>212.07</ele>
        <time>2019-02-16T08:17:58Z</time>
      </trkpt>
      <trkpt lat="43.88292" lon="2.07636">
        <ele>212.84</ele>
        <time>2019-02-16T08:18:01Z</time>
      </trkpt>
      <trkpt lat="43.88293" lon="2.07648">
        <ele>213.25</ele>
        <time>2019-02-16T08:18:09Z</time>
      </trkpt>
      <trkpt lat="43.88292" lon="2.07668">
        <ele>214.13</ele>
        <time>2019-02-16T08:18:23Z</time>
      </trkpt>
      <trkpt lat="43.88292" lon="2.07678">
        <ele>214.48</ele>
        <time>2019-02-16T08:18:37Z</time>
      </trkpt>
      <trkpt lat="43.88295" lon="2.07683">
        <ele>215.89</ele>
        <time>2019-02-16T08:18:46Z</time>
      </trkpt>
      <trkpt lat="43.88304" lon="2.07675">
        <ele>215.64</ele>
        <time>2019-02-16T08:18:59Z</time>
      </trkpt>
      <trkpt lat="43.88306" lon="2.07674">
        <ele>215.91</ele>
        <time>2019-02-16T08:19:01Z</time>
      </trkpt>
      <trkpt lat="43.88318" lon="2.07665">
        <ele>216.21</ele>
        <time>2019-02-16T08:19:16Z</time>
      </trkpt>
      <trkpt lat="43.88335" lon="2.07653">
        <ele>216.96</ele>
        <time>2019-02-16T08:19:34Z</time>
      </trkpt>
      <trkpt lat="43.88347" lon="2.07645">
        <ele>217.73</ele>
        <time>2019-02-16T08:19:48Z</time>
      </trkpt>
      <trkpt lat="43.88363" lon="2.0764">
        <ele>220.08</ele>
        <time>2019-02-16T08:20:04Z</time>
      </trkpt>
      <trkpt lat="43.88376" lon="2.07638">
        <ele>222.18</ele>
        <time>2019-02-16T08:20:19Z</time>
      </trkpt>
      <trkpt lat="43.88388" lon="2.07635">
        <ele>223.82</ele>
        <time>2019-02-16T08:20:33Z</time>
      </trkpt>
      <trkpt lat="43.884" lon="2.0763">
        <ele>225.68</ele>
        <time>2019-02-16T08:20:49Z</time>
      </trkpt>
      <trkpt lat="43.88404" lon="2.07628">
        <ele>226.21</ele>
        <time>2019-02-16T08:20:55Z</time>
      </trkpt>
      <trkpt lat="43.88413" lon="2.07623">
        <ele>227.29</ele>
        <time>2019-02-16T08:21:06Z</time>
      </trkpt>
      <trkpt lat="43.88422" lon="2.07619">
        <ele>227.98</ele>
        <time>2019-02-16T08:21:15Z</time>
      </trkpt>
      <trkpt lat="43.88437" lon="2.07615">
        <ele>229.46</ele>
        <time>2019-02-16T08:21:30Z</time>
      </trkpt>
      <trkpt lat="43.88449" lon="2.0761">
        <ele>231.24</ele>
        <time>2019-02-16T08:21:44Z</time>
      </trkpt>
      <trkpt lat="43.88451" lon="2.07609">
        <ele>231.47</ele>
        <time>2019-02-16T08:21:47Z</time>
      </trkpt>
      <trkpt lat="43.88455" lon="2.07607">
        <ele>231.95</ele>
        <time>2019-02-16T08:21:51Z</time>
      </trkpt>
      <trkpt lat="43.88468" lon="2.07602">
        <ele>233.24</ele>
        <time>2019-02-16T08:22:07Z</time>
      </trkpt>
      <trkpt lat="43.88478" lon="2.07597">
        <ele>235.17</ele>
        <time>2019-02-16T08:22:22Z</time>
      </trkpt>
      <trkpt lat="43.88486" lon="2.07593">
        <ele>236.28</ele>
        <time>2019-02-16T08:22:34Z</time>
      </trkpt>
      <trkpt lat="43.88497" lon="2.07588">
        <ele>238.3</ele>
        <time>2019-02-16T08:22:49Z</time>
      </trkpt>
      <trkpt lat="43.88506" lon="2.07585">
        <ele>239.62</ele>
        <time>2019-02-16T08:23:00Z</time>
      </trkpt>
      <trkpt lat="43.88511" lon="2.07582">
        <ele>241.14</ele>
        <time>2019-02-16T08:23:06Z</time>
      </trkpt>
      <trkpt lat="43.88524" lon="2.07576">
        <ele>243.09</ele>
        <time>2019-02-16T08:23:24Z</time>
      </trkpt>
      <trkpt lat="43.88535" lon="2.07571">
        <ele>245.82</ele>
        <time>2019-02-16T08:23:40Z</time>
      </trkpt>
      <trkpt lat="43.88549" lon="2.07565">
        <ele>247.58</ele>
        <time>2019-02-16T08:23:56Z</time>
      </trkpt>
      <trkpt lat="43.88557" lon="2.0756">
        <ele>248.33</ele>
        <time>2019-02-16T08:24:05Z</time>
      </trkpt>
      <trkpt lat="43.88561" lon="2.07556">
        <ele>249.31</ele>
        <time>2019-02-16T08:24:10Z</time>
      </trkpt>
      <trkpt lat="43.88572" lon="2.07541">
        <ele>249.96</ele>
        <time>2019-02-16T08:24:25Z</time>
      </trkpt>
      <trkpt lat="43.88586" lon="2.07539">
        <ele>250.87</ele>
        <time>2019-02-16T08:24:39Z</time>
      </trkpt>
      <trkpt lat="43.8859" lon="2.0754">
        <ele>251.27</ele>
        <time>2019-02-16T08:24:43Z</time>
      </trkpt>
      <trkpt lat="43.88596" lon="2.07541">
        <ele>250.95</ele>
        <time>2019-02-16T08:24:49Z</time>
      </trkpt>
      <trkpt lat="43.88609" lon="2.07543">
        <ele>251.47</ele>
        <time>2019-02-16T08:25:01Z</time>
      </trkpt>
      <trkpt lat="43.88623" lon="2.07554">
        <ele>252.01</ele>
        <time>2019-02-16T08:25:15Z</time>
      </trkpt>
      <trkpt lat="43.88641" lon="2.07571">
        <ele>252.05</ele>
        <time>2019-02-16T08:25:33Z</time>
      </trkpt>
      <trkpt lat="43.88654" lon="2.07586">
        <ele>252.6</ele>
        <time>2019-02-16T08:25:48Z</time>
      </trkpt>
      <trkpt lat="43.88661" lon="2.07601">
        <ele>252.93</ele>
        <time>2019-02-16T08:26:02Z</time>
      </trkpt>
      <trkpt lat="43.88662" lon="2.07604">
        <ele>253.07</ele>
        <time>2019-02-16T08:26:04Z</time>
      </trkpt>
      <trkpt lat="43.88663" lon="2.07608">
        <ele>252.72</ele>
        <time>2019-02-16T08:26:06Z</time>
      </trkpt>
      <trkpt lat="43.8867" lon="2.07624">
        <ele>253.57</ele>
        <time>2019-02-16T08:26:17Z</time>
      </trkpt>
      <trkpt lat="43.88672" lon="2.07632">
        <ele>253.48</ele>
        <time>2019-02-16T08:26:22Z</time>
      </trkpt>
      <trkpt lat="43.88676" lon="2.07641">
        <ele>253.7</ele>
        <time>2019-02-16T08:26:28Z</time>
      </trkpt>
      <trkpt lat="43.88677" lon="2.07644">
        <ele>253.32</ele>
        <time>2019-02-16T08:26:30Z</time>
      </trkpt>
      <trkpt lat="43.88686" lon="2.0767">
        <ele>253.83</ele>
        <time>2019-02-16T08:26:47Z</time>
      </trkpt>
      <trkpt lat="43.88687" lon="2.07672">
        <ele>253.15</ele>
        <time>2019-02-16T08:26:49Z</time>
      </trkpt>
      <trkpt lat="43.88693" lon="2.07686">
        <ele>254.13</ele>
        <time>2019-02-16T08:26:59Z</time>
      </trkpt>
      <trkpt lat="43.88699" lon="2.07704">
        <ele>254.59</ele>
        <time>2019-02-16T08:27:11Z</time>
      </trkpt>
      <trkpt lat="43.88699" lon="2.07706">
        <ele>254.89</ele>
        <time>2019-02-16T08:27:13Z</time>
      </trkpt>
      <trkpt lat="43.88703" lon="2.07715">
        <ele>255.02</ele>
        <time>2019-02-16T08:27:20Z</time>
      </trkpt>
      <trkpt lat="43.88708" lon="2.07734">
        <ele>255.43</ele>
        <time>2019-02-16T08:27:33Z</time>
      </trkpt>
      <trkpt lat="43.88708" lon="2.07735">
        <ele>255.65</ele>
        <time>2019-02-16T08:27:34Z</time>
      </trkpt>
      <trkpt lat="43.88714" lon="2.0775">
        <ele>256.75</ele>
        <time>2019-02-16T08:27:45Z</time>
      </trkpt>
      <trkpt lat="43.88717" lon="2.07763">
        <ele>257.14</ele>
        <time>2019-02-16T08:27:55Z</time>
      </trkpt>
      <trkpt lat="43.88721" lon="2.07771">
        <ele>257.81</ele>
        <time>2019-02-16T08:28:01Z</time>
      </trkpt>
      <trkpt lat="43.88725" lon="2.07783">
        <ele>257.6</ele>
        <time>2019-02-16T08:28:10Z</time>
      </trkpt>
      <trkpt lat="43.88736" lon="2.07806">
        <ele>257.94</ele>
        <time>2019-02-16T08:28:26Z</time>
      </trkpt>
      <trkpt lat="43.88736" lon="2.07811">
        <ele>257.81</ele>
        <time>2019-02-16T08:28:29Z</time>
      </trkpt>
      <trkpt lat="43.88742" lon="2.07833">
        <ele>256.75</ele>
        <time>2019-02-16T08:28:44Z</time>
      </trkpt>
      <trkpt lat="43.88751" lon="2.07858">
        <ele>255.51</ele>
        <time>2019-02-16T08:29:02Z</time>
      </trkpt>
      <trkpt lat="43.88756" lon="2.0788">
        <ele>253.88</ele>
        <time>2019-02-16T08:29:17Z</time>
      </trkpt>
      <trkpt lat="43.88756" lon="2.07885">
        <ele>254.32</ele>
        <time>2019-02-16T08:29:20Z</time>
      </trkpt>
      <trkpt lat="43.88758" lon="2.07909">
        <ele>252.74</ele>
        <time>2019-02-16T08:29:36Z</time>
      </trkpt>
      <trkpt lat="43.88758" lon="2.07911">
        <ele>252.95</ele>
        <time>2019-02-16T08:29:37Z</time>
      </trkpt>
      <trkpt lat="43.88758" lon="2.07937">
        <ele>251.95</ele>
        <time>2019-02-16T08:29:54Z</time>
      </trkpt>
      <trkpt lat="43.88758" lon="2.07962">
        <ele>251.2</ele>
        <time>2019-02-16T08:30:10Z</time>
      </trkpt>
      <trkpt lat="43.88757" lon="2.07984">
        <ele>250.47</ele>
        <time>2019-02-16T08:30:24Z</time>
      </trkpt>
      <trkpt lat="43.88755" lon="2.08013">
        <ele>249.5</ele>
        <time>2019-02-16T08:30:42Z</time>
      </trkpt>
      <trkpt lat="43.88752" lon="2.08039">
        <ele>249.64</ele>
        <time>2019-02-16T08:30:58Z</time>
      </trkpt>
      <trkpt lat="43.88751" lon="2.0806">
        <ele>249.52</ele>
        <time>2019-02-16T08:31:10Z</time>
      </trkpt>
      <trkpt lat="43.8875" lon="2.0807">
        <ele>250.65</ele>
        <time>2019-02-16T08:31:16Z</time>
      </trkpt>
      <trkpt lat="43.88746" lon="2.08097">
        <ele>250.49</ele>
        <time>2019-02-16T08:31:32Z</time>
      </trkpt>
      <trkpt lat="43.88743" lon="2.08109">
        <ele>250.88</ele>
        <time>2019-02-16T08:31:39Z</time>
      </trkpt>
      <trkpt lat="43.88737" lon="2.08128">
        <ele>251.33</ele>
        <time>2019-02-16T08:31:51Z</time>
      </trkpt>
      <trkpt lat="43.88732" lon="2.08142">
        <ele>251.86</ele>
        <time>2019-02-16T08:32:00Z</time>
      </trkpt>
      <trkpt lat="43.8872" lon="2.0817">
        <ele>251.98</ele>
        <time>2019-02-16T08:32:19Z</time>
      </trkpt>
      <trkpt lat="43.88718" lon="2.08199">
        <ele>253.16</ele>
        <time>2019-02-16T08:32:38Z</time>
      </trkpt>
      <trkpt lat="43.88729" lon="2.08213">
        <ele>255.6</ele>
        <time>2019-02-16T08:32:54Z</time>
      </trkpt>
      <trkpt lat="43.88739" lon="2.08225">
        <ele>256.74</ele>
        <time>2019-02-16T08:33:06Z</time>
      </trkpt>
      <trkpt lat="43.8875" lon="2.08237">
        <ele>258.41</ele>
        <time>2019-02-16T08:33:20Z</time>
      </trkpt>
      <trkpt lat="43.88751" lon="2.08239">
        <ele>258.72</ele>
        <time>2019-02-16T08:33:22Z</time>
      </trkpt>
      <trkpt lat="43.88758" lon="2.08247">
        <ele>259.3</ele>
        <time>2019-02-16T08:33:30Z</time>
      </trkpt>
      <trkpt lat="43.88775" lon="2.08256">
        <ele>260.18</ele>
        <time>2019-02-16T08:33:44Z</time>
      </trkpt>
      <trkpt lat="43.88791" lon="2.08256">
        <ele>259.78</ele>
        <time>2019-02-16T08:33:59Z</time>
      </trkpt>
      <trkpt lat="43.88799" lon="2.08255">
        <ele>260.25</ele>
        <time>2019-02-16T08:34:05Z</time>
      </trkpt>
      <trkpt lat="43.88804" lon="2.08254">
        <ele>259.94</ele>
        <time>2019-02-16T08:34:21Z</time>
      </trkpt>
      <trkpt lat="43.88891" lon="2.08235">
        <ele>260.34</ele>
        <time>2019-02-16T08:36:26Z</time>
      </trkpt>
      <trkpt lat="43.88912" lon="2.08227">
        <ele>260.27</ele>
        <time>2019-02-16T08:36:44Z</time>
      </trkpt>
      <trkpt lat="43.88932" lon="2.08214">
        <ele>259.24</ele>
        <time>2019-02-16T08:37:00Z</time>
      </trkpt>
      <trkpt lat="43.88948" lon="2.08201">
        <ele>258.27</ele>
        <time>2019-02-16T08:37:15Z</time>
      </trkpt>
      <trkpt lat="43.88963" lon="2.08187">
        <ele>257.85</ele>
        <time>2019-02-16T08:37:30Z</time>
      </trkpt>
      <trkpt lat="43.88967" lon="2.08184">
        <ele>257.98</ele>
        <time>2019-02-16T08:37:34Z</time>
      </trkpt>
      <trkpt lat="43.88977" lon="2.08176">
        <ele>257.24</ele>
        <time>2019-02-16T08:37:42Z</time>
      </trkpt>
      <trkpt lat="43.88993" lon="2.08163">
        <ele>256.69</ele>
        <time>2019-02-16T08:37:57Z</time>
      </trkpt>
      <trkpt lat="43.89012" lon="2.08152">
        <ele>256.27</ele>
        <time>2019-02-16T08:38:13Z</time>
      </trkpt>
      <trkpt lat="43.89032" lon="2.08142">
        <ele>255.43</ele>
        <time>2019-02-16T08:38:29Z</time>
      </trkpt>
      <trkpt lat="43.89049" lon="2.08131">
        <ele>254.65</ele>
        <time>2019-02-16T08:38:43Z</time>
      </trkpt>
      <trkpt lat="43.89052" lon="2.08129">
        <ele>255.09</ele>
        <time>2019-02-16T08:38:46Z</time>
      </trkpt>
      <trkpt lat="43.89066" lon="2.0812">
        <ele>253.91</ele>
        <time>2019-02-16T08:38:58Z</time>
      </trkpt>
      <trkpt lat="43.89079" lon="2.08112">
        <ele>252.17</ele>
        <time>2019-02-16T08:39:11Z</time>
      </trkpt>
      <trkpt lat="43.89092" lon="2.08109">
        <ele>251.31</ele>
        <time>2019-02-16T08:39:26Z</time>
      </trkpt>
      <trkpt lat="43.89111" lon="2.08104">
        <ele>250.94</ele>
        <time>2019-02-16T08:39:41Z</time>
      </trkpt>
      <trkpt lat="43.8913" lon="2.08097">
        <ele>249.16</ele>
        <time>2019-02-16T08:39:56Z</time>
      </trkpt>
      <trkpt lat="43.89147" lon="2.08092">
        <ele>248.82</ele>
        <time>2019-02-16T08:40:10Z</time>
      </trkpt>
      <trkpt lat="43.89164" lon="2.08095">
        <ele>249.11</ele>
        <time>2019-02-16T08:40:26Z</time>
      </trkpt>
      <trkpt lat="43.89167" lon="2.08096">
        <ele>248.83</ele>
        <time>2019-02-16T08:40:28Z</time>
      </trkpt>
      <trkpt lat="43.89179" lon="2.081">
        <ele>249.45</ele>
        <time>2019-02-16T08:40:37Z</time>
      </trkpt>
      <trkpt lat="43.89196" lon="2.0811">
        <ele>249.85</ele>
        <time>2019-02-16T08:40:52Z</time>
      </trkpt>
      <trkpt lat="43.89209" lon="2.08128">
        <ele>251.77</ele>
        <time>2019-02-16T08:41:06Z</time>
      </trkpt>
      <trkpt lat="43.89217" lon="2.08142">
        <ele>253.24</ele>
        <time>2019-02-16T08:41:20Z</time>
      </trkpt>
      <trkpt lat="43.8923" lon="2.08167">
        <ele>254.19</ele>
        <time>2019-02-16T08:41:40Z</time>
      </trkpt>
      <trkpt lat="43.89233" lon="2.08173">
        <ele>253.83</ele>
        <time>2019-02-16T08:41:44Z</time>
      </trkpt>
      <trkpt lat="43.8924" lon="2.08185">
        <ele>253.45</ele>
        <time>2019-02-16T08:41:54Z</time>
      </trkpt>
      <trkpt lat="43.89243" lon="2.0819">
        <ele>253.09</ele>
        <time>2019-02-16T08:41:57Z</time>
      </trkpt>
      <trkpt lat="43.89245" lon="2.08194">
        <ele>252.97</ele>
        <time>2019-02-16T08:42:00Z</time>
      </trkpt>
      <trkpt lat="43.89256" lon="2.08212">
        <ele>252.31</ele>
        <time>2019-02-16T08:42:16Z</time>
      </trkpt>
      <trkpt lat="43.89267" lon="2.08224">
        <ele>250.74</ele>
        <time>2019-02-16T08:42:29Z</time>
      </trkpt>
      <trkpt lat="43.89282" lon="2.08225">
        <ele>250.74</ele>
        <time>2019-02-16T08:42:44Z</time>
      </trkpt>
      <trkpt lat="43.89301" lon="2.08223">
        <ele>249.43</ele>
        <time>2019-02-16T08:43:00Z</time>
      </trkpt>
      <trkpt lat="43.89302" lon="2.08223">
        <ele>249.32</ele>
        <time>2019-02-16T08:43:01Z</time>
      </trkpt>
      <trkpt lat="43.89316" lon="2.08219">
        <ele>248.6</ele>
        <time>2019-02-16T08:43:13Z</time>
      </trkpt>
      <trkpt lat="43.89332" lon="2.08215">
        <ele>247.32</ele>
        <time>2019-02-16T08:43:29Z</time>
      </trkpt>
      <trkpt lat="43.89344" lon="2.08211">
        <ele>246.08</ele>
        <time>2019-02-16T08:43:44Z</time>
      </trkpt>
      <trkpt lat="43.89346" lon="2.0821">
        <ele>246.11</ele>
        <time>2019-02-16T08:43:45Z</time>
      </trkpt>
      <trkpt lat="43.89353" lon="2.08208">
        <ele>245.97</ele>
        <time>2019-02-16T08:43:52Z</time>
      </trkpt>
      <trkpt lat="43.89362" lon="2.08204">
        <ele>244.44</ele>
        <time>2019-02-16T08:44:01Z</time>
      </trkpt>
      <trkpt lat="43.89366" lon="2.08203">
        <ele>244.63</ele>
        <time>2019-02-16T08:44:04Z</time>
      </trkpt>
      <trkpt lat="43.8937" lon="2.08202">
        <ele>244.1</ele>
        <time>2019-02-16T08:44:08Z</time>
      </trkpt>
      <trkpt lat="43.89381" lon="2.082">
        <ele>243.14</ele>
        <time>2019-02-16T08:44:18Z</time>
      </trkpt>
      <trkpt lat="43.89395" lon="2.08206">
        <ele>241.64</ele>
        <time>2019-02-16T08:44:34Z</time>
      </trkpt>
      <trkpt lat="43.89417" lon="2.08218">
        <ele>239.93</ele>
        <time>2019-02-16T08:44:55Z</time>
      </trkpt>
      <trkpt lat="43.8943" lon="2.08223">
        <ele>238.98</ele>
        <time>2019-02-16T08:45:07Z</time>
      </trkpt>
      <trkpt lat="43.89434" lon="2.08223">
        <ele>238.57</ele>
        <time>2019-02-16T08:45:10Z</time>
      </trkpt>
      <trkpt lat="43.8945" lon="2.08224">
        <ele>237.5</ele>
        <time>2019-02-16T08:45:25Z</time>
      </trkpt>
      <trkpt lat="43.89464" lon="2.08227">
        <ele>236.91</ele>
        <time>2019-02-16T08:45:40Z</time>
      </trkpt>
      <trkpt lat="43.89482" lon="2.08233">
        <ele>235.66</ele>
        <time>2019-02-16T08:45:56Z</time>
      </trkpt>
      <trkpt lat="43.89494" lon="2.08238">
        <ele>234.93</ele>
        <time>2019-02-16T08:46:07Z</time>
      </trkpt>
      <trkpt lat="43.895" lon="2.08237">
        <ele>235.02</ele>
        <time>2019-02-16T08:46:11Z</time>
      </trkpt>
      <trkpt lat="43.89516" lon="2.08229">
        <ele>233.67</ele>
        <time>2019-02-16T08:46:25Z</time>
      </trkpt>
      <trkpt lat="43.89518" lon="2.08227">
        <ele>234.04</ele>
        <time>2019-02-16T08:46:27Z</time>
      </trkpt>
      <trkpt lat="43.89529" lon="2.08218">
        <ele>233.69</ele>
        <time>2019-02-16T08:46:39Z</time>
      </trkpt>
      <trkpt lat="43.89534" lon="2.08214">
        <ele>232.43</ele>
        <time>2019-02-16T08:46:45Z</time>
      </trkpt>
      <trkpt lat="43.89541" lon="2.0821">
        <ele>232.51</ele>
        <time>2019-02-16T08:46:53Z</time>
      </trkpt>
      <trkpt lat="43.89543" lon="2.08208">
        <ele>232.48</ele>
        <time>2019-02-16T08:46:55Z</time>
      </trkpt>
      <trkpt lat="43.89555" lon="2.08196">
        <ele>231.17</ele>
        <time>2019-02-16T08:47:08Z</time>
      </trkpt>
      <trkpt lat="43.89564" lon="2.08187">
        <ele>230.71</ele>
        <time>2019-02-16T08:47:18Z</time>
      </trkpt>
      <trkpt lat="43.89568" lon="2.08182">
        <ele>230.92</ele>
        <time>2019-02-16T08:47:24Z</time>
      </trkpt>
      <trkpt lat="43.89599" lon="2.08156">
        <ele>228.64</ele>
        <time>2019-02-16T08:47:55Z</time>
      </trkpt>
      <trkpt lat="43.89612" lon="2.0817">
        <ele>228.14</ele>
        <time>2019-02-16T08:48:09Z</time>
      </trkpt>
      <trkpt lat="43.89616" lon="2.08171">
        <ele>227.45</ele>
        <time>2019-02-16T08:48:14Z</time>
      </trkpt>
      <trkpt lat="43.89622" lon="2.08168">
        <ele>226.93</ele>
        <time>2019-02-16T08:48:29Z</time>
      </trkpt>
      <trkpt lat="43.89628" lon="2.08162">
        <ele>226.24</ele>
        <time>2019-02-16T08:48:48Z</time>
      </trkpt>
      <trkpt lat="43.89652" lon="2.08132">
        <ele>226.92</ele>
        <time>2019-02-16T08:55:40Z</time>
      </trkpt>
      <trkpt lat="43.89659" lon="2.08121">
        <ele>226.68</ele>
        <time>2019-02-16T08:55:58Z</time>
      </trkpt>
      <trkpt lat="43.8967" lon="2.08107">
        <ele>226.09</ele>
        <time>2019-02-16T08:56:16Z</time>
      </trkpt>
      <trkpt lat="43.89683" lon="2.0809">
        <ele>225.94</ele>
        <time>2019-02-16T08:56:35Z</time>
      </trkpt>
      <trkpt lat="43.89693" lon="2.08077">
        <ele>223.76</ele>
        <time>2019-02-16T08:56:47Z</time>
      </trkpt>
      <trkpt lat="43.89701" lon="2.08064">
        <ele>223.01</ele>
        <time>2019-02-16T08:56:59Z</time>
      </trkpt>
      <trkpt lat="43.89712" lon="2.08048">
        <ele>221.84</ele>
        <time>2019-02-16T08:57:15Z</time>
      </trkpt>
      <trkpt lat="43.89723" lon="2.08034">
        <ele>220.3</ele>
        <time>2019-02-16T08:57:29Z</time>
      </trkpt>
      <trkpt lat="43.89735" lon="2.08019">
        <ele>218.09</ele>
        <time>2019-02-16T08:57:44Z</time>
      </trkpt>
      <trkpt lat="43.89745" lon="2.08006">
        <ele>216.48</ele>
        <time>2019-02-16T08:57:57Z</time>
      </trkpt>
      <trkpt lat="43.89755" lon="2.07991">
        <ele>214.21</ele>
        <time>2019-02-16T08:58:13Z</time>
      </trkpt>
      <trkpt lat="43.89761" lon="2.07984">
        <ele>213.3</ele>
        <time>2019-02-16T08:58:21Z</time>
      </trkpt>
      <trkpt lat="43.89773" lon="2.07972">
        <ele>211.7</ele>
        <time>2019-02-16T08:58:34Z</time>
      </trkpt>
      <trkpt lat="43.89781" lon="2.07956">
        <ele>210.81</ele>
        <time>2019-02-16T08:58:47Z</time>
      </trkpt>
      <trkpt lat="43.89784" lon="2.07948">
        <ele>209.62</ele>
        <time>2019-02-16T08:58:53Z</time>
      </trkpt>
      <trkpt lat="43.89779" lon="2.07932">
        <ele>209.76</ele>
        <time>2019-02-16T08:59:06Z</time>
      </trkpt>
      <trkpt lat="43.89777" lon="2.07929">
        <ele>209.44</ele>
        <time>2019-02-16T08:59:16Z</time>
      </trkpt>
      <trkpt lat="43.89779" lon="2.0793">
        <ele>209.55</ele>
        <time>2019-02-16T08:59:18Z</time>
      </trkpt>
      <trkpt lat="43.89783" lon="2.07937">
        <ele>209.74</ele>
        <time>2019-02-16T08:59:26Z</time>
      </trkpt>
      <trkpt lat="43.89788" lon="2.07943">
        <ele>209.66</ele>
        <time>2019-02-16T08:59:38Z</time>
      </trkpt>
      <trkpt lat="43.89792" lon="2.07947">
        <ele>209.87</ele>
        <time>2019-02-16T08:59:54Z</time>
      </trkpt>
      <trkpt lat="43.89795" lon="2.0795">
        <ele>208.82</ele>
        <time>2019-02-16T09:00:12Z</time>
      </trkpt>
      <trkpt lat="43.89796" lon="2.07951">
        <ele>208.9</ele>
        <time>2019-02-16T09:00:13Z</time>
      </trkpt>
      <trkpt lat="43.89806" lon="2.07965">
        <ele>207.99</ele>
        <time>2019-02-16T09:00:28Z</time>
      </trkpt>
      <trkpt lat="43.89816" lon="2.07978">
        <ele>208.32</ele>
        <time>2019-02-16T09:00:41Z</time>
      </trkpt>
      <trkpt lat="43.89819" lon="2.07982">
        <ele>207.91</ele>
        <time>2019-02-16T09:00:45Z</time>
      </trkpt>
      <trkpt lat="43.8982" lon="2.07985">
        <ele>207.82</ele>
        <time>2019-02-16T09:00:47Z</time>
      </trkpt>
      <trkpt lat="43.89824" lon="2.07996">
        <ele>207.12</ele>
        <time>2019-02-16T09:00:56Z</time>
      </trkpt>
      <trkpt lat="43.89835" lon="2.08011">
        <ele>206.4</ele>
        <time>2019-02-16T09:01:11Z</time>
      </trkpt>
      <trkpt lat="43.8984" lon="2.08015">
        <ele>205.47</ele>
        <time>2019-02-16T09:01:17Z</time>
      </trkpt>
      <trkpt lat="43.89854" lon="2.08027">
        <ele>204.35</ele>
        <time>2019-02-16T09:01:32Z</time>
      </trkpt>
      <trkpt lat="43.89863" lon="2.08041">
        <ele>202.11</ele>
        <time>2019-02-16T09:01:50Z</time>
      </trkpt>
      <trkpt lat="43.89867" lon="2.08066">
        <ele>202.12</ele>
        <time>2019-02-16T09:02:11Z</time>
      </trkpt>
      <trkpt lat="43.8986" lon="2.08092">
        <ele>199.64</ele>
        <time>2019-02-16T09:02:30Z</time>
      </trkpt>
      <trkpt lat="43.89856" lon="2.08119">
        <ele>197.88</ele>
        <time>2019-02-16T09:02:48Z</time>
      </trkpt>
      <trkpt lat="43.89849" lon="2.08142">
        <ele>196.48</ele>
        <time>2019-02-16T09:03:03Z</time>
      </trkpt>
      <trkpt lat="43.89846" lon="2.08157">
        <ele>195.77</ele>
        <time>2019-02-16T09:03:11Z</time>
      </trkpt>
      <trkpt lat="43.89844" lon="2.08169">
        <ele>195.34</ele>
        <time>2019-02-16T09:03:20Z</time>
      </trkpt>
      <trkpt lat="43.89837" lon="2.08182">
        <ele>195.34</ele>
        <time>2019-02-16T09:03:29Z</time>
      </trkpt>
      <trkpt lat="43.89824" lon="2.08203">
        <ele>195.44</ele>
        <time>2019-02-16T09:03:47Z</time>
      </trkpt>
      <trkpt lat="43.89813" lon="2.08224">
        <ele>195.76</ele>
        <time>2019-02-16T09:04:06Z</time>
      </trkpt>
      <trkpt lat="43.89803" lon="2.08243">
        <ele>195.35</ele>
        <time>2019-02-16T09:04:22Z</time>
      </trkpt>
      <trkpt lat="43.89798" lon="2.08251">
        <ele>195.48</ele>
        <time>2019-02-16T09:04:28Z</time>
      </trkpt>
      <trkpt lat="43.8979" lon="2.08265">
        <ele>194.8</ele>
        <time>2019-02-16T09:04:42Z</time>
      </trkpt>
      <trkpt lat="43.89787" lon="2.08277">
        <ele>194.54</ele>
        <time>2019-02-16T09:04:50Z</time>
      </trkpt>
      <trkpt lat="43.89783" lon="2.08289">
        <ele>194.64</ele>
        <time>2019-02-16T09:05:04Z</time>
      </trkpt>
      <trkpt lat="43.89779" lon="2.08304">
        <ele>194</ele>
        <time>2019-02-16T09:05:18Z</time>
      </trkpt>
      <trkpt lat="43.89776" lon="2.08308">
        <ele>194.24</ele>
        <time>2019-02-16T09:05:22Z</time>
      </trkpt>
      <trkpt lat="43.89764" lon="2.08323">
        <ele>193.91</ele>
        <time>2019-02-16T09:05:38Z</time>
      </trkpt>
      <trkpt lat="43.89751" lon="2.0834">
        <ele>194.75</ele>
        <time>2019-02-16T09:05:55Z</time>
      </trkpt>
      <trkpt lat="43.89743" lon="2.08355">
        <ele>193.83</ele>
        <time>2019-02-16T09:06:09Z</time>
      </trkpt>
      <trkpt lat="43.89739" lon="2.0836">
        <ele>193.7</ele>
        <time>2019-02-16T09:06:16Z</time>
      </trkpt>
      <trkpt lat="43.8973" lon="2.08378">
        <ele>193.48</ele>
        <time>2019-02-16T09:06:28Z</time>
      </trkpt>
      <trkpt lat="43.89719" lon="2.08397">
        <ele>192.97</ele>
        <time>2019-02-16T09:06:41Z</time>
      </trkpt>
      <trkpt lat="43.89709" lon="2.08415">
        <ele>191.26</ele>
        <time>2019-02-16T09:06:55Z</time>
      </trkpt>
      <trkpt lat="43.89699" lon="2.08429">
        <ele>190.52</ele>
        <time>2019-02-16T09:07:07Z</time>
      </trkpt>
      <trkpt lat="43.89689" lon="2.08442">
        <ele>189.18</ele>
        <time>2019-02-16T09:07:19Z</time>
      </trkpt>
      <trkpt lat="43.8968" lon="2.08455">
        <ele>189.67</ele>
        <time>2019-02-16T09:07:34Z</time>
      </trkpt>
      <trkpt lat="43.89671" lon="2.08465">
        <ele>189.02</ele>
        <time>2019-02-16T09:07:57Z</time>
      </trkpt>
      <trkpt lat="43.89669" lon="2.08466">
        <ele>189.06</ele>
        <time>2019-02-16T09:07:59Z</time>
      </trkpt>
      <trkpt lat="43.8966" lon="2.08476">
        <ele>188.67</ele>
        <time>2019-02-16T09:08:12Z</time>
      </trkpt>
      <trkpt lat="43.8965" lon="2.08485">
        <ele>189.07</ele>
        <time>2019-02-16T09:08:25Z</time>
      </trkpt>
      <trkpt lat="43.89649" lon="2.08486">
        <ele>188.96</ele>
        <time>2019-02-16T09:08:26Z</time>
      </trkpt>
      <trkpt lat="43.8964" lon="2.08492">
        <ele>188.95</ele>
        <time>2019-02-16T09:08:36Z</time>
      </trkpt>
      <trkpt lat="43.89632" lon="2.08497">
        <ele>189.74</ele>
        <time>2019-02-16T09:08:43Z</time>
      </trkpt>
      <trkpt lat="43.89627" lon="2.085">
        <ele>189.84</ele>
        <time>2019-02-16T09:08:48Z</time>
      </trkpt>
      <trkpt lat="43.8962" lon="2.08504">
        <ele>189.69</ele>
        <time>2019-02-16T09:08:55Z</time>
      </trkpt>
      <trkpt lat="43.89616" lon="2.08506">
        <ele>189.96</ele>
        <time>2019-02-16T09:08:58Z</time>
      </trkpt>
      <trkpt lat="43.89612" lon="2.08508">
        <ele>189.91</ele>
        <time>2019-02-16T09:09:02Z</time>
      </trkpt>
      <trkpt lat="43.89609" lon="2.0851">
        <ele>189.73</ele>
        <time>2019-02-16T09:09:05Z</time>
      </trkpt>
      <trkpt lat="43.89593" lon="2.08523">
        <ele>188.79</ele>
        <time>2019-02-16T09:09:20Z</time>
      </trkpt>
      <trkpt lat="43.89587" lon="2.08529">
        <ele>188.53</ele>
        <time>2019-02-16T09:09:25Z</time>
      </trkpt>
      <trkpt lat="43.89582" lon="2.08533">
        <ele>188.23</ele>
        <time>2019-02-16T09:09:31Z</time>
      </trkpt>
      <trkpt lat="43.89571" lon="2.08541">
        <ele>187.65</ele>
        <time>2019-02-16T09:09:44Z</time>
      </trkpt>
      <trkpt lat="43.89564" lon="2.08546">
        <ele>187.45</ele>
        <time>2019-02-16T09:09:54Z</time>
      </trkpt>
      <trkpt lat="43.89557" lon="2.08551">
        <ele>187.53</ele>
        <time>2019-02-16T09:10:02Z</time>
      </trkpt>
      <trkpt lat="43.89552" lon="2.08553">
        <ele>187.36</ele>
        <time>2019-02-16T09:10:06Z</time>
      </trkpt>
      <trkpt lat="43.89542" lon="2.08558">
        <ele>187.03</ele>
        <time>2019-02-16T09:10:17Z</time>
      </trkpt>
      <trkpt lat="43.89533" lon="2.08562">
        <ele>185.83</ele>
        <time>2019-02-16T09:10:33Z</time>
      </trkpt>
      <trkpt lat="43.89521" lon="2.08567">
        <ele>184.91</ele>
        <time>2019-02-16T09:10:45Z</time>
      </trkpt>
      <trkpt lat="43.89509" lon="2.08575">
        <ele>185.1</ele>
        <time>2019-02-16T09:10:59Z</time>
      </trkpt>
      <trkpt lat="43.895" lon="2.08579">
        <ele>184.93</ele>
        <time>2019-02-16T09:11:15Z</time>
      </trkpt>
      <trkpt lat="43.89495" lon="2.0858">
        <ele>184.57</ele>
        <time>2019-02-16T09:11:42Z</time>
      </trkpt>
      <trkpt lat="43.89493" lon="2.08581">
        <ele>185.16</ele>
        <time>2019-02-16T09:11:44Z</time>
      </trkpt>
      <trkpt lat="43.8949" lon="2.08582">
        <ele>185.3</ele>
        <time>2019-02-16T09:11:47Z</time>
      </trkpt>
      <trkpt lat="43.89481" lon="2.08584">
        <ele>185.92</ele>
        <time>2019-02-16T09:11:54Z</time>
      </trkpt>
      <trkpt lat="43.89461" lon="2.08589">
        <ele>186.17</ele>
        <time>2019-02-16T09:12:10Z</time>
      </trkpt>
      <trkpt lat="43.89445" lon="2.08592">
        <ele>186.78</ele>
        <time>2019-02-16T09:12:25Z</time>
      </trkpt>
      <trkpt lat="43.89427" lon="2.08596">
        <ele>187.23</ele>
        <time>2019-02-16T09:12:40Z</time>
      </trkpt>
      <trkpt lat="43.89411" lon="2.08599">
        <ele>188.05</ele>
        <time>2019-02-16T09:12:53Z</time>
      </trkpt>
      <trkpt lat="43.89396" lon="2.08607">
        <ele>186.88</ele>
        <time>2019-02-16T09:13:06Z</time>
      </trkpt>
      <trkpt lat="43.89376" lon="2.08618">
        <ele>186.61</ele>
        <time>2019-02-16T09:13:23Z</time>
      </trkpt>
      <trkpt lat="43.89361" lon="2.08627">
        <ele>185.63</ele>
        <time>2019-02-16T09:13:37Z</time>
      </trkpt>
      <trkpt lat="43.89352" lon="2.08633">
        <ele>185.36</ele>
        <time>2019-02-16T09:13:45Z</time>
      </trkpt>
      <trkpt lat="43.89339" lon="2.08643">
        <ele>184.18</ele>
        <time>2019-02-16T09:13:57Z</time>
      </trkpt>
      <trkpt lat="43.8933" lon="2.08658">
        <ele>182.98</ele>
        <time>2019-02-16T09:14:09Z</time>
      </trkpt>
      <trkpt lat="43.89327" lon="2.08668">
        <ele>182.85</ele>
        <time>2019-02-16T09:14:16Z</time>
      </trkpt>
      <trkpt lat="43.89327" lon="2.08674">
        <ele>182.46</ele>
        <time>2019-02-16T09:14:19Z</time>
      </trkpt>
      <trkpt lat="43.89327" lon="2.08681">
        <ele>180.99</ele>
        <time>2019-02-16T09:14:23Z</time>
      </trkpt>
      <trkpt lat="43.89329" lon="2.08712">
        <ele>178.78</ele>
        <time>2019-02-16T09:14:40Z</time>
      </trkpt>
      <trkpt lat="43.8933" lon="2.08737">
        <ele>177.36</ele>
        <time>2019-02-16T09:14:55Z</time>
      </trkpt>
      <trkpt lat="43.89331" lon="2.0874">
        <ele>176.8</ele>
        <time>2019-02-16T09:14:57Z</time>
      </trkpt>
      <trkpt lat="43.89332" lon="2.08749">
        <ele>177.19</ele>
        <time>2019-02-16T09:15:02Z</time>
      </trkpt>
      <trkpt lat="43.89332" lon="2.08752">
        <ele>176.72</ele>
        <time>2019-02-16T09:15:04Z</time>
      </trkpt>
      <trkpt lat="43.89332" lon="2.08763">
        <ele>176.82</ele>
        <time>2019-02-16T09:15:10Z</time>
      </trkpt>
      <trkpt lat="43.89331" lon="2.08766">
        <ele>177.39</ele>
        <time>2019-02-16T09:15:12Z</time>
      </trkpt>
      <trkpt lat="43.89333" lon="2.08775">
        <ele>176.73</ele>
        <time>2019-02-16T09:15:18Z</time>
      </trkpt>
      <trkpt lat="43.89334" lon="2.08779">
        <ele>176.4</ele>
        <time>2019-02-16T09:15:21Z</time>
      </trkpt>
      <trkpt lat="43.89333" lon="2.08784">
        <ele>177.6</ele>
        <time>2019-02-16T09:15:24Z</time>
      </trkpt>
      <trkpt lat="43.89332" lon="2.0879">
        <ele>177.07</ele>
        <time>2019-02-16T09:15:28Z</time>
      </trkpt>
      <trkpt lat="43.89334" lon="2.0881">
        <ele>177.7</ele>
        <time>2019-02-16T09:15:40Z</time>
      </trkpt>
      <trkpt lat="43.89333" lon="2.08816">
        <ele>177.4</ele>
        <time>2019-02-16T09:15:46Z</time>
      </trkpt>
      <trkpt lat="43.89333" lon="2.08822">
        <ele>177.33</ele>
        <time>2019-02-16T09:15:50Z</time>
      </trkpt>
      <trkpt lat="43.89335" lon="2.08833">
        <ele>178.73</ele>
        <time>2019-02-16T09:15:57Z</time>
      </trkpt>
      <trkpt lat="43.89336" lon="2.08837">
        <ele>178.64</ele>
        <time>2019-02-16T09:16:00Z</time>
      </trkpt>
      <trkpt lat="43.89338" lon="2.08841">
        <ele>178.82</ele>
        <time>2019-02-16T09:16:03Z</time>
      </trkpt>
      <trkpt lat="43.89339" lon="2.08844">
        <ele>179.48</ele>
        <time>2019-02-16T09:16:05Z</time>
      </trkpt>
      <trkpt lat="43.89354" lon="2.08857">
        <ele>180.62</ele>
        <time>2019-02-16T09:16:19Z</time>
      </trkpt>
      <trkpt lat="43.89373" lon="2.0887">
        <ele>182.32</ele>
        <time>2019-02-16T09:16:37Z</time>
      </trkpt>
      <trkpt lat="43.89382" lon="2.08881">
        <ele>183.2</ele>
        <time>2019-02-16T09:16:46Z</time>
      </trkpt>
      <trkpt lat="43.8939" lon="2.08898">
        <ele>184.85</ele>
        <time>2019-02-16T09:16:59Z</time>
      </trkpt>
      <trkpt lat="43.89392" lon="2.08902">
        <ele>185</ele>
        <time>2019-02-16T09:17:03Z</time>
      </trkpt>
      <trkpt lat="43.89403" lon="2.08913">
        <ele>186.97</ele>
        <time>2019-02-16T09:17:16Z</time>
      </trkpt>
      <trkpt lat="43.89419" lon="2.0891">
        <ele>188.94</ele>
        <time>2019-02-16T09:17:32Z</time>
      </trkpt>
      <trkpt lat="43.89425" lon="2.08908">
        <ele>189.4</ele>
        <time>2019-02-16T09:17:37Z</time>
      </trkpt>
      <trkpt lat="43.89445" lon="2.08906">
        <ele>190.34</ele>
        <time>2019-02-16T09:17:53Z</time>
      </trkpt>
      <trkpt lat="43.89462" lon="2.08909">
        <ele>191.3</ele>
        <time>2019-02-16T09:18:08Z</time>
      </trkpt>
      <trkpt lat="43.89468" lon="2.08914">
        <ele>192.32</ele>
        <time>2019-02-16T09:18:21Z</time>
      </trkpt>
      <trkpt lat="43.89472" lon="2.08916">
        <ele>192.14</ele>
        <time>2019-02-16T09:18:35Z</time>
      </trkpt>
      <trkpt lat="43.89474" lon="2.08916">
        <ele>192.28</ele>
        <time>2019-02-16T09:18:50Z</time>
      </trkpt>
      <trkpt lat="43.89477" lon="2.08916">
        <ele>191.82</ele>
        <time>2019-02-16T09:18:53Z</time>
      </trkpt>
      <trkpt lat="43.89494" lon="2.08919">
        <ele>190.84</ele>
        <time>2019-02-16T09:19:09Z</time>
      </trkpt>
      <trkpt lat="43.89511" lon="2.08916">
        <ele>190.2</ele>
        <time>2019-02-16T09:19:24Z</time>
      </trkpt>
      <trkpt lat="43.89521" lon="2.08915">
        <ele>190.93</ele>
        <time>2019-02-16T09:19:32Z</time>
      </trkpt>
      <trkpt lat="43.89533" lon="2.08907">
        <ele>190.19</ele>
        <time>2019-02-16T09:19:44Z</time>
      </trkpt>
      <trkpt lat="43.89544" lon="2.08897">
        <ele>189.22</ele>
        <time>2019-02-16T09:19:56Z</time>
      </trkpt>
      <trkpt lat="43.89555" lon="2.08895">
        <ele>188.56</ele>
        <time>2019-02-16T09:20:08Z</time>
      </trkpt>
      <trkpt lat="43.89559" lon="2.08896">
        <ele>188.56</ele>
        <time>2019-02-16T09:20:11Z</time>
      </trkpt>
      <trkpt lat="43.89567" lon="2.08897">
        <ele>188.12</ele>
        <time>2019-02-16T09:20:20Z</time>
      </trkpt>
      <trkpt lat="43.89572" lon="2.08897">
        <ele>188.04</ele>
        <time>2019-02-16T09:20:24Z</time>
      </trkpt>
      <trkpt lat="43.89581" lon="2.08896">
        <ele>188.06</ele>
        <time>2019-02-16T09:20:33Z</time>
      </trkpt>
      <trkpt lat="43.89586" lon="2.08892">
        <ele>188.17</ele>
        <time>2019-02-16T09:20:38Z</time>
      </trkpt>
      <trkpt lat="43.89593" lon="2.08881">
        <ele>188.6</ele>
        <time>2019-02-16T09:20:47Z</time>
      </trkpt>
      <trkpt lat="43.89598" lon="2.08873">
        <ele>189.43</ele>
        <time>2019-02-16T09:20:54Z</time>
      </trkpt>
      <trkpt lat="43.8961" lon="2.08853">
        <ele>190.24</ele>
        <time>2019-02-16T09:21:09Z</time>
      </trkpt>
      <trkpt lat="43.89619" lon="2.08839">
        <ele>190.41</ele>
        <time>2019-02-16T09:21:23Z</time>
      </trkpt>
      <trkpt lat="43.89624" lon="2.0883">
        <ele>190.32</ele>
        <time>2019-02-16T09:21:31Z</time>
      </trkpt>
      <trkpt lat="43.89634" lon="2.08817">
        <ele>190.48</ele>
        <time>2019-02-16T09:21:44Z</time>
      </trkpt>
      <trkpt lat="43.89636" lon="2.08816">
        <ele>190.34</ele>
        <time>2019-02-16T09:21:47Z</time>
      </trkpt>
      <trkpt lat="43.89641" lon="2.08814">
        <ele>189.91</ele>
        <time>2019-02-16T09:21:51Z</time>
      </trkpt>
      <trkpt lat="43.89654" lon="2.0881">
        <ele>188.89</ele>
        <time>2019-02-16T09:22:06Z</time>
      </trkpt>
      <trkpt lat="43.89661" lon="2.08811">
        <ele>188.83</ele>
        <time>2019-02-16T09:22:13Z</time>
      </trkpt>
      <trkpt lat="43.89676" lon="2.0881">
        <ele>188.25</ele>
        <time>2019-02-16T09:22:27Z</time>
      </trkpt>
      <trkpt lat="43.89678" lon="2.0881">
        <ele>188.02</ele>
        <time>2019-02-16T09:22:29Z</time>
      </trkpt>
      <trkpt lat="43.8968" lon="2.08811">
        <ele>186.95</ele>
        <time>2019-02-16T09:22:31Z</time>
      </trkpt>
      <trkpt lat="43.89686" lon="2.0881">
        <ele>187.41</ele>
        <time>2019-02-16T09:22:34Z</time>
      </trkpt>
      <trkpt lat="43.8969" lon="2.0881">
        <ele>187.09</ele>
        <time>2019-02-16T09:22:37Z</time>
      </trkpt>
      <trkpt lat="43.89696" lon="2.0881">
        <ele>187.05</ele>
        <time>2019-02-16T09:22:41Z</time>
      </trkpt>
      <trkpt lat="43.89702" lon="2.0881">
        <ele>186.83</ele>
        <time>2019-02-16T09:22:47Z</time>
      </trkpt>
      <trkpt lat="43.89717" lon="2.08798">
        <ele>186.86</ele>
        <time>2019-02-16T09:23:03Z</time>
      </trkpt>
      <trkpt lat="43.89718" lon="2.08797">
        <ele>186.96</ele>
        <time>2019-02-16T09:23:04Z</time>
      </trkpt>
      <trkpt lat="43.89726" lon="2.08788">
        <ele>186.48</ele>
        <time>2019-02-16T09:23:12Z</time>
      </trkpt>
      <trkpt lat="43.89735" lon="2.08776">
        <ele>186.47</ele>
        <time>2019-02-16T09:23:23Z</time>
      </trkpt>
      <trkpt lat="43.89737" lon="2.08774">
        <ele>186.7</ele>
        <time>2019-02-16T09:23:25Z</time>
      </trkpt>
      <trkpt lat="43.89749" lon="2.08763">
        <ele>186.84</ele>
        <time>2019-02-16T09:23:39Z</time>
      </trkpt>
      <trkpt lat="43.89758" lon="2.08753">
        <ele>187.81</ele>
        <time>2019-02-16T09:23:50Z</time>
      </trkpt>
      <trkpt lat="43.89766" lon="2.08744">
        <ele>188.12</ele>
        <time>2019-02-16T09:23:59Z</time>
      </trkpt>
      <trkpt lat="43.89769" lon="2.08741">
        <ele>187.85</ele>
        <time>2019-02-16T09:24:02Z</time>
      </trkpt>
      <trkpt lat="43.89771" lon="2.08739">
        <ele>187.56</ele>
        <time>2019-02-16T09:24:04Z</time>
      </trkpt>
      <trkpt lat="43.89782" lon="2.08729">
        <ele>187.04</ele>
        <time>2019-02-16T09:24:16Z</time>
      </trkpt>
      <trkpt lat="43.89784" lon="2.08727">
        <ele>187.43</ele>
        <time>2019-02-16T09:24:18Z</time>
      </trkpt>
      <trkpt lat="43.89792" lon="2.0872">
        <ele>187.31</ele>
        <time>2019-02-16T09:24:25Z</time>
      </trkpt>
      <trkpt lat="43.89796" lon="2.08718">
        <ele>187.11</ele>
        <time>2019-02-16T09:24:28Z</time>
      </trkpt>
      <trkpt lat="43.89799" lon="2.08715">
        <ele>187.42</ele>
        <time>2019-02-16T09:24:31Z</time>
      </trkpt>
      <trkpt lat="43.89807" lon="2.08708">
        <ele>187.31</ele>
        <time>2019-02-16T09:24:39Z</time>
      </trkpt>
      <trkpt lat="43.89825" lon="2.08694">
        <ele>185.66</ele>
        <time>2019-02-16T09:24:55Z</time>
      </trkpt>
      <trkpt lat="43.89837" lon="2.08688">
        <ele>184.33</ele>
        <time>2019-02-16T09:25:07Z</time>
      </trkpt>
      <trkpt lat="43.89838" lon="2.08687">
        <ele>184.22</ele>
        <time>2019-02-16T09:25:09Z</time>
      </trkpt>
      <trkpt lat="43.89842" lon="2.08686">
        <ele>184.25</ele>
        <time>2019-02-16T09:25:12Z</time>
      </trkpt>
      <trkpt lat="43.89845" lon="2.08684">
        <ele>184.88</ele>
        <time>2019-02-16T09:25:15Z</time>
      </trkpt>
      <trkpt lat="43.89855" lon="2.08679">
        <ele>184.74</ele>
        <time>2019-02-16T09:25:26Z</time>
      </trkpt>
      <trkpt lat="43.89863" lon="2.08668">
        <ele>185.73</ele>
        <time>2019-02-16T09:25:37Z</time>
      </trkpt>
      <trkpt lat="43.89866" lon="2.08664">
        <ele>186.17</ele>
        <time>2019-02-16T09:25:40Z</time>
      </trkpt>
      <trkpt lat="43.89869" lon="2.08661">
        <ele>186.48</ele>
        <time>2019-02-16T09:25:43Z</time>
      </trkpt>
      <trkpt lat="43.89873" lon="2.08655">
        <ele>186.57</ele>
        <time>2019-02-16T09:25:49Z</time>
      </trkpt>
      <trkpt lat="43.89875" lon="2.08653">
        <ele>186.14</ele>
        <time>2019-02-16T09:25:51Z</time>
      </trkpt>
      <trkpt lat="43.8988" lon="2.08646">
        <ele>186.35</ele>
        <time>2019-02-16T09:25:58Z</time>
      </trkpt>
      <trkpt lat="43.89883" lon="2.08643">
        <ele>186.73</ele>
        <time>2019-02-16T09:26:01Z</time>
      </trkpt>
      <trkpt lat="43.89895" lon="2.08626">
        <ele>187.03</ele>
        <time>2019-02-16T09:26:16Z</time>
      </trkpt>
      <trkpt lat="43.89903" lon="2.08614">
        <ele>185.41</ele>
        <time>2019-02-16T09:26:28Z</time>
      </trkpt>
      <trkpt lat="43.89913" lon="2.08602">
        <ele>185.81</ele>
        <time>2019-02-16T09:26:42Z</time>
      </trkpt>
      <trkpt lat="43.89919" lon="2.08594">
        <ele>185.04</ele>
        <time>2019-02-16T09:26:49Z</time>
      </trkpt>
      <trkpt lat="43.89923" lon="2.08588">
        <ele>184.64</ele>
        <time>2019-02-16T09:26:54Z</time>
      </trkpt>
      <trkpt lat="43.89935" lon="2.08576">
        <ele>185.47</ele>
        <time>2019-02-16T09:27:06Z</time>
      </trkpt>
      <trkpt lat="43.89936" lon="2.08574">
        <ele>184.91</ele>
        <time>2019-02-16T09:27:08Z</time>
      </trkpt>
      <trkpt lat="43.8994" lon="2.08569">
        <ele>184.83</ele>
        <time>2019-02-16T09:27:13Z</time>
      </trkpt>
      <trkpt lat="43.89944" lon="2.08564">
        <ele>184.08</ele>
        <time>2019-02-16T09:27:18Z</time>
      </trkpt>
      <trkpt lat="43.89947" lon="2.08559">
        <ele>184.58</ele>
        <time>2019-02-16T09:27:22Z</time>
      </trkpt>
      <trkpt lat="43.89951" lon="2.08552">
        <ele>184.64</ele>
        <time>2019-02-16T09:27:29Z</time>
      </trkpt>
      <trkpt lat="43.89953" lon="2.0855">
        <ele>184.76</ele>
        <time>2019-02-16T09:27:31Z</time>
      </trkpt>
      <trkpt lat="43.89964" lon="2.0854">
        <ele>184.89</ele>
        <time>2019-02-16T09:27:43Z</time>
      </trkpt>
      <trkpt lat="43.89969" lon="2.08535">
        <ele>184.95</ele>
        <time>2019-02-16T09:27:47Z</time>
      </trkpt>
      <trkpt lat="43.89972" lon="2.08531">
        <ele>185.58</ele>
        <time>2019-02-16T09:27:51Z</time>
      </trkpt>
      <trkpt lat="43.89983" lon="2.08516">
        <ele>186.2</ele>
        <time>2019-02-16T09:28:05Z</time>
      </trkpt>
      <trkpt lat="43.89985" lon="2.08514">
        <ele>186.44</ele>
        <time>2019-02-16T09:28:07Z</time>
      </trkpt>
      <trkpt lat="43.89997" lon="2.08497">
        <ele>186.39</ele>
        <time>2019-02-16T09:28:21Z</time>
      </trkpt>
      <trkpt lat="43.90006" lon="2.08483">
        <ele>186.31</ele>
        <time>2019-02-16T09:28:33Z</time>
      </trkpt>
      <trkpt lat="43.90016" lon="2.08469">
        <ele>186.69</ele>
        <time>2019-02-16T09:28:45Z</time>
      </trkpt>
      <trkpt lat="43.9002" lon="2.0846">
        <ele>186.82</ele>
        <time>2019-02-16T09:28:52Z</time>
      </trkpt>
      <trkpt lat="43.90022" lon="2.08457">
        <ele>186.8</ele>
        <time>2019-02-16T09:28:55Z</time>
      </trkpt>
      <trkpt lat="43.90026" lon="2.08447">
        <ele>185.93</ele>
        <time>2019-02-16T09:29:03Z</time>
      </trkpt>
      <trkpt lat="43.90036" lon="2.0843">
        <ele>186.19</ele>
        <time>2019-02-16T09:29:16Z</time>
      </trkpt>
      <trkpt lat="43.90048" lon="2.08411">
        <ele>186.14</ele>
        <time>2019-02-16T09:29:32Z</time>
      </trkpt>
      <trkpt lat="43.90053" lon="2.08403">
        <ele>185.86</ele>
        <time>2019-02-16T09:29:38Z</time>
      </trkpt>
      <trkpt lat="43.90056" lon="2.084">
        <ele>186.39</ele>
        <time>2019-02-16T09:29:41Z</time>
      </trkpt>
      <trkpt lat="43.90063" lon="2.08388">
        <ele>186.22</ele>
        <time>2019-02-16T09:29:51Z</time>
      </trkpt>
      <trkpt lat="43.90068" lon="2.08381">
        <ele>185.63</ele>
        <time>2019-02-16T09:29:57Z</time>
      </trkpt>
      <trkpt lat="43.90078" lon="2.08365">
        <ele>185.06</ele>
        <time>2019-02-16T09:30:10Z</time>
      </trkpt>
      <trkpt lat="43.90082" lon="2.08358">
        <ele>184.76</ele>
        <time>2019-02-16T09:30:16Z</time>
      </trkpt>
      <trkpt lat="43.90091" lon="2.08347">
        <ele>184.38</ele>
        <time>2019-02-16T09:30:27Z</time>
      </trkpt>
      <trkpt lat="43.90102" lon="2.08336">
        <ele>184.42</ele>
        <time>2019-02-16T09:30:38Z</time>
      </trkpt>
      <trkpt lat="43.90118" lon="2.08325">
        <ele>183.73</ele>
        <time>2019-02-16T09:30:52Z</time>
      </trkpt>
      <trkpt lat="43.90123" lon="2.08319">
        <ele>183.35</ele>
        <time>2019-02-16T09:30:58Z</time>
      </trkpt>
      <trkpt lat="43.90126" lon="2.08317">
        <ele>183.3</ele>
        <time>2019-02-16T09:31:01Z</time>
      </trkpt>
      <trkpt lat="43.90138" lon="2.08307">
        <ele>184.34</ele>
        <time>2019-02-16T09:31:13Z</time>
      </trkpt>
      <trkpt lat="43.90149" lon="2.08295">
        <ele>183.87</ele>
        <time>2019-02-16T09:31:26Z</time>
      </trkpt>
      <trkpt lat="43.90159" lon="2.08284">
        <ele>184.89</ele>
        <time>2019-02-16T09:31:40Z</time>
      </trkpt>
      <trkpt lat="43.9017" lon="2.0828">
        <ele>184.99</ele>
        <time>2019-02-16T09:36:34Z</time>
      </trkpt>
      <trkpt lat="43.90173" lon="2.08278">
        <ele>184.89</ele>
        <time>2019-02-16T09:37:07Z</time>
      </trkpt>
      <trkpt lat="43.90167" lon="2.08275">
        <ele>185.45</ele>
        <time>2019-02-16T09:38:23Z</time>
      </trkpt>
      <trkpt lat="43.90166" lon="2.08271">
        <ele>185.5</ele>
        <time>2019-02-16T09:38:48Z</time>
      </trkpt>
      <trkpt lat="43.90165" lon="2.08267">
        <ele>185.14</ele>
        <time>2019-02-16T09:38:51Z</time>
      </trkpt>
      <trkpt lat="43.90158" lon="2.08265">
        <ele>183.9</ele>
        <time>2019-02-16T09:39:00Z</time>
      </trkpt>
      <trkpt lat="43.90147" lon="2.08271">
        <ele>181.31</ele>
        <time>2019-02-16T09:39:14Z</time>
      </trkpt>
      <trkpt lat="43.90139" lon="2.08277">
        <ele>179.23</ele>
        <time>2019-02-16T09:39:27Z</time>
      </trkpt>
      <trkpt lat="43.90134" lon="2.08279">
        <ele>178.27</ele>
        <time>2019-02-16T09:39:33Z</time>
      </trkpt>
      <trkpt lat="43.9013" lon="2.0828">
        <ele>177.55</ele>
        <time>2019-02-16T09:39:36Z</time>
      </trkpt>
      <trkpt lat="43.90116" lon="2.08285">
        <ele>175.8</ele>
        <time>2019-02-16T09:39:52Z</time>
      </trkpt>
      <trkpt lat="43.901" lon="2.08289">
        <ele>173.53</ele>
        <time>2019-02-16T09:40:12Z</time>
      </trkpt>
      <trkpt lat="43.90087" lon="2.08294">
        <ele>171.98</ele>
        <time>2019-02-16T09:40:26Z</time>
      </trkpt>
      <trkpt lat="43.90083" lon="2.08295">
        <ele>171.45</ele>
        <time>2019-02-16T09:40:31Z</time>
      </trkpt>
      <trkpt lat="43.90067" lon="2.08296">
        <ele>170.02</ele>
        <time>2019-02-16T09:40:47Z</time>
      </trkpt>
      <trkpt lat="43.90055" lon="2.08287">
        <ele>168.73</ele>
        <time>2019-02-16T09:41:00Z</time>
      </trkpt>
      <trkpt lat="43.90045" lon="2.08271">
        <ele>167.9</ele>
        <time>2019-02-16T09:41:13Z</time>
      </trkpt>
      <trkpt lat="43.90037" lon="2.08264">
        <ele>166.88</ele>
        <time>2019-02-16T09:41:26Z</time>
      </trkpt>
      <trkpt lat="43.90033" lon="2.08259">
        <ele>167.36</ele>
        <time>2019-02-16T09:41:43Z</time>
      </trkpt>
      <trkpt lat="43.90033" lon="2.08258">
        <ele>167.2</ele>
        <time>2019-02-16T09:41:45Z</time>
      </trkpt>
      <trkpt lat="43.90031" lon="2.08254">
        <ele>167.48</ele>
        <time>2019-02-16T09:41:48Z</time>
      </trkpt>
      <trkpt lat="43.90029" lon="2.08249">
        <ele>168</ele>
        <time>2019-02-16T09:41:53Z</time>
      </trkpt>
      <trkpt lat="43.90024" lon="2.08239">
        <ele>167.83</ele>
        <time>2019-02-16T09:42:07Z</time>
      </trkpt>
      <trkpt lat="43.90023" lon="2.08238">
        <ele>167.82</ele>
        <time>2019-02-16T09:42:13Z</time>
      </trkpt>
      <trkpt lat="43.90019" lon="2.08232">
        <ele>168.29</ele>
        <time>2019-02-16T09:42:17Z</time>
      </trkpt>
      <trkpt lat="43.90007" lon="2.08208">
        <ele>169.91</ele>
        <time>2019-02-16T09:42:37Z</time>
      </trkpt>
      <trkpt lat="43.90004" lon="2.08201">
        <ele>170.33</ele>
        <time>2019-02-16T09:42:43Z</time>
      </trkpt>
      <trkpt lat="43.89997" lon="2.08189">
        <ele>171.85</ele>
        <time>2019-02-16T09:42:52Z</time>
      </trkpt>
      <trkpt lat="43.89988" lon="2.08173">
        <ele>173.16</ele>
        <time>2019-02-16T09:43:06Z</time>
      </trkpt>
      <trkpt lat="43.89985" lon="2.08167">
        <ele>173.7</ele>
        <time>2019-02-16T09:43:21Z</time>
      </trkpt>
      <trkpt lat="43.89982" lon="2.08159">
        <ele>175.45</ele>
        <time>2019-02-16T09:43:42Z</time>
      </trkpt>
      <trkpt lat="43.89982" lon="2.0816">
        <ele>174.54</ele>
        <time>2019-02-16T09:43:59Z</time>
      </trkpt>
      <trkpt lat="43.8999" lon="2.08149">
        <ele>173.66</ele>
        <time>2019-02-16T09:44:15Z</time>
      </trkpt>
      <trkpt lat="43.89996" lon="2.08142">
        <ele>173.56</ele>
        <time>2019-02-16T09:44:25Z</time>
      </trkpt>
      <trkpt lat="43.90009" lon="2.0813">
        <ele>172.79</ele>
        <time>2019-02-16T09:44:39Z</time>
      </trkpt>
      <trkpt lat="43.90021" lon="2.0812">
        <ele>172.59</ele>
        <time>2019-02-16T09:44:52Z</time>
      </trkpt>
      <trkpt lat="43.90033" lon="2.0811">
        <ele>171.93</ele>
        <time>2019-02-16T09:45:05Z</time>
      </trkpt>
      <trkpt lat="43.90048" lon="2.081">
        <ele>171.6</ele>
        <time>2019-02-16T09:45:20Z</time>
      </trkpt>
      <trkpt lat="43.9006" lon="2.08091">
        <ele>171.26</ele>
        <time>2019-02-16T09:45:34Z</time>
      </trkpt>
      <trkpt lat="43.90067" lon="2.08083">
        <ele>170.74</ele>
        <time>2019-02-16T09:45:42Z</time>
      </trkpt>
      <trkpt lat="43.90073" lon="2.08077">
        <ele>170.21</ele>
        <time>2019-02-16T09:45:50Z</time>
      </trkpt>
      <trkpt lat="43.90078" lon="2.08073">
        <ele>169.91</ele>
        <time>2019-02-16T09:45:55Z</time>
      </trkpt>
      <trkpt lat="43.9008" lon="2.08071">
        <ele>169.64</ele>
        <time>2019-02-16T09:45:57Z</time>
      </trkpt>
      <trkpt lat="43.90083" lon="2.08068">
        <ele>169.66</ele>
        <time>2019-02-16T09:46:00Z</time>
      </trkpt>
      <trkpt lat="43.90089" lon="2.08061">
        <ele>170.06</ele>
        <time>2019-02-16T09:46:07Z</time>
      </trkpt>
      <trkpt lat="43.90095" lon="2.08052">
        <ele>170.1</ele>
        <time>2019-02-16T09:46:15Z</time>
      </trkpt>
      <trkpt lat="43.90099" lon="2.08045">
        <ele>169.58</ele>
        <time>2019-02-16T09:46:22Z</time>
      </trkpt>
      <trkpt lat="43.90103" lon="2.08039">
        <ele>169.63</ele>
        <time>2019-02-16T09:46:26Z</time>
      </trkpt>
      <trkpt lat="43.90114" lon="2.08025">
        <ele>169.6</ele>
        <time>2019-02-16T09:46:40Z</time>
      </trkpt>
      <trkpt lat="43.90119" lon="2.08019">
        <ele>168.9</ele>
        <time>2019-02-16T09:46:45Z</time>
      </trkpt>
      <trkpt lat="43.90123" lon="2.08015">
        <ele>169.33</ele>
        <time>2019-02-16T09:46:49Z</time>
      </trkpt>
      <trkpt lat="43.90124" lon="2.08012">
        <ele>168.89</ele>
        <time>2019-02-16T09:46:51Z</time>
      </trkpt>
      <trkpt lat="43.90133" lon="2.08">
        <ele>168.89</ele>
        <time>2019-02-16T09:47:03Z</time>
      </trkpt>
      <trkpt lat="43.90136" lon="2.07996">
        <ele>169.57</ele>
        <time>2019-02-16T09:47:07Z</time>
      </trkpt>
      <trkpt lat="43.90139" lon="2.07993">
        <ele>169.59</ele>
        <time>2019-02-16T09:47:10Z</time>
      </trkpt>
      <trkpt lat="43.90141" lon="2.0799">
        <ele>169.19</ele>
        <time>2019-02-16T09:47:13Z</time>
      </trkpt>
      <trkpt lat="43.90148" lon="2.07979">
        <ele>169.81</ele>
        <time>2019-02-16T09:47:23Z</time>
      </trkpt>
      <trkpt lat="43.90159" lon="2.07966">
        <ele>170.55</ele>
        <time>2019-02-16T09:47:36Z</time>
      </trkpt>
      <trkpt lat="43.9016" lon="2.07966">
        <ele>170.54</ele>
        <time>2019-02-16T09:47:37Z</time>
      </trkpt>
      <trkpt lat="43.90162" lon="2.07962">
        <ele>170.39</ele>
        <time>2019-02-16T09:47:40Z</time>
      </trkpt>
      <trkpt lat="43.90164" lon="2.07959">
        <ele>170.52</ele>
        <time>2019-02-16T09:47:43Z</time>
      </trkpt>
      <trkpt lat="43.90167" lon="2.07953">
        <ele>170.93</ele>
        <time>2019-02-16T09:47:48Z</time>
      </trkpt>
      <trkpt lat="43.90173" lon="2.07944">
        <ele>170.14</ele>
        <time>2019-02-16T09:47:55Z</time>
      </trkpt>
      <trkpt lat="43.90181" lon="2.07932">
        <ele>170.6</ele>
        <time>2019-02-16T09:48:05Z</time>
      </trkpt>
      <trkpt lat="43.90186" lon="2.07925">
        <ele>171.26</ele>
        <time>2019-02-16T09:48:11Z</time>
      </trkpt>
      <trkpt lat="43.90195" lon="2.07913">
        <ele>171.71</ele>
        <time>2019-02-16T09:48:24Z</time>
      </trkpt>
      <trkpt lat="43.90207" lon="2.07899">
        <ele>170.27</ele>
        <time>2019-02-16T09:48:43Z</time>
      </trkpt>
      <trkpt lat="43.90212" lon="2.07889">
        <ele>171.13</ele>
        <time>2019-02-16T09:48:54Z</time>
      </trkpt>
      <trkpt lat="43.90214" lon="2.07887">
        <ele>170.67</ele>
        <time>2019-02-16T09:48:56Z</time>
      </trkpt>
      <trkpt lat="43.9022" lon="2.07871">
        <ele>171.6</ele>
        <time>2019-02-16T09:49:09Z</time>
      </trkpt>
      <trkpt lat="43.90228" lon="2.07854">
        <ele>172.56</ele>
        <time>2019-02-16T09:49:23Z</time>
      </trkpt>
      <trkpt lat="43.90233" lon="2.07842">
        <ele>172.88</ele>
        <time>2019-02-16T09:49:32Z</time>
      </trkpt>
      <trkpt lat="43.90238" lon="2.07832">
        <ele>173.28</ele>
        <time>2019-02-16T09:49:40Z</time>
      </trkpt>
      <trkpt lat="43.90247" lon="2.0781">
        <ele>173.88</ele>
        <time>2019-02-16T09:49:55Z</time>
      </trkpt>
      <trkpt lat="43.90249" lon="2.07808">
        <ele>173.58</ele>
        <time>2019-02-16T09:49:57Z</time>
      </trkpt>
      <trkpt lat="43.90257" lon="2.07785">
        <ele>173.02</ele>
        <time>2019-02-16T09:50:13Z</time>
      </trkpt>
      <trkpt lat="43.90262" lon="2.07773">
        <ele>173.1</ele>
        <time>2019-02-16T09:50:22Z</time>
      </trkpt>
      <trkpt lat="43.90272" lon="2.07745">
        <ele>172.31</ele>
        <time>2019-02-16T09:50:39Z</time>
      </trkpt>
      <trkpt lat="43.90275" lon="2.07735">
        <ele>171.95</ele>
        <time>2019-02-16T09:50:46Z</time>
      </trkpt>
      <trkpt lat="43.90279" lon="2.07723">
        <ele>171.38</ele>
        <time>2019-02-16T09:50:55Z</time>
      </trkpt>
      <trkpt lat="43.90282" lon="2.0771">
        <ele>170.6</ele>
        <time>2019-02-16T09:51:05Z</time>
      </trkpt>
      <trkpt lat="43.90288" lon="2.07688">
        <ele>170.99</ele>
        <time>2019-02-16T09:51:19Z</time>
      </trkpt>
      <trkpt lat="43.90294" lon="2.07674">
        <ele>170.37</ele>
        <time>2019-02-16T09:51:29Z</time>
      </trkpt>
      <trkpt lat="43.903" lon="2.07655">
        <ele>169.53</ele>
        <time>2019-02-16T09:51:41Z</time>
      </trkpt>
      <trkpt lat="43.90305" lon="2.0764">
        <ele>169.04</ele>
        <time>2019-02-16T09:51:52Z</time>
      </trkpt>
      <trkpt lat="43.90312" lon="2.07617">
        <ele>168.37</ele>
        <time>2019-02-16T09:52:07Z</time>
      </trkpt>
      <trkpt lat="43.90319" lon="2.07595">
        <ele>168.65</ele>
        <time>2019-02-16T09:52:21Z</time>
      </trkpt>
      <trkpt lat="43.90325" lon="2.07574">
        <ele>168.8</ele>
        <time>2019-02-16T09:52:35Z</time>
      </trkpt>
      <trkpt lat="43.90326" lon="2.07572">
        <ele>168.78</ele>
        <time>2019-02-16T09:52:37Z</time>
      </trkpt>
      <trkpt lat="43.9033" lon="2.07562">
        <ele>168.48</ele>
        <time>2019-02-16T09:52:44Z</time>
      </trkpt>
      <trkpt lat="43.90336" lon="2.07538">
        <ele>168.67</ele>
        <time>2019-02-16T09:52:59Z</time>
      </trkpt>
      <trkpt lat="43.90341" lon="2.0752">
        <ele>168.23</ele>
        <time>2019-02-16T09:53:11Z</time>
      </trkpt>
      <trkpt lat="43.90345" lon="2.07496">
        <ele>168.11</ele>
        <time>2019-02-16T09:53:26Z</time>
      </trkpt>
      <trkpt lat="43.90346" lon="2.07492">
        <ele>168.19</ele>
        <time>2019-02-16T09:53:29Z</time>
      </trkpt>
      <trkpt lat="43.9035" lon="2.07481">
        <ele>167.61</ele>
        <time>2019-02-16T09:53:37Z</time>
      </trkpt>
      <trkpt lat="43.90351" lon="2.07475">
        <ele>167.97</ele>
        <time>2019-02-16T09:53:41Z</time>
      </trkpt>
      <trkpt lat="43.90353" lon="2.07465">
        <ele>167.95</ele>
        <time>2019-02-16T09:53:47Z</time>
      </trkpt>
      <trkpt lat="43.90357" lon="2.07451">
        <ele>168.06</ele>
        <time>2019-02-16T09:53:56Z</time>
      </trkpt>
      <trkpt lat="43.90361" lon="2.07435">
        <ele>167.9</ele>
        <time>2019-02-16T09:54:06Z</time>
      </trkpt>
      <trkpt lat="43.90362" lon="2.07433">
        <ele>167.56</ele>
        <time>2019-02-16T09:54:08Z</time>
      </trkpt>
      <trkpt lat="43.90366" lon="2.07424">
        <ele>167.29</ele>
        <time>2019-02-16T09:54:14Z</time>
      </trkpt>
      <trkpt lat="43.90372" lon="2.07405">
        <ele>166.52</ele>
        <time>2019-02-16T09:54:27Z</time>
      </trkpt>
      <trkpt lat="43.90375" lon="2.07394">
        <ele>167.33</ele>
        <time>2019-02-16T09:54:34Z</time>
      </trkpt>
      <trkpt lat="43.90378" lon="2.07383">
        <ele>167.43</ele>
        <time>2019-02-16T09:54:42Z</time>
      </trkpt>
      <trkpt lat="43.90379" lon="2.07374">
        <ele>167.46</ele>
        <time>2019-02-16T09:54:47Z</time>
      </trkpt>
      <trkpt lat="43.90379" lon="2.07365">
        <ele>166.9</ele>
        <time>2019-02-16T09:54:57Z</time>
      </trkpt>
      <trkpt lat="43.90379" lon="2.07362">
        <ele>166.71</ele>
        <time>2019-02-16T09:55:01Z</time>
      </trkpt>
      <trkpt lat="43.9038" lon="2.0736">
        <ele>167.13</ele>
        <time>2019-02-16T09:55:03Z</time>
      </trkpt>
      <trkpt lat="43.9038" lon="2.07357">
        <ele>166.59</ele>
        <time>2019-02-16T09:55:13Z</time>
      </trkpt>
      <trkpt lat="43.90382" lon="2.07342">
        <ele>166.55</ele>
        <time>2019-02-16T09:55:23Z</time>
      </trkpt>
      <trkpt lat="43.90379" lon="2.07319">
        <ele>166.31</ele>
        <time>2019-02-16T09:55:38Z</time>
      </trkpt>
      <trkpt lat="43.90379" lon="2.07318">
        <ele>166.56</ele>
        <time>2019-02-16T09:55:39Z</time>
      </trkpt>
      <trkpt lat="43.90376" lon="2.07287">
        <ele>166.53</ele>
        <time>2019-02-16T09:55:57Z</time>
      </trkpt>
      <trkpt lat="43.90374" lon="2.07281">
        <ele>166.27</ele>
        <time>2019-02-16T09:56:01Z</time>
      </trkpt>
      <trkpt lat="43.90371" lon="2.0726">
        <ele>166.17</ele>
        <time>2019-02-16T09:56:12Z</time>
      </trkpt>
      <trkpt lat="43.9037" lon="2.07252">
        <ele>165.86</ele>
        <time>2019-02-16T09:56:16Z</time>
      </trkpt>
      <trkpt lat="43.90367" lon="2.07238">
        <ele>165.48</ele>
        <time>2019-02-16T09:56:24Z</time>
      </trkpt>
      <trkpt lat="43.90366" lon="2.07231">
        <ele>165.1</ele>
        <time>2019-02-16T09:56:29Z</time>
      </trkpt>
      <trkpt lat="43.90363" lon="2.07215">
        <ele>165.52</ele>
        <time>2019-02-16T09:56:37Z</time>
      </trkpt>
      <trkpt lat="43.90359" lon="2.07188">
        <ele>165.16</ele>
        <time>2019-02-16T09:56:53Z</time>
      </trkpt>
      <trkpt lat="43.90351" lon="2.07162">
        <ele>165.44</ele>
        <time>2019-02-16T09:57:09Z</time>
      </trkpt>
      <trkpt lat="43.90342" lon="2.07144">
        <ele>165.56</ele>
        <time>2019-02-16T09:57:21Z</time>
      </trkpt>
      <trkpt lat="43.90326" lon="2.07121">
        <ele>165.75</ele>
        <time>2019-02-16T09:57:40Z</time>
      </trkpt>
      <trkpt lat="43.90308" lon="2.07107">
        <ele>166.52</ele>
        <time>2019-02-16T09:57:57Z</time>
      </trkpt>
      <trkpt lat="43.90291" lon="2.07102">
        <ele>167.22</ele>
        <time>2019-02-16T09:58:12Z</time>
      </trkpt>
      <trkpt lat="43.90271" lon="2.07099">
        <ele>168.16</ele>
        <time>2019-02-16T09:58:29Z</time>
      </trkpt>
      <trkpt lat="43.90254" lon="2.07096">
        <ele>168.79</ele>
        <time>2019-02-16T09:58:45Z</time>
      </trkpt>
      <trkpt lat="43.90252" lon="2.07096">
        <ele>168.37</ele>
        <time>2019-02-16T09:58:54Z</time>
      </trkpt>
      <trkpt lat="43.90239" lon="2.0709">
        <ele>169.48</ele>
        <time>2019-02-16T09:59:08Z</time>
      </trkpt>
      <trkpt lat="43.90235" lon="2.07086">
        <ele>169.15</ele>
        <time>2019-02-16T09:59:12Z</time>
      </trkpt>
      <trkpt lat="43.90231" lon="2.07082">
        <ele>169.56</ele>
        <time>2019-02-16T09:59:16Z</time>
      </trkpt>
      <trkpt lat="43.90221" lon="2.07063">
        <ele>169.97</ele>
        <time>2019-02-16T09:59:31Z</time>
      </trkpt>
      <trkpt lat="43.90217" lon="2.07056">
        <ele>169.57</ele>
        <time>2019-02-16T09:59:37Z</time>
      </trkpt>
      <trkpt lat="43.90215" lon="2.07054">
        <ele>169.54</ele>
        <time>2019-02-16T09:59:39Z</time>
      </trkpt>
      <trkpt lat="43.90202" lon="2.07038">
        <ele>170.24</ele>
        <time>2019-02-16T09:59:54Z</time>
      </trkpt>
      <trkpt lat="43.90183" lon="2.07022">
        <ele>170.26</ele>
        <time>2019-02-16T10:00:11Z</time>
      </trkpt>
      <trkpt lat="43.90182" lon="2.07021">
        <ele>170.16</ele>
        <time>2019-02-16T10:00:13Z</time>
      </trkpt>
      <trkpt lat="43.90171" lon="2.07004">
        <ele>170.76</ele>
        <time>2019-02-16T10:00:29Z</time>
      </trkpt>
      <trkpt lat="43.90164" lon="2.06991">
        <ele>171.01</ele>
        <time>2019-02-16T10:00:42Z</time>
      </trkpt>
      <trkpt lat="43.90155" lon="2.0698">
        <ele>171.13</ele>
        <time>2019-02-16T10:00:53Z</time>
      </trkpt>
      <trkpt lat="43.90146" lon="2.06964">
        <ele>171.1</ele>
        <time>2019-02-16T10:01:07Z</time>
      </trkpt>
      <trkpt lat="43.90135" lon="2.06947">
        <ele>171.16</ele>
        <time>2019-02-16T10:01:20Z</time>
      </trkpt>
      <trkpt lat="43.90125" lon="2.06932">
        <ele>171.49</ele>
        <time>2019-02-16T10:01:33Z</time>
      </trkpt>
      <trkpt lat="43.90114" lon="2.06918">
        <ele>171.95</ele>
        <time>2019-02-16T10:01:47Z</time>
      </trkpt>
      <trkpt lat="43.90102" lon="2.06919">
        <ele>172.99</ele>
        <time>2019-02-16T10:02:03Z</time>
      </trkpt>
      <trkpt lat="43.90095" lon="2.06931">
        <ele>174.92</ele>
        <time>2019-02-16T10:02:16Z</time>
      </trkpt>
      <trkpt lat="43.9009" lon="2.06946">
        <ele>177.37</ele>
        <time>2019-02-16T10:02:30Z</time>
      </trkpt>
      <trkpt lat="43.90085" lon="2.0696">
        <ele>178.51</ele>
        <time>2019-02-16T10:02:43Z</time>
      </trkpt>
      <trkpt lat="43.90079" lon="2.06968">
        <ele>181.41</ele>
        <time>2019-02-16T10:02:53Z</time>
      </trkpt>
      <trkpt lat="43.90073" lon="2.06981">
        <ele>182.85</ele>
        <time>2019-02-16T10:03:06Z</time>
      </trkpt>
      <trkpt lat="43.90067" lon="2.06994">
        <ele>184.14</ele>
        <time>2019-02-16T10:03:20Z</time>
      </trkpt>
      <trkpt lat="43.90066" lon="2.06997">
        <ele>184.72</ele>
        <time>2019-02-16T10:03:29Z</time>
      </trkpt>
      <trkpt lat="43.90064" lon="2.07">
        <ele>184.56</ele>
        <time>2019-02-16T10:03:32Z</time>
      </trkpt>
      <trkpt lat="43.90057" lon="2.07018">
        <ele>185.96</ele>
        <time>2019-02-16T10:03:48Z</time>
      </trkpt>
      <trkpt lat="43.9005" lon="2.07033">
        <ele>187.2</ele>
        <time>2019-02-16T10:04:02Z</time>
      </trkpt>
      <trkpt lat="43.90043" lon="2.07043">
        <ele>188.58</ele>
        <time>2019-02-16T10:04:20Z</time>
      </trkpt>
      <trkpt lat="43.90034" lon="2.07036">
        <ele>190.34</ele>
        <time>2019-02-16T10:04:34Z</time>
      </trkpt>
      <trkpt lat="43.90032" lon="2.07032">
        <ele>191.34</ele>
        <time>2019-02-16T10:04:38Z</time>
      </trkpt>
      <trkpt lat="43.9003" lon="2.0703">
        <ele>190.56</ele>
        <time>2019-02-16T10:04:40Z</time>
      </trkpt>
      <trkpt lat="43.90026" lon="2.07016">
        <ele>190.39</ele>
        <time>2019-02-16T10:04:52Z</time>
      </trkpt>
      <trkpt lat="43.90022" lon="2.07011">
        <ele>190.96</ele>
        <time>2019-02-16T10:05:11Z</time>
      </trkpt>
      <trkpt lat="43.90019" lon="2.07009">
        <ele>191.05</ele>
        <time>2019-02-16T10:07:06Z</time>
      </trkpt>
      <trkpt lat="43.90019" lon="2.07009">
        <ele>190.77</ele>
        <time>2019-02-16T10:07:37Z</time>
      </trkpt>
      <trkpt lat="43.9002" lon="2.07014">
        <ele>191.39</ele>
        <time>2019-02-16T10:08:01Z</time>
      </trkpt>
      <trkpt lat="43.9002" lon="2.07014">
        <ele>191.12</ele>
        <time>2019-02-16T10:08:27Z</time>
      </trkpt>
      <trkpt lat="43.90023" lon="2.07019">
        <ele>191.06</ele>
        <time>2019-02-16T10:08:40Z</time>
      </trkpt>
      <trkpt lat="43.90024" lon="2.0702">
        <ele>191.02</ele>
        <time>2019-02-16T10:09:15Z</time>
      </trkpt>
      <trkpt lat="43.90024" lon="2.07024">
        <ele>191.18</ele>
        <time>2019-02-16T10:09:17Z</time>
      </trkpt>
      <trkpt lat="43.90029" lon="2.07043">
        <ele>191.01</ele>
        <time>2019-02-16T10:09:32Z</time>
      </trkpt>
      <trkpt lat="43.9003" lon="2.07057">
        <ele>190.37</ele>
        <time>2019-02-16T10:09:45Z</time>
      </trkpt>
      <trkpt lat="43.90028" lon="2.07069">
        <ele>190.2</ele>
        <time>2019-02-16T10:09:58Z</time>
      </trkpt>
      <trkpt lat="43.90028" lon="2.07071">
        <ele>190.68</ele>
        <time>2019-02-16T10:10:07Z</time>
      </trkpt>
      <trkpt lat="43.90029" lon="2.07077">
        <ele>190.16</ele>
        <time>2019-02-16T10:10:12Z</time>
      </trkpt>
      <trkpt lat="43.90026" lon="2.07084">
        <ele>190.29</ele>
        <time>2019-02-16T10:10:18Z</time>
      </trkpt>
      <trkpt lat="43.9002" lon="2.07094">
        <ele>190.16</ele>
        <time>2019-02-16T10:10:27Z</time>
      </trkpt>
      <trkpt lat="43.90009" lon="2.07109">
        <ele>190.69</ele>
        <time>2019-02-16T10:10:41Z</time>
      </trkpt>
      <trkpt lat="43.9" lon="2.07125">
        <ele>191.07</ele>
        <time>2019-02-16T10:10:54Z</time>
      </trkpt>
      <trkpt lat="43.89989" lon="2.07143">
        <ele>192.16</ele>
        <time>2019-02-16T10:11:08Z</time>
      </trkpt>
      <trkpt lat="43.89971" lon="2.07163">
        <ele>191.75</ele>
        <time>2019-02-16T10:11:27Z</time>
      </trkpt>
      <trkpt lat="43.89961" lon="2.07173">
        <ele>192.39</ele>
        <time>2019-02-16T10:11:40Z</time>
      </trkpt>
      <trkpt lat="43.89957" lon="2.07177">
        <ele>192.58</ele>
        <time>2019-02-16T10:11:44Z</time>
      </trkpt>
      <trkpt lat="43.89954" lon="2.07183">
        <ele>193.1</ele>
        <time>2019-02-16T10:11:49Z</time>
      </trkpt>
      <trkpt lat="43.89944" lon="2.07198">
        <ele>192.69</ele>
        <time>2019-02-16T10:12:02Z</time>
      </trkpt>
      <trkpt lat="43.89932" lon="2.07215">
        <ele>192.94</ele>
        <time>2019-02-16T10:12:15Z</time>
      </trkpt>
      <trkpt lat="43.89918" lon="2.07232">
        <ele>192.96</ele>
        <time>2019-02-16T10:12:30Z</time>
      </trkpt>
      <trkpt lat="43.89904" lon="2.0725">
        <ele>192.85</ele>
        <time>2019-02-16T10:12:45Z</time>
      </trkpt>
      <trkpt lat="43.89902" lon="2.07252">
        <ele>193.1</ele>
        <time>2019-02-16T10:12:47Z</time>
      </trkpt>
      <trkpt lat="43.89886" lon="2.07267">
        <ele>193.61</ele>
        <time>2019-02-16T10:13:03Z</time>
      </trkpt>
      <trkpt lat="43.89872" lon="2.07271">
        <ele>192.71</ele>
        <time>2019-02-16T10:13:15Z</time>
      </trkpt>
      <trkpt lat="43.89867" lon="2.07271">
        <ele>193.16</ele>
        <time>2019-02-16T10:13:20Z</time>
      </trkpt>
      <trkpt lat="43.89857" lon="2.07273">
        <ele>192.33</ele>
        <time>2019-02-16T10:13:34Z</time>
      </trkpt>
      <trkpt lat="43.89846" lon="2.0728">
        <ele>192.29</ele>
        <time>2019-02-16T10:13:46Z</time>
      </trkpt>
      <trkpt lat="43.89839" lon="2.07288">
        <ele>192.19</ele>
        <time>2019-02-16T10:13:54Z</time>
      </trkpt>
      <trkpt lat="43.8983" lon="2.07308">
        <ele>192.21</ele>
        <time>2019-02-16T10:14:09Z</time>
      </trkpt>
      <trkpt lat="43.89829" lon="2.07309">
        <ele>192.29</ele>
        <time>2019-02-16T10:14:10Z</time>
      </trkpt>
      <trkpt lat="43.89819" lon="2.07321">
        <ele>192.98</ele>
        <time>2019-02-16T10:14:25Z</time>
      </trkpt>
      <trkpt lat="43.89806" lon="2.07339">
        <ele>192.92</ele>
        <time>2019-02-16T10:14:40Z</time>
      </trkpt>
      <trkpt lat="43.89793" lon="2.0736">
        <ele>193.21</ele>
        <time>2019-02-16T10:14:55Z</time>
      </trkpt>
      <trkpt lat="43.89781" lon="2.07376">
        <ele>193.3</ele>
        <time>2019-02-16T10:15:09Z</time>
      </trkpt>
      <trkpt lat="43.89768" lon="2.07391">
        <ele>193.15</ele>
        <time>2019-02-16T10:15:25Z</time>
      </trkpt>
      <trkpt lat="43.89754" lon="2.07406">
        <ele>193.62</ele>
        <time>2019-02-16T10:15:41Z</time>
      </trkpt>
      <trkpt lat="43.89742" lon="2.07419">
        <ele>193.93</ele>
        <time>2019-02-16T10:15:56Z</time>
      </trkpt>
      <trkpt lat="43.89733" lon="2.07433">
        <ele>194.35</ele>
        <time>2019-02-16T10:16:09Z</time>
      </trkpt>
      <trkpt lat="43.89727" lon="2.07449">
        <ele>194.26</ele>
        <time>2019-02-16T10:16:22Z</time>
      </trkpt>
      <trkpt lat="43.89723" lon="2.07462">
        <ele>195.15</ele>
        <time>2019-02-16T10:16:30Z</time>
      </trkpt>
      <trkpt lat="43.89715" lon="2.07486">
        <ele>196.18</ele>
        <time>2019-02-16T10:16:48Z</time>
      </trkpt>
      <trkpt lat="43.89708" lon="2.07506">
        <ele>196.73</ele>
        <time>2019-02-16T10:17:02Z</time>
      </trkpt>
      <trkpt lat="43.89698" lon="2.07532">
        <ele>197.44</ele>
        <time>2019-02-16T10:17:17Z</time>
      </trkpt>
      <trkpt lat="43.8969" lon="2.07549">
        <ele>198.91</ele>
        <time>2019-02-16T10:17:32Z</time>
      </trkpt>
      <trkpt lat="43.8968" lon="2.07563">
        <ele>200.06</ele>
        <time>2019-02-16T10:17:45Z</time>
      </trkpt>
      <trkpt lat="43.89673" lon="2.07571">
        <ele>200.51</ele>
        <time>2019-02-16T10:17:53Z</time>
      </trkpt>
      <trkpt lat="43.89671" lon="2.07577">
        <ele>200.66</ele>
        <time>2019-02-16T10:17:57Z</time>
      </trkpt>
      <trkpt lat="43.89662" lon="2.07587">
        <ele>201.73</ele>
        <time>2019-02-16T10:18:06Z</time>
      </trkpt>
      <trkpt lat="43.89646" lon="2.07594">
        <ele>203.27</ele>
        <time>2019-02-16T10:18:21Z</time>
      </trkpt>
      <trkpt lat="43.89639" lon="2.07595">
        <ele>203.86</ele>
        <time>2019-02-16T10:18:27Z</time>
      </trkpt>
      <trkpt lat="43.89626" lon="2.07597">
        <ele>205.03</ele>
        <time>2019-02-16T10:18:42Z</time>
      </trkpt>
      <trkpt lat="43.89615" lon="2.076">
        <ele>205.59</ele>
        <time>2019-02-16T10:18:58Z</time>
      </trkpt>
      <trkpt lat="43.89598" lon="2.07606">
        <ele>205.85</ele>
        <time>2019-02-16T10:20:44Z</time>
      </trkpt>
      <trkpt lat="43.8958" lon="2.07612">
        <ele>205.81</ele>
        <time>2019-02-16T10:21:00Z</time>
      </trkpt>
      <trkpt lat="43.89565" lon="2.07618">
        <ele>204.57</ele>
        <time>2019-02-16T10:21:15Z</time>
      </trkpt>
      <trkpt lat="43.89555" lon="2.07621">
        <ele>204.37</ele>
        <time>2019-02-16T10:21:26Z</time>
      </trkpt>
      <trkpt lat="43.89538" lon="2.07627">
        <ele>202.78</ele>
        <time>2019-02-16T10:21:43Z</time>
      </trkpt>
      <trkpt lat="43.89522" lon="2.07633">
        <ele>201.68</ele>
        <time>2019-02-16T10:21:58Z</time>
      </trkpt>
      <trkpt lat="43.8952" lon="2.07633">
        <ele>201.28</ele>
        <time>2019-02-16T10:22:00Z</time>
      </trkpt>
      <trkpt lat="43.8951" lon="2.07641">
        <ele>200.72</ele>
        <time>2019-02-16T10:22:09Z</time>
      </trkpt>
      <trkpt lat="43.89498" lon="2.07644">
        <ele>200.15</ele>
        <time>2019-02-16T10:22:20Z</time>
      </trkpt>
      <trkpt lat="43.89492" lon="2.07644">
        <ele>199.82</ele>
        <time>2019-02-16T10:22:25Z</time>
      </trkpt>
      <trkpt lat="43.89476" lon="2.07647">
        <ele>199.89</ele>
        <time>2019-02-16T10:22:41Z</time>
      </trkpt>
      <trkpt lat="43.89461" lon="2.07644">
        <ele>199.05</ele>
        <time>2019-02-16T10:22:56Z</time>
      </trkpt>
      <trkpt lat="43.89448" lon="2.07639">
        <ele>199.02</ele>
        <time>2019-02-16T10:23:10Z</time>
      </trkpt>
      <trkpt lat="43.89434" lon="2.07627">
        <ele>199.29</ele>
        <time>2019-02-16T10:23:24Z</time>
      </trkpt>
      <trkpt lat="43.89421" lon="2.07613">
        <ele>200.17</ele>
        <time>2019-02-16T10:23:38Z</time>
      </trkpt>
      <trkpt lat="43.89406" lon="2.07596">
        <ele>202.49</ele>
        <time>2019-02-16T10:23:55Z</time>
      </trkpt>
      <trkpt lat="43.89397" lon="2.07586">
        <ele>203.69</ele>
        <time>2019-02-16T10:24:08Z</time>
      </trkpt>
      <trkpt lat="43.89383" lon="2.0757">
        <ele>205.69</ele>
        <time>2019-02-16T10:24:25Z</time>
      </trkpt>
      <trkpt lat="43.89371" lon="2.0756">
        <ele>206.95</ele>
        <time>2019-02-16T10:24:39Z</time>
      </trkpt>
      <trkpt lat="43.89358" lon="2.0755">
        <ele>208.22</ele>
        <time>2019-02-16T10:24:53Z</time>
      </trkpt>
      <trkpt lat="43.89342" lon="2.07539">
        <ele>208.81</ele>
        <time>2019-02-16T10:25:10Z</time>
      </trkpt>
      <trkpt lat="43.89326" lon="2.07529">
        <ele>209.41</ele>
        <time>2019-02-16T10:25:29Z</time>
      </trkpt>
      <trkpt lat="43.89274" lon="2.07487">
        <ele>212.79</ele>
        <time>2019-02-16T10:28:10Z</time>
      </trkpt>
      <trkpt lat="43.89252" lon="2.07466">
        <ele>215.51</ele>
        <time>2019-02-16T10:37:10Z</time>
      </trkpt>
      <trkpt lat="43.89238" lon="2.07444">
        <ele>215.97</ele>
        <time>2019-02-16T10:37:27Z</time>
      </trkpt>
      <trkpt lat="43.89219" lon="2.07424">
        <ele>214.66</ele>
        <time>2019-02-16T10:37:45Z</time>
      </trkpt>
      <trkpt lat="43.89203" lon="2.07407">
        <ele>214.73</ele>
        <time>2019-02-16T10:38:01Z</time>
      </trkpt>
      <trkpt lat="43.89187" lon="2.07391">
        <ele>215.39</ele>
        <time>2019-02-16T10:38:17Z</time>
      </trkpt>
      <trkpt lat="43.89169" lon="2.07372">
        <ele>215.22</ele>
        <time>2019-02-16T10:38:34Z</time>
      </trkpt>
      <trkpt lat="43.89155" lon="2.07357">
        <ele>216.74</ele>
        <time>2019-02-16T10:38:49Z</time>
      </trkpt>
      <trkpt lat="43.89145" lon="2.07342">
        <ele>217.5</ele>
        <time>2019-02-16T10:39:01Z</time>
      </trkpt>
      <trkpt lat="43.8913" lon="2.07322">
        <ele>218.82</ele>
        <time>2019-02-16T10:39:18Z</time>
      </trkpt>
      <trkpt lat="43.89114" lon="2.07298">
        <ele>220.35</ele>
        <time>2019-02-16T10:39:37Z</time>
      </trkpt>
      <trkpt lat="43.89099" lon="2.07278">
        <ele>222.67</ele>
        <time>2019-02-16T10:39:54Z</time>
      </trkpt>
      <trkpt lat="43.89084" lon="2.07262">
        <ele>224.66</ele>
        <time>2019-02-16T10:40:11Z</time>
      </trkpt>
      <trkpt lat="43.89072" lon="2.07249">
        <ele>226.26</ele>
        <time>2019-02-16T10:40:25Z</time>
      </trkpt>
      <trkpt lat="43.89052" lon="2.07231">
        <ele>226.69</ele>
        <time>2019-02-16T10:41:34Z</time>
      </trkpt>
      <trkpt lat="43.89049" lon="2.0723">
        <ele>226.7</ele>
        <time>2019-02-16T10:42:00Z</time>
      </trkpt>
      <trkpt lat="43.89047" lon="2.07229">
        <ele>226.98</ele>
        <time>2019-02-16T10:42:22Z</time>
      </trkpt>
      <trkpt lat="43.89045" lon="2.07228">
        <ele>226.49</ele>
        <time>2019-02-16T10:42:26Z</time>
      </trkpt>
      <trkpt lat="43.89041" lon="2.07226">
        <ele>226.51</ele>
        <time>2019-02-16T10:42:31Z</time>
      </trkpt>
      <trkpt lat="43.89023" lon="2.07223">
        <ele>226.85</ele>
        <time>2019-02-16T10:42:49Z</time>
      </trkpt>
      <trkpt lat="43.89004" lon="2.07225">
        <ele>227.47</ele>
        <time>2019-02-16T10:43:05Z</time>
      </trkpt>
      <trkpt lat="43.88986" lon="2.07229">
        <ele>227.97</ele>
        <time>2019-02-16T10:43:19Z</time>
      </trkpt>
      <trkpt lat="43.88984" lon="2.07229">
        <ele>228.23</ele>
        <time>2019-02-16T10:43:21Z</time>
      </trkpt>
      <trkpt lat="43.88967" lon="2.07229">
        <ele>228.37</ele>
        <time>2019-02-16T10:43:36Z</time>
      </trkpt>
      <trkpt lat="43.88956" lon="2.07213">
        <ele>226.97</ele>
        <time>2019-02-16T10:43:52Z</time>
      </trkpt>
      <trkpt lat="43.88944" lon="2.07194">
        <ele>225.99</ele>
        <time>2019-02-16T10:44:08Z</time>
      </trkpt>
      <trkpt lat="43.88932" lon="2.07175">
        <ele>225.79</ele>
        <time>2019-02-16T10:44:23Z</time>
      </trkpt>
      <trkpt lat="43.88919" lon="2.07161">
        <ele>225.26</ele>
        <time>2019-02-16T10:44:39Z</time>
      </trkpt>
      <trkpt lat="43.88905" lon="2.07154">
        <ele>224.6</ele>
        <time>2019-02-16T10:44:54Z</time>
      </trkpt>
      <trkpt lat="43.8889" lon="2.07148">
        <ele>224.87</ele>
        <time>2019-02-16T10:45:07Z</time>
      </trkpt>
      <trkpt lat="43.88884" lon="2.07145">
        <ele>224.48</ele>
        <time>2019-02-16T10:45:12Z</time>
      </trkpt>
      <trkpt lat="43.88865" lon="2.0714">
        <ele>224.14</ele>
        <time>2019-02-16T10:45:29Z</time>
      </trkpt>
      <trkpt lat="43.88848" lon="2.07135">
        <ele>224.08</ele>
        <time>2019-02-16T10:45:45Z</time>
      </trkpt>
      <trkpt lat="43.88834" lon="2.07131">
        <ele>224.07</ele>
        <time>2019-02-16T10:45:58Z</time>
      </trkpt>
      <trkpt lat="43.88819" lon="2.0712">
        <ele>223.86</ele>
        <time>2019-02-16T10:46:13Z</time>
      </trkpt>
      <trkpt lat="43.88805" lon="2.07108">
        <ele>223.55</ele>
        <time>2019-02-16T10:46:27Z</time>
      </trkpt>
      <trkpt lat="43.888" lon="2.07103">
        <ele>224.05</ele>
        <time>2019-02-16T10:46:34Z</time>
      </trkpt>
      <trkpt lat="43.88797" lon="2.071">
        <ele>223.92</ele>
        <time>2019-02-16T10:46:38Z</time>
      </trkpt>
      <trkpt lat="43.88785" lon="2.07086">
        <ele>224.07</ele>
        <time>2019-02-16T10:46:52Z</time>
      </trkpt>
      <trkpt lat="43.88773" lon="2.07071">
        <ele>224.16</ele>
        <time>2019-02-16T10:47:09Z</time>
      </trkpt>
      <trkpt lat="43.8876" lon="2.0706">
        <ele>224.72</ele>
        <time>2019-02-16T10:47:24Z</time>
      </trkpt>
      <trkpt lat="43.88759" lon="2.0706">
        <ele>224.8</ele>
        <time>2019-02-16T10:47:25Z</time>
      </trkpt>
      <trkpt lat="43.88749" lon="2.07051">
        <ele>225.47</ele>
        <time>2019-02-16T10:47:37Z</time>
      </trkpt>
      <trkpt lat="43.88745" lon="2.07049">
        <ele>225.89</ele>
        <time>2019-02-16T10:47:41Z</time>
      </trkpt>
      <trkpt lat="43.88735" lon="2.07043">
        <ele>226.39</ele>
        <time>2019-02-16T10:47:55Z</time>
      </trkpt>
      <trkpt lat="43.88731" lon="2.0704">
        <ele>226.8</ele>
        <time>2019-02-16T10:47:59Z</time>
      </trkpt>
      <trkpt lat="43.88728" lon="2.07037">
        <ele>227.25</ele>
        <time>2019-02-16T10:48:03Z</time>
      </trkpt>
      <trkpt lat="43.88713" lon="2.07027">
        <ele>228.67</ele>
        <time>2019-02-16T10:48:19Z</time>
      </trkpt>
      <trkpt lat="43.88701" lon="2.07016">
        <ele>229.25</ele>
        <time>2019-02-16T10:48:32Z</time>
      </trkpt>
      <trkpt lat="43.88699" lon="2.07015">
        <ele>229.71</ele>
        <time>2019-02-16T10:48:34Z</time>
      </trkpt>
      <trkpt lat="43.88687" lon="2.07004">
        <ele>231.41</ele>
        <time>2019-02-16T10:48:49Z</time>
      </trkpt>
      <trkpt lat="43.88674" lon="2.06994">
        <ele>232.32</ele>
        <time>2019-02-16T10:49:03Z</time>
      </trkpt>
      <trkpt lat="43.88662" lon="2.06982">
        <ele>233.12</ele>
        <time>2019-02-16T10:49:18Z</time>
      </trkpt>
      <trkpt lat="43.88653" lon="2.06971">
        <ele>231.51</ele>
        <time>2019-02-16T10:49:32Z</time>
      </trkpt>
      <trkpt lat="43.88642" lon="2.06958">
        <ele>230.07</ele>
        <time>2019-02-16T10:49:50Z</time>
      </trkpt>
      <trkpt lat="43.88632" lon="2.06947">
        <ele>228.72</ele>
        <time>2019-02-16T10:50:08Z</time>
      </trkpt>
      <trkpt lat="43.88622" lon="2.06939">
        <ele>226.5</ele>
        <time>2019-02-16T10:50:25Z</time>
      </trkpt>
      <trkpt lat="43.8861" lon="2.06935">
        <ele>226.7</ele>
        <time>2019-02-16T10:50:44Z</time>
      </trkpt>
      <trkpt lat="43.88595" lon="2.0693">
        <ele>225.92</ele>
        <time>2019-02-16T10:50:59Z</time>
      </trkpt>
      <trkpt lat="43.88581" lon="2.06931">
        <ele>225.97</ele>
        <time>2019-02-16T10:51:11Z</time>
      </trkpt>
      <trkpt lat="43.88563" lon="2.06934">
        <ele>226.31</ele>
        <time>2019-02-16T10:51:26Z</time>
      </trkpt>
      <trkpt lat="43.88546" lon="2.0694">
        <ele>226.32</ele>
        <time>2019-02-16T10:51:41Z</time>
      </trkpt>
      <trkpt lat="43.88537" lon="2.06943">
        <ele>226.1</ele>
        <time>2019-02-16T10:51:51Z</time>
      </trkpt>
      <trkpt lat="43.88521" lon="2.06947">
        <ele>224.85</ele>
        <time>2019-02-16T10:52:06Z</time>
      </trkpt>
      <trkpt lat="43.88513" lon="2.0695">
        <ele>224.06</ele>
        <time>2019-02-16T10:52:12Z</time>
      </trkpt>
      <trkpt lat="43.88502" lon="2.06952">
        <ele>223.58</ele>
        <time>2019-02-16T10:52:23Z</time>
      </trkpt>
      <trkpt lat="43.88495" lon="2.06953">
        <ele>223.63</ele>
        <time>2019-02-16T10:52:28Z</time>
      </trkpt>
      <trkpt lat="43.88479" lon="2.0696">
        <ele>222.93</ele>
        <time>2019-02-16T10:52:42Z</time>
      </trkpt>
      <trkpt lat="43.88465" lon="2.06958">
        <ele>222.41</ele>
        <time>2019-02-16T10:52:57Z</time>
      </trkpt>
      <trkpt lat="43.88452" lon="2.06953">
        <ele>220.7</ele>
        <time>2019-02-16T10:53:12Z</time>
      </trkpt>
      <trkpt lat="43.88449" lon="2.06948">
        <ele>220.65</ele>
        <time>2019-02-16T10:53:17Z</time>
      </trkpt>
      <trkpt lat="43.88441" lon="2.06927">
        <ele>219.76</ele>
        <time>2019-02-16T10:53:34Z</time>
      </trkpt>
      <trkpt lat="43.88436" lon="2.06905">
        <ele>218.49</ele>
        <time>2019-02-16T10:53:52Z</time>
      </trkpt>
      <trkpt lat="43.88432" lon="2.06889">
        <ele>218.2</ele>
        <time>2019-02-16T10:54:05Z</time>
      </trkpt>
      <trkpt lat="43.88431" lon="2.06882">
        <ele>218.08</ele>
        <time>2019-02-16T10:54:10Z</time>
      </trkpt>
      <trkpt lat="43.88423" lon="2.0685">
        <ele>216.67</ele>
        <time>2019-02-16T10:54:31Z</time>
      </trkpt>
      <trkpt lat="43.88415" lon="2.06824">
        <ele>215.27</ele>
        <time>2019-02-16T10:54:50Z</time>
      </trkpt>
      <trkpt lat="43.8841" lon="2.06805">
        <ele>214.19</ele>
        <time>2019-02-16T10:55:05Z</time>
      </trkpt>
      <trkpt lat="43.88415" lon="2.06794">
        <ele>213.45</ele>
        <time>2019-02-16T10:55:16Z</time>
      </trkpt>
      <trkpt lat="43.88418" lon="2.06792">
        <ele>213.44</ele>
        <time>2019-02-16T10:55:19Z</time>
      </trkpt>
      <trkpt lat="43.88427" lon="2.06782">
        <ele>213.02</ele>
        <time>2019-02-16T10:55:30Z</time>
      </trkpt>
      <trkpt lat="43.8843" lon="2.06778">
        <ele>212.95</ele>
        <time>2019-02-16T10:55:34Z</time>
      </trkpt>
      <trkpt lat="43.88437" lon="2.06771">
        <ele>212.55</ele>
        <time>2019-02-16T10:55:42Z</time>
      </trkpt>
      <trkpt lat="43.88453" lon="2.06753">
        <ele>211.91</ele>
        <time>2019-02-16T10:55:59Z</time>
      </trkpt>
      <trkpt lat="43.88463" lon="2.0674">
        <ele>210.39</ele>
        <time>2019-02-16T10:56:11Z</time>
      </trkpt>
      <trkpt lat="43.88479" lon="2.06732">
        <ele>210.03</ele>
        <time>2019-02-16T10:56:28Z</time>
      </trkpt>
      <trkpt lat="43.88492" lon="2.0673">
        <ele>209.31</ele>
        <time>2019-02-16T10:56:40Z</time>
      </trkpt>
      <trkpt lat="43.88507" lon="2.06731">
        <ele>208.71</ele>
        <time>2019-02-16T10:56:54Z</time>
      </trkpt>
      <trkpt lat="43.88508" lon="2.06732">
        <ele>208.83</ele>
        <time>2019-02-16T10:56:57Z</time>
      </trkpt>
      <trkpt lat="43.88514" lon="2.06732">
        <ele>208.23</ele>
        <time>2019-02-16T10:57:01Z</time>
      </trkpt>
      <trkpt lat="43.88535" lon="2.06728">
        <ele>208.15</ele>
        <time>2019-02-16T10:57:17Z</time>
      </trkpt>
      <trkpt lat="43.88557" lon="2.06715">
        <ele>207.86</ele>
        <time>2019-02-16T10:57:37Z</time>
      </trkpt>
      <trkpt lat="43.88575" lon="2.06705">
        <ele>208.54</ele>
        <time>2019-02-16T10:57:54Z</time>
      </trkpt>
      <trkpt lat="43.88594" lon="2.06695">
        <ele>208.66</ele>
        <time>2019-02-16T10:58:09Z</time>
      </trkpt>
      <trkpt lat="43.88613" lon="2.06682">
        <ele>208.91</ele>
        <time>2019-02-16T10:58:25Z</time>
      </trkpt>
      <trkpt lat="43.88628" lon="2.0667">
        <ele>210.42</ele>
        <time>2019-02-16T10:58:40Z</time>
      </trkpt>
      <trkpt lat="43.88631" lon="2.06667">
        <ele>210.82</ele>
        <time>2019-02-16T10:58:43Z</time>
      </trkpt>
      <trkpt lat="43.88646" lon="2.06649">
        <ele>212.23</ele>
        <time>2019-02-16T10:59:00Z</time>
      </trkpt>
      <trkpt lat="43.88657" lon="2.06633">
        <ele>214.29</ele>
        <time>2019-02-16T10:59:16Z</time>
      </trkpt>
      <trkpt lat="43.88664" lon="2.06617">
        <ele>216.01</ele>
        <time>2019-02-16T10:59:30Z</time>
      </trkpt>
      <trkpt lat="43.88667" lon="2.06609">
        <ele>216.44</ele>
        <time>2019-02-16T10:59:36Z</time>
      </trkpt>
      <trkpt lat="43.88675" lon="2.06589">
        <ele>217.88</ele>
        <time>2019-02-16T10:59:52Z</time>
      </trkpt>
      <trkpt lat="43.88684" lon="2.06573">
        <ele>218.46</ele>
        <time>2019-02-16T11:00:04Z</time>
      </trkpt>
      <trkpt lat="43.88693" lon="2.06558">
        <ele>219.79</ele>
        <time>2019-02-16T11:00:18Z</time>
      </trkpt>
      <trkpt lat="43.88697" lon="2.06552">
        <ele>220.6</ele>
        <time>2019-02-16T11:00:24Z</time>
      </trkpt>
      <trkpt lat="43.88702" lon="2.06546">
        <ele>221.08</ele>
        <time>2019-02-16T11:00:30Z</time>
      </trkpt>
      <trkpt lat="43.88707" lon="2.06539">
        <ele>221.37</ele>
        <time>2019-02-16T11:00:36Z</time>
      </trkpt>
      <trkpt lat="43.8871" lon="2.06534">
        <ele>221.64</ele>
        <time>2019-02-16T11:00:40Z</time>
      </trkpt>
      <trkpt lat="43.88722" lon="2.06519">
        <ele>222.56</ele>
        <time>2019-02-16T11:00:54Z</time>
      </trkpt>
      <trkpt lat="43.88733" lon="2.06514">
        <ele>223.3</ele>
        <time>2019-02-16T11:01:06Z</time>
      </trkpt>
      <trkpt lat="43.88748" lon="2.06515">
        <ele>224.87</ele>
        <time>2019-02-16T11:01:21Z</time>
      </trkpt>
      <trkpt lat="43.88759" lon="2.06521">
        <ele>226.1</ele>
        <time>2019-02-16T11:01:35Z</time>
      </trkpt>
      <trkpt lat="43.88765" lon="2.06522">
        <ele>225.73</ele>
        <time>2019-02-16T11:01:49Z</time>
      </trkpt>
      <trkpt lat="43.88768" lon="2.06514">
        <ele>224.75</ele>
        <time>2019-02-16T11:02:01Z</time>
      </trkpt>
      <trkpt lat="43.88768" lon="2.06513">
        <ele>225.46</ele>
        <time>2019-02-16T11:02:02Z</time>
      </trkpt>
      <trkpt lat="43.88774" lon="2.06491">
        <ele>223.08</ele>
        <time>2019-02-16T11:02:18Z</time>
      </trkpt>
      <trkpt lat="43.88779" lon="2.06476">
        <ele>222.04</ele>
        <time>2019-02-16T11:02:33Z</time>
      </trkpt>
      <trkpt lat="43.88779" lon="2.06474">
        <ele>221.71</ele>
        <time>2019-02-16T11:02:34Z</time>
      </trkpt>
      <trkpt lat="43.88786" lon="2.06449">
        <ele>220.42</ele>
        <time>2019-02-16T11:02:52Z</time>
      </trkpt>
      <trkpt lat="43.88792" lon="2.06426">
        <ele>218.01</ele>
        <time>2019-02-16T11:03:09Z</time>
      </trkpt>
      <trkpt lat="43.88797" lon="2.06407">
        <ele>215.81</ele>
        <time>2019-02-16T11:03:25Z</time>
      </trkpt>
      <trkpt lat="43.88803" lon="2.06393">
        <ele>214.77</ele>
        <time>2019-02-16T11:03:39Z</time>
      </trkpt>
      <trkpt lat="43.88808" lon="2.06376">
        <ele>213.06</ele>
        <time>2019-02-16T11:03:53Z</time>
      </trkpt>
      <trkpt lat="43.88811" lon="2.06367">
        <ele>212.57</ele>
        <time>2019-02-16T11:04:00Z</time>
      </trkpt>
      <trkpt lat="43.88812" lon="2.0636">
        <ele>212.32</ele>
        <time>2019-02-16T11:04:05Z</time>
      </trkpt>
      <trkpt lat="43.88815" lon="2.0634">
        <ele>211.29</ele>
        <time>2019-02-16T11:04:20Z</time>
      </trkpt>
      <trkpt lat="43.88815" lon="2.06329">
        <ele>210.49</ele>
        <time>2019-02-16T11:04:33Z</time>
      </trkpt>
      <trkpt lat="43.88818" lon="2.06318">
        <ele>210.65</ele>
        <time>2019-02-16T11:04:41Z</time>
      </trkpt>
      <trkpt lat="43.88823" lon="2.06296">
        <ele>209.53</ele>
        <time>2019-02-16T11:04:57Z</time>
      </trkpt>
      <trkpt lat="43.88828" lon="2.06284">
        <ele>208.6</ele>
        <time>2019-02-16T11:05:07Z</time>
      </trkpt>
      <trkpt lat="43.88829" lon="2.0628">
        <ele>208.15</ele>
        <time>2019-02-16T11:05:10Z</time>
      </trkpt>
      <trkpt lat="43.88835" lon="2.06259">
        <ele>207.16</ele>
        <time>2019-02-16T11:05:25Z</time>
      </trkpt>
      <trkpt lat="43.88837" lon="2.06242">
        <ele>205.72</ele>
        <time>2019-02-16T11:05:40Z</time>
      </trkpt>
      <trkpt lat="43.88823" lon="2.06235">
        <ele>204.2</ele>
        <time>2019-02-16T11:05:55Z</time>
      </trkpt>
      <trkpt lat="43.88809" lon="2.06236">
        <ele>203.08</ele>
        <time>2019-02-16T11:06:10Z</time>
      </trkpt>
      <trkpt lat="43.88798" lon="2.06241">
        <ele>200.47</ele>
        <time>2019-02-16T11:06:27Z</time>
      </trkpt>
      <trkpt lat="43.88793" lon="2.06243">
        <ele>201.13</ele>
        <time>2019-02-16T11:06:31Z</time>
      </trkpt>
      <trkpt lat="43.88776" lon="2.06248">
        <ele>198.93</ele>
        <time>2019-02-16T11:06:47Z</time>
      </trkpt>
      <trkpt lat="43.88762" lon="2.06251">
        <ele>197.25</ele>
        <time>2019-02-16T11:07:01Z</time>
      </trkpt>
      <trkpt lat="43.8876" lon="2.06251">
        <ele>196.98</ele>
        <time>2019-02-16T11:07:04Z</time>
      </trkpt>
      <trkpt lat="43.88743" lon="2.06245">
        <ele>196.25</ele>
        <time>2019-02-16T11:07:19Z</time>
      </trkpt>
      <trkpt lat="43.88722" lon="2.06242">
        <ele>194.2</ele>
        <time>2019-02-16T11:07:37Z</time>
      </trkpt>
      <trkpt lat="43.88707" lon="2.06239">
        <ele>193.16</ele>
        <time>2019-02-16T11:07:51Z</time>
      </trkpt>
      <trkpt lat="43.88688" lon="2.06238">
        <ele>191.47</ele>
        <time>2019-02-16T11:08:09Z</time>
      </trkpt>
      <trkpt lat="43.88675" lon="2.06237">
        <ele>190.57</ele>
        <time>2019-02-16T11:08:23Z</time>
      </trkpt>
      <trkpt lat="43.88673" lon="2.06237">
        <ele>190.92</ele>
        <time>2019-02-16T11:08:25Z</time>
      </trkpt>
      <trkpt lat="43.88668" lon="2.06238">
        <ele>190.35</ele>
        <time>2019-02-16T11:08:29Z</time>
      </trkpt>
      <trkpt lat="43.88643" lon="2.06237">
        <ele>188.7</ele>
        <time>2019-02-16T11:08:50Z</time>
      </trkpt>
      <trkpt lat="43.88623" lon="2.06237">
        <ele>188.33</ele>
        <time>2019-02-16T11:09:08Z</time>
      </trkpt>
      <trkpt lat="43.88609" lon="2.06235">
        <ele>187.19</ele>
        <time>2019-02-16T11:09:21Z</time>
      </trkpt>
      <trkpt lat="43.88608" lon="2.06233">
        <ele>186.64</ele>
        <time>2019-02-16T11:09:23Z</time>
      </trkpt>
      <trkpt lat="43.88608" lon="2.06228">
        <ele>186.74</ele>
        <time>2019-02-16T11:09:26Z</time>
      </trkpt>
      <trkpt lat="43.88612" lon="2.06218">
        <ele>186.37</ele>
        <time>2019-02-16T11:09:34Z</time>
      </trkpt>
      <trkpt lat="43.88621" lon="2.06202">
        <ele>184.96</ele>
        <time>2019-02-16T11:09:48Z</time>
      </trkpt>
      <trkpt lat="43.88631" lon="2.06187">
        <ele>183.98</ele>
        <time>2019-02-16T11:10:02Z</time>
      </trkpt>
      <trkpt lat="43.88632" lon="2.06185">
        <ele>184.01</ele>
        <time>2019-02-16T11:10:04Z</time>
      </trkpt>
      <trkpt lat="43.88635" lon="2.06181">
        <ele>183.87</ele>
        <time>2019-02-16T11:10:08Z</time>
      </trkpt>
      <trkpt lat="43.88646" lon="2.06163">
        <ele>183.08</ele>
        <time>2019-02-16T11:10:24Z</time>
      </trkpt>
      <trkpt lat="43.88647" lon="2.0616">
        <ele>182.78</ele>
        <time>2019-02-16T11:10:26Z</time>
      </trkpt>
      <trkpt lat="43.88649" lon="2.06158">
        <ele>182.91</ele>
        <time>2019-02-16T11:10:28Z</time>
      </trkpt>
      <trkpt lat="43.88651" lon="2.06153">
        <ele>182.67</ele>
        <time>2019-02-16T11:10:33Z</time>
      </trkpt>
      <trkpt lat="43.88655" lon="2.06146">
        <ele>182.61</ele>
        <time>2019-02-16T11:10:39Z</time>
      </trkpt>
      <trkpt lat="43.88664" lon="2.06131">
        <ele>182.45</ele>
        <time>2019-02-16T11:10:51Z</time>
      </trkpt>
      <trkpt lat="43.88677" lon="2.0611">
        <ele>181.77</ele>
        <time>2019-02-16T11:11:09Z</time>
      </trkpt>
      <trkpt lat="43.88678" lon="2.06107">
        <ele>182.17</ele>
        <time>2019-02-16T11:11:26Z</time>
      </trkpt>
      <trkpt lat="43.88681" lon="2.06103">
        <ele>182.69</ele>
        <time>2019-02-16T11:11:30Z</time>
      </trkpt>
      <trkpt lat="43.88687" lon="2.06079">
        <ele>182.03</ele>
        <time>2019-02-16T11:11:45Z</time>
      </trkpt>
      <trkpt lat="43.88687" lon="2.06059">
        <ele>182.42</ele>
        <time>2019-02-16T11:11:59Z</time>
      </trkpt>
      <trkpt lat="43.88686" lon="2.06052">
        <ele>182.37</ele>
        <time>2019-02-16T11:12:04Z</time>
      </trkpt>
      <trkpt lat="43.88685" lon="2.06049">
        <ele>182.38</ele>
        <time>2019-02-16T11:12:06Z</time>
      </trkpt>
      <trkpt lat="43.88685" lon="2.06025">
        <ele>182</ele>
        <time>2019-02-16T11:12:23Z</time>
      </trkpt>
      <trkpt lat="43.88685" lon="2.06018">
        <ele>181.41</ele>
        <time>2019-02-16T11:12:29Z</time>
      </trkpt>
      <trkpt lat="43.88687" lon="2.0601">
        <ele>181.15</ele>
        <time>2019-02-16T11:12:35Z</time>
      </trkpt>
      <trkpt lat="43.8869" lon="2.06">
        <ele>181.27</ele>
        <time>2019-02-16T11:12:42Z</time>
      </trkpt>
      <trkpt lat="43.887" lon="2.05987">
        <ele>181.14</ele>
        <time>2019-02-16T11:12:55Z</time>
      </trkpt>
      <trkpt lat="43.8871" lon="2.05979">
        <ele>181.55</ele>
        <time>2019-02-16T11:13:07Z</time>
      </trkpt>
      <trkpt lat="43.88723" lon="2.05969">
        <ele>182</ele>
        <time>2019-02-16T11:13:28Z</time>
      </trkpt>
      <trkpt lat="43.88729" lon="2.05968">
        <ele>189.65</ele>
        <time>2019-02-16T12:02:55Z</time>
      </trkpt>
      <trkpt lat="43.88732" lon="2.05967">
        <ele>189.72</ele>
        <time>2019-02-16T12:02:58Z</time>
      </trkpt>
      <trkpt lat="43.8875" lon="2.05957">
        <ele>189.54</ele>
        <time>2019-02-16T12:03:13Z</time>
      </trkpt>
      <trkpt lat="43.88763" lon="2.05947">
        <ele>189.57</ele>
        <time>2019-02-16T12:03:28Z</time>
      </trkpt>
      <trkpt lat="43.88774" lon="2.05938">
        <ele>189.18</ele>
        <time>2019-02-16T12:03:41Z</time>
      </trkpt>
      <trkpt lat="43.88775" lon="2.05936">
        <ele>189.49</ele>
        <time>2019-02-16T12:03:43Z</time>
      </trkpt>
      <trkpt lat="43.88783" lon="2.05929">
        <ele>188.48</ele>
        <time>2019-02-16T12:03:50Z</time>
      </trkpt>
      <trkpt lat="43.888" lon="2.05911">
        <ele>188.35</ele>
        <time>2019-02-16T12:04:07Z</time>
      </trkpt>
      <trkpt lat="43.88814" lon="2.05891">
        <ele>188.12</ele>
        <time>2019-02-16T12:04:23Z</time>
      </trkpt>
      <trkpt lat="43.88815" lon="2.05871">
        <ele>189.23</ele>
        <time>2019-02-16T12:04:38Z</time>
      </trkpt>
      <trkpt lat="43.88803" lon="2.05849">
        <ele>190.62</ele>
        <time>2019-02-16T12:04:56Z</time>
      </trkpt>
      <trkpt lat="43.88802" lon="2.05846">
        <ele>190.9</ele>
        <time>2019-02-16T12:04:58Z</time>
      </trkpt>
      <trkpt lat="43.888" lon="2.05844">
        <ele>191.6</ele>
        <time>2019-02-16T12:05:00Z</time>
      </trkpt>
      <trkpt lat="43.88796" lon="2.05834">
        <ele>192.99</ele>
        <time>2019-02-16T12:05:10Z</time>
      </trkpt>
      <trkpt lat="43.88793" lon="2.05829">
        <ele>193.23</ele>
        <time>2019-02-16T12:05:14Z</time>
      </trkpt>
      <trkpt lat="43.88783" lon="2.05814">
        <ele>195.69</ele>
        <time>2019-02-16T12:05:30Z</time>
      </trkpt>
      <trkpt lat="43.88775" lon="2.05796">
        <ele>196.99</ele>
        <time>2019-02-16T12:05:50Z</time>
      </trkpt>
      <trkpt lat="43.88773" lon="2.05788">
        <ele>197.57</ele>
        <time>2019-02-16T12:05:58Z</time>
      </trkpt>
      <trkpt lat="43.88763" lon="2.05772">
        <ele>200.02</ele>
        <time>2019-02-16T12:06:20Z</time>
      </trkpt>
      <trkpt lat="43.88763" lon="2.0577">
        <ele>200.1</ele>
        <time>2019-02-16T12:06:21Z</time>
      </trkpt>
      <trkpt lat="43.88757" lon="2.05755">
        <ele>201.47</ele>
        <time>2019-02-16T12:06:35Z</time>
      </trkpt>
      <trkpt lat="43.88756" lon="2.05752">
        <ele>201.3</ele>
        <time>2019-02-16T12:06:37Z</time>
      </trkpt>
      <trkpt lat="43.88755" lon="2.05737">
        <ele>202.05</ele>
        <time>2019-02-16T12:06:45Z</time>
      </trkpt>
      <trkpt lat="43.88756" lon="2.05728">
        <ele>201.89</ele>
        <time>2019-02-16T12:06:50Z</time>
      </trkpt>
      <trkpt lat="43.88756" lon="2.05701">
        <ele>201.66</ele>
        <time>2019-02-16T12:07:06Z</time>
      </trkpt>
      <trkpt lat="43.88757" lon="2.05679">
        <ele>202.28</ele>
        <time>2019-02-16T12:07:20Z</time>
      </trkpt>
      <trkpt lat="43.88757" lon="2.05672">
        <ele>203.07</ele>
        <time>2019-02-16T12:07:25Z</time>
      </trkpt>
      <trkpt lat="43.88757" lon="2.05658">
        <ele>204.26</ele>
        <time>2019-02-16T12:07:38Z</time>
      </trkpt>
      <trkpt lat="43.88758" lon="2.0565">
        <ele>205.15</ele>
        <time>2019-02-16T12:07:51Z</time>
      </trkpt>
      <trkpt lat="43.88758" lon="2.05647">
        <ele>205.63</ele>
        <time>2019-02-16T12:07:53Z</time>
      </trkpt>
      <trkpt lat="43.88759" lon="2.05643">
        <ele>205.92</ele>
        <time>2019-02-16T12:07:56Z</time>
      </trkpt>
      <trkpt lat="43.8876" lon="2.05632">
        <ele>208.58</ele>
        <time>2019-02-16T12:08:10Z</time>
      </trkpt>
      <trkpt lat="43.88759" lon="2.05625">
        <ele>209.12</ele>
        <time>2019-02-16T12:08:19Z</time>
      </trkpt>
      <trkpt lat="43.8876" lon="2.05612">
        <ele>210.33</ele>
        <time>2019-02-16T12:08:30Z</time>
      </trkpt>
      <trkpt lat="43.8876" lon="2.05609">
        <ele>210.42</ele>
        <time>2019-02-16T12:08:32Z</time>
      </trkpt>
      <trkpt lat="43.88761" lon="2.05594">
        <ele>211.75</ele>
        <time>2019-02-16T12:08:45Z</time>
      </trkpt>
      <trkpt lat="43.88762" lon="2.05591">
        <ele>211.9</ele>
        <time>2019-02-16T12:08:47Z</time>
      </trkpt>
      <trkpt lat="43.88764" lon="2.05573">
        <ele>212.83</ele>
        <time>2019-02-16T12:09:02Z</time>
      </trkpt>
      <trkpt lat="43.88765" lon="2.05553">
        <ele>213.38</ele>
        <time>2019-02-16T12:09:17Z</time>
      </trkpt>
      <trkpt lat="43.88766" lon="2.05544">
        <ele>213.31</ele>
        <time>2019-02-16T12:09:25Z</time>
      </trkpt>
      <trkpt lat="43.88766" lon="2.05534">
        <ele>212.87</ele>
        <time>2019-02-16T12:09:32Z</time>
      </trkpt>
      <trkpt lat="43.88764" lon="2.05531">
        <ele>213.51</ele>
        <time>2019-02-16T12:09:35Z</time>
      </trkpt>
      <trkpt lat="43.88759" lon="2.05528">
        <ele>213.42</ele>
        <time>2019-02-16T12:09:41Z</time>
      </trkpt>
      <trkpt lat="43.88744" lon="2.05527">
        <ele>213.85</ele>
        <time>2019-02-16T12:09:56Z</time>
      </trkpt>
      <trkpt lat="43.88732" lon="2.05518">
        <ele>214.13</ele>
        <time>2019-02-16T12:10:09Z</time>
      </trkpt>
      <trkpt lat="43.88718" lon="2.05511">
        <ele>214.14</ele>
        <time>2019-02-16T12:10:25Z</time>
      </trkpt>
      <trkpt lat="43.88715" lon="2.0551">
        <ele>214.77</ele>
        <time>2019-02-16T12:10:28Z</time>
      </trkpt>
      <trkpt lat="43.88695" lon="2.05506">
        <ele>215.45</ele>
        <time>2019-02-16T12:10:47Z</time>
      </trkpt>
      <trkpt lat="43.88679" lon="2.05503">
        <ele>215.72</ele>
        <time>2019-02-16T12:11:02Z</time>
      </trkpt>
      <trkpt lat="43.88664" lon="2.055">
        <ele>216.15</ele>
        <time>2019-02-16T12:11:17Z</time>
      </trkpt>
      <trkpt lat="43.88642" lon="2.05496">
        <ele>216.02</ele>
        <time>2019-02-16T12:11:37Z</time>
      </trkpt>
      <trkpt lat="43.88624" lon="2.05492">
        <ele>215.94</ele>
        <time>2019-02-16T12:11:54Z</time>
      </trkpt>
      <trkpt lat="43.88608" lon="2.05487">
        <ele>215.54</ele>
        <time>2019-02-16T12:12:10Z</time>
      </trkpt>
      <trkpt lat="43.88589" lon="2.05481">
        <ele>216.38</ele>
        <time>2019-02-16T12:12:28Z</time>
      </trkpt>
      <trkpt lat="43.88575" lon="2.05476">
        <ele>216.45</ele>
        <time>2019-02-16T12:12:42Z</time>
      </trkpt>
      <trkpt lat="43.88559" lon="2.05473">
        <ele>216.68</ele>
        <time>2019-02-16T12:12:57Z</time>
      </trkpt>
      <trkpt lat="43.88546" lon="2.05469">
        <ele>216.95</ele>
        <time>2019-02-16T12:13:10Z</time>
      </trkpt>
      <trkpt lat="43.88531" lon="2.05464">
        <ele>217.92</ele>
        <time>2019-02-16T12:13:24Z</time>
      </trkpt>
      <trkpt lat="43.88516" lon="2.05462">
        <ele>217.54</ele>
        <time>2019-02-16T12:13:43Z</time>
      </trkpt>
      <trkpt lat="43.88504" lon="2.05459">
        <ele>218.27</ele>
        <time>2019-02-16T12:14:01Z</time>
      </trkpt>
      <trkpt lat="43.88494" lon="2.05454">
        <ele>218.5</ele>
        <time>2019-02-16T12:14:18Z</time>
      </trkpt>
      <trkpt lat="43.88482" lon="2.05452">
        <ele>219.07</ele>
        <time>2019-02-16T12:14:33Z</time>
      </trkpt>
      <trkpt lat="43.88462" lon="2.05444">
        <ele>220.39</ele>
        <time>2019-02-16T12:14:52Z</time>
      </trkpt>
      <trkpt lat="43.88446" lon="2.05441">
        <ele>221.03</ele>
        <time>2019-02-16T12:15:08Z</time>
      </trkpt>
      <trkpt lat="43.88436" lon="2.0544">
        <ele>221.92</ele>
        <time>2019-02-16T12:15:25Z</time>
      </trkpt>
      <trkpt lat="43.88425" lon="2.05434">
        <ele>222.33</ele>
        <time>2019-02-16T12:15:44Z</time>
      </trkpt>
      <trkpt lat="43.88424" lon="2.05409">
        <ele>222.65</ele>
        <time>2019-02-16T12:16:04Z</time>
      </trkpt>
      <trkpt lat="43.88429" lon="2.05387">
        <ele>222.18</ele>
        <time>2019-02-16T12:16:25Z</time>
      </trkpt>
      <trkpt lat="43.88426" lon="2.05365">
        <ele>222.27</ele>
        <time>2019-02-16T12:16:42Z</time>
      </trkpt>
      <trkpt lat="43.88422" lon="2.05342">
        <ele>222.65</ele>
        <time>2019-02-16T12:17:00Z</time>
      </trkpt>
      <trkpt lat="43.88418" lon="2.05321">
        <ele>222.13</ele>
        <time>2019-02-16T12:17:14Z</time>
      </trkpt>
      <trkpt lat="43.88409" lon="2.05321">
        <ele>223.46</ele>
        <time>2019-02-16T12:17:28Z</time>
      </trkpt>
      <trkpt lat="43.88395" lon="2.05322">
        <ele>224.99</ele>
        <time>2019-02-16T12:17:48Z</time>
      </trkpt>
      <trkpt lat="43.88383" lon="2.05322">
        <ele>226.94</ele>
        <time>2019-02-16T12:18:05Z</time>
      </trkpt>
      <trkpt lat="43.88365" lon="2.05318">
        <ele>229.24</ele>
        <time>2019-02-16T12:18:24Z</time>
      </trkpt>
      <trkpt lat="43.88352" lon="2.05316">
        <ele>230.21</ele>
        <time>2019-02-16T12:18:40Z</time>
      </trkpt>
      <trkpt lat="43.88342" lon="2.05311">
        <ele>230.32</ele>
        <time>2019-02-16T12:18:49Z</time>
      </trkpt>
      <trkpt lat="43.88333" lon="2.053">
        <ele>230.78</ele>
        <time>2019-02-16T12:19:01Z</time>
      </trkpt>
      <trkpt lat="43.88322" lon="2.05284">
        <ele>232.23</ele>
        <time>2019-02-16T12:19:18Z</time>
      </trkpt>
      <trkpt lat="43.88315" lon="2.05273">
        <ele>232.74</ele>
        <time>2019-02-16T12:19:37Z</time>
      </trkpt>
      <trkpt lat="43.88309" lon="2.0526">
        <ele>233.84</ele>
        <time>2019-02-16T12:19:51Z</time>
      </trkpt>
      <trkpt lat="43.88301" lon="2.05236">
        <ele>234.17</ele>
        <time>2019-02-16T12:20:09Z</time>
      </trkpt>
      <trkpt lat="43.88293" lon="2.0521">
        <ele>234.4</ele>
        <time>2019-02-16T12:20:29Z</time>
      </trkpt>
      <trkpt lat="43.88286" lon="2.05186">
        <ele>234.2</ele>
        <time>2019-02-16T12:20:47Z</time>
      </trkpt>
      <trkpt lat="43.88281" lon="2.05153">
        <ele>234.79</ele>
        <time>2019-02-16T12:21:06Z</time>
      </trkpt>
      <trkpt lat="43.88275" lon="2.05126">
        <ele>234.29</ele>
        <time>2019-02-16T12:21:25Z</time>
      </trkpt>
      <trkpt lat="43.88274" lon="2.051">
        <ele>233.58</ele>
        <time>2019-02-16T12:21:41Z</time>
      </trkpt>
      <trkpt lat="43.88266" lon="2.05073">
        <ele>233.1</ele>
        <time>2019-02-16T12:22:00Z</time>
      </trkpt>
      <trkpt lat="43.88254" lon="2.05048">
        <ele>232.77</ele>
        <time>2019-02-16T12:22:20Z</time>
      </trkpt>
      <trkpt lat="43.88243" lon="2.05021">
        <ele>233.22</ele>
        <time>2019-02-16T12:22:41Z</time>
      </trkpt>
      <trkpt lat="43.88229" lon="2.05">
        <ele>232.76</ele>
        <time>2019-02-16T12:23:00Z</time>
      </trkpt>
      <trkpt lat="43.88217" lon="2.04986">
        <ele>232.82</ele>
        <time>2019-02-16T12:23:18Z</time>
      </trkpt>
      <trkpt lat="43.88212" lon="2.04981">
        <ele>233.05</ele>
        <time>2019-02-16T12:23:38Z</time>
      </trkpt>
      <trkpt lat="43.88211" lon="2.04979">
        <ele>232.75</ele>
        <time>2019-02-16T12:24:11Z</time>
      </trkpt>
      <trkpt lat="43.8821" lon="2.04971">
        <ele>231.71</ele>
        <time>2019-02-16T12:24:37Z</time>
      </trkpt>
      <trkpt lat="43.8821" lon="2.0495">
        <ele>231.05</ele>
        <time>2019-02-16T12:24:55Z</time>
      </trkpt>
      <trkpt lat="43.8821" lon="2.0493">
        <ele>229.01</ele>
        <time>2019-02-16T12:25:13Z</time>
      </trkpt>
      <trkpt lat="43.8821" lon="2.04924">
        <ele>228.34</ele>
        <time>2019-02-16T12:25:30Z</time>
      </trkpt>
      <trkpt lat="43.88208" lon="2.04907">
        <ele>226.99</ele>
        <time>2019-02-16T12:25:45Z</time>
      </trkpt>
      <trkpt lat="43.88208" lon="2.04884">
        <ele>225.28</ele>
        <time>2019-02-16T12:26:05Z</time>
      </trkpt>
      <trkpt lat="43.88209" lon="2.04857">
        <ele>222.62</ele>
        <time>2019-02-16T12:26:25Z</time>
      </trkpt>
      <trkpt lat="43.88209" lon="2.04854">
        <ele>222.68</ele>
        <time>2019-02-16T12:26:27Z</time>
      </trkpt>
      <trkpt lat="43.88213" lon="2.04828">
        <ele>220.74</ele>
        <time>2019-02-16T12:26:47Z</time>
      </trkpt>
      <trkpt lat="43.88219" lon="2.04806">
        <ele>219.21</ele>
        <time>2019-02-16T12:27:05Z</time>
      </trkpt>
      <trkpt lat="43.88227" lon="2.04781">
        <ele>218.36</ele>
        <time>2019-02-16T12:27:25Z</time>
      </trkpt>
      <trkpt lat="43.88235" lon="2.04756">
        <ele>216.04</ele>
        <time>2019-02-16T12:27:47Z</time>
      </trkpt>
      <trkpt lat="43.88238" lon="2.04747">
        <ele>215.67</ele>
        <time>2019-02-16T12:27:54Z</time>
      </trkpt>
      <trkpt lat="43.88244" lon="2.0473">
        <ele>214.2</ele>
        <time>2019-02-16T12:28:11Z</time>
      </trkpt>
      <trkpt lat="43.88251" lon="2.04708">
        <ele>213.8</ele>
        <time>2019-02-16T12:28:31Z</time>
      </trkpt>
      <trkpt lat="43.88259" lon="2.04682">
        <ele>213.39</ele>
        <time>2019-02-16T12:28:52Z</time>
      </trkpt>
      <trkpt lat="43.88269" lon="2.04658">
        <ele>211.62</ele>
        <time>2019-02-16T12:29:12Z</time>
      </trkpt>
      <trkpt lat="43.88282" lon="2.04633">
        <ele>210.65</ele>
        <time>2019-02-16T12:29:34Z</time>
      </trkpt>
      <trkpt lat="43.88293" lon="2.04609">
        <ele>210.62</ele>
        <time>2019-02-16T12:29:56Z</time>
      </trkpt>
      <trkpt lat="43.88305" lon="2.04583">
        <ele>209.65</ele>
        <time>2019-02-16T12:30:19Z</time>
      </trkpt>
      <trkpt lat="43.88313" lon="2.04567">
        <ele>209.66</ele>
        <time>2019-02-16T12:30:35Z</time>
      </trkpt>
      <trkpt lat="43.88316" lon="2.04562">
        <ele>209.28</ele>
        <time>2019-02-16T12:30:39Z</time>
      </trkpt>
      <trkpt lat="43.88326" lon="2.04544">
        <ele>209.33</ele>
        <time>2019-02-16T12:30:57Z</time>
      </trkpt>
      <trkpt lat="43.88337" lon="2.04526">
        <ele>208.93</ele>
        <time>2019-02-16T12:31:15Z</time>
      </trkpt>
      <trkpt lat="43.88349" lon="2.04509">
        <ele>208.3</ele>
        <time>2019-02-16T12:31:33Z</time>
      </trkpt>
      <trkpt lat="43.88361" lon="2.04491">
        <ele>208.1</ele>
        <time>2019-02-16T12:31:52Z</time>
      </trkpt>
      <trkpt lat="43.88366" lon="2.04484">
        <ele>208.32</ele>
        <time>2019-02-16T12:31:59Z</time>
      </trkpt>
      <trkpt lat="43.88376" lon="2.0447">
        <ele>207.24</ele>
        <time>2019-02-16T12:32:14Z</time>
      </trkpt>
      <trkpt lat="43.88385" lon="2.04455">
        <ele>207.16</ele>
        <time>2019-02-16T12:32:30Z</time>
      </trkpt>
      <trkpt lat="43.88388" lon="2.04442">
        <ele>207.23</ele>
        <time>2019-02-16T12:32:46Z</time>
      </trkpt>
      <trkpt lat="43.88388" lon="2.04439">
        <ele>207.31</ele>
        <time>2019-02-16T12:33:05Z</time>
      </trkpt>
      <trkpt lat="43.88387" lon="2.04437">
        <ele>207.43</ele>
        <time>2019-02-16T12:33:07Z</time>
      </trkpt>
      <trkpt lat="43.88375" lon="2.0442">
        <ele>206.84</ele>
        <time>2019-02-16T12:33:25Z</time>
      </trkpt>
      <trkpt lat="43.88362" lon="2.04408">
        <ele>206.28</ele>
        <time>2019-02-16T12:33:39Z</time>
      </trkpt>
      <trkpt lat="43.88348" lon="2.04394">
        <ele>206.31</ele>
        <time>2019-02-16T12:33:53Z</time>
      </trkpt>
      <trkpt lat="43.88346" lon="2.04393">
        <ele>206.53</ele>
        <time>2019-02-16T12:33:55Z</time>
      </trkpt>
      <trkpt lat="43.88333" lon="2.04381">
        <ele>205.85</ele>
        <time>2019-02-16T12:34:08Z</time>
      </trkpt>
      <trkpt lat="43.88329" lon="2.04368">
        <ele>206.3</ele>
        <time>2019-02-16T12:34:23Z</time>
      </trkpt>
      <trkpt lat="43.88314" lon="2.04338">
        <ele>205.98</ele>
        <time>2019-02-16T12:35:37Z</time>
      </trkpt>
      <trkpt lat="43.88308" lon="2.04314">
        <ele>206.39</ele>
        <time>2019-02-16T12:35:54Z</time>
      </trkpt>
      <trkpt lat="43.88303" lon="2.04288">
        <ele>206.64</ele>
        <time>2019-02-16T12:36:11Z</time>
      </trkpt>
      <trkpt lat="43.88296" lon="2.04268">
        <ele>207.82</ele>
        <time>2019-02-16T12:36:28Z</time>
      </trkpt>
      <trkpt lat="43.88292" lon="2.04264">
        <ele>207.55</ele>
        <time>2019-02-16T12:36:45Z</time>
      </trkpt>
      <trkpt lat="43.88292" lon="2.04264">
        <ele>207.58</ele>
        <time>2019-02-16T12:37:12Z</time>
      </trkpt>
      <trkpt lat="43.88286" lon="2.04267">
        <ele>207.45</ele>
        <time>2019-02-16T12:37:41Z</time>
      </trkpt>
      <trkpt lat="43.88277" lon="2.04271">
        <ele>207.77</ele>
        <time>2019-02-16T12:37:53Z</time>
      </trkpt>
      <trkpt lat="43.8826" lon="2.0428">
        <ele>208.14</ele>
        <time>2019-02-16T12:38:12Z</time>
      </trkpt>
      <trkpt lat="43.88247" lon="2.04289">
        <ele>207.95</ele>
        <time>2019-02-16T12:38:26Z</time>
      </trkpt>
      <trkpt lat="43.88231" lon="2.043">
        <ele>208.45</ele>
        <time>2019-02-16T12:38:43Z</time>
      </trkpt>
      <trkpt lat="43.88214" lon="2.04312">
        <ele>208.11</ele>
        <time>2019-02-16T12:39:00Z</time>
      </trkpt>
      <trkpt lat="43.88199" lon="2.04324">
        <ele>208.64</ele>
        <time>2019-02-16T12:39:15Z</time>
      </trkpt>
      <trkpt lat="43.88183" lon="2.04337">
        <ele>209.17</ele>
        <time>2019-02-16T12:39:31Z</time>
      </trkpt>
      <trkpt lat="43.88165" lon="2.04351">
        <ele>209.04</ele>
        <time>2019-02-16T12:39:49Z</time>
      </trkpt>
      <trkpt lat="43.88147" lon="2.0436">
        <ele>209.79</ele>
        <time>2019-02-16T12:40:05Z</time>
      </trkpt>
      <trkpt lat="43.88129" lon="2.04362">
        <ele>210.11</ele>
        <time>2019-02-16T12:40:22Z</time>
      </trkpt>
      <trkpt lat="43.88127" lon="2.04358">
        <ele>210.26</ele>
        <time>2019-02-16T12:40:26Z</time>
      </trkpt>
      <trkpt lat="43.8813" lon="2.04338">
        <ele>210.51</ele>
        <time>2019-02-16T12:40:41Z</time>
      </trkpt>
      <trkpt lat="43.88135" lon="2.04317">
        <ele>210.09</ele>
        <time>2019-02-16T12:40:56Z</time>
      </trkpt>
      <trkpt lat="43.88141" lon="2.04293">
        <ele>210.52</ele>
        <time>2019-02-16T12:41:13Z</time>
      </trkpt>
      <trkpt lat="43.88145" lon="2.04277">
        <ele>210.13</ele>
        <time>2019-02-16T12:41:23Z</time>
      </trkpt>
      <trkpt lat="43.88151" lon="2.04247">
        <ele>210.39</ele>
        <time>2019-02-16T12:41:42Z</time>
      </trkpt>
      <trkpt lat="43.88151" lon="2.04246">
        <ele>209.94</ele>
        <time>2019-02-16T12:41:43Z</time>
      </trkpt>
      <trkpt lat="43.88154" lon="2.04221">
        <ele>210.1</ele>
        <time>2019-02-16T12:42:00Z</time>
      </trkpt>
      <trkpt lat="43.88156" lon="2.04194">
        <ele>209.99</ele>
        <time>2019-02-16T12:42:16Z</time>
      </trkpt>
      <trkpt lat="43.88157" lon="2.04167">
        <ele>209.94</ele>
        <time>2019-02-16T12:42:33Z</time>
      </trkpt>
      <trkpt lat="43.88161" lon="2.04142">
        <ele>210.02</ele>
        <time>2019-02-16T12:42:48Z</time>
      </trkpt>
      <trkpt lat="43.88163" lon="2.04129">
        <ele>210.17</ele>
        <time>2019-02-16T12:42:57Z</time>
      </trkpt>
      <trkpt lat="43.88159" lon="2.04111">
        <ele>209.82</ele>
        <time>2019-02-16T12:43:10Z</time>
      </trkpt>
      <trkpt lat="43.88155" lon="2.0411">
        <ele>209.64</ele>
        <time>2019-02-16T12:43:15Z</time>
      </trkpt>
      <trkpt lat="43.88136" lon="2.0411">
        <ele>209.91</ele>
        <time>2019-02-16T12:43:32Z</time>
      </trkpt>
      <trkpt lat="43.88127" lon="2.04111">
        <ele>209.63</ele>
        <time>2019-02-16T12:43:40Z</time>
      </trkpt>
      <trkpt lat="43.88123" lon="2.04112">
        <ele>209.75</ele>
        <time>2019-02-16T12:43:44Z</time>
      </trkpt>
      <trkpt lat="43.88112" lon="2.04115">
        <ele>210.08</ele>
        <time>2019-02-16T12:44:02Z</time>
      </trkpt>
      <trkpt lat="43.88106" lon="2.04115">
        <ele>209.83</ele>
        <time>2019-02-16T12:45:49Z</time>
      </trkpt>
      <trkpt lat="43.88104" lon="2.04116">
        <ele>209.99</ele>
        <time>2019-02-16T12:46:15Z</time>
      </trkpt>
      <trkpt lat="43.88096" lon="2.04118">
        <ele>209.62</ele>
        <time>2019-02-16T12:46:32Z</time>
      </trkpt>
      <trkpt lat="43.88093" lon="2.04119">
        <ele>209.23</ele>
        <time>2019-02-16T12:46:48Z</time>
      </trkpt>
      <trkpt lat="43.88083" lon="2.04121">
        <ele>208.39</ele>
        <time>2019-02-16T12:47:03Z</time>
      </trkpt>
      <trkpt lat="43.8808" lon="2.04121">
        <ele>208.01</ele>
        <time>2019-02-16T12:47:14Z</time>
      </trkpt>
      <trkpt lat="43.88073" lon="2.04125">
        <ele>207.38</ele>
        <time>2019-02-16T12:47:23Z</time>
      </trkpt>
      <trkpt lat="43.88064" lon="2.0413">
        <ele>206.34</ele>
        <time>2019-02-16T12:47:33Z</time>
      </trkpt>
      <trkpt lat="43.88052" lon="2.04137">
        <ele>204.45</ele>
        <time>2019-02-16T12:47:46Z</time>
      </trkpt>
      <trkpt lat="43.88037" lon="2.04149">
        <ele>202.41</ele>
        <time>2019-02-16T12:48:02Z</time>
      </trkpt>
      <trkpt lat="43.88023" lon="2.04149">
        <ele>200.24</ele>
        <time>2019-02-16T12:48:15Z</time>
      </trkpt>
      <trkpt lat="43.88018" lon="2.04148">
        <ele>199.52</ele>
        <time>2019-02-16T12:48:19Z</time>
      </trkpt>
      <trkpt lat="43.88016" lon="2.04148">
        <ele>199.66</ele>
        <time>2019-02-16T12:48:21Z</time>
      </trkpt>
      <trkpt lat="43.88001" lon="2.04143">
        <ele>197.12</ele>
        <time>2019-02-16T12:48:35Z</time>
      </trkpt>
      <trkpt lat="43.87986" lon="2.0414">
        <ele>196.03</ele>
        <time>2019-02-16T12:48:49Z</time>
      </trkpt>
      <trkpt lat="43.87968" lon="2.04135">
        <ele>194.1</ele>
        <time>2019-02-16T12:49:04Z</time>
      </trkpt>
      <trkpt lat="43.8795" lon="2.04131">
        <ele>192.76</ele>
        <time>2019-02-16T12:49:20Z</time>
      </trkpt>
      <trkpt lat="43.87946" lon="2.04131">
        <ele>192.72</ele>
        <time>2019-02-16T12:49:24Z</time>
      </trkpt>
      <trkpt lat="43.87933" lon="2.04131">
        <ele>192.66</ele>
        <time>2019-02-16T12:49:35Z</time>
      </trkpt>
      <trkpt lat="43.87927" lon="2.04134">
        <ele>192.38</ele>
        <time>2019-02-16T12:49:40Z</time>
      </trkpt>
      <trkpt lat="43.87911" lon="2.0415">
        <ele>191.42</ele>
        <time>2019-02-16T12:49:57Z</time>
      </trkpt>
      <trkpt lat="43.879" lon="2.04166">
        <ele>190.85</ele>
        <time>2019-02-16T12:50:11Z</time>
      </trkpt>
      <trkpt lat="43.87896" lon="2.04171">
        <ele>191.16</ele>
        <time>2019-02-16T12:50:16Z</time>
      </trkpt>
      <trkpt lat="43.87879" lon="2.04193">
        <ele>190.26</ele>
        <time>2019-02-16T12:50:35Z</time>
      </trkpt>
      <trkpt lat="43.87861" lon="2.04217">
        <ele>189.56</ele>
        <time>2019-02-16T12:50:54Z</time>
      </trkpt>
      <trkpt lat="43.87845" lon="2.04238">
        <ele>188.76</ele>
        <time>2019-02-16T12:51:11Z</time>
      </trkpt>
      <trkpt lat="43.87825" lon="2.04265">
        <ele>187.09</ele>
        <time>2019-02-16T12:51:33Z</time>
      </trkpt>
      <trkpt lat="43.87802" lon="2.04295">
        <ele>185.51</ele>
        <time>2019-02-16T12:51:57Z</time>
      </trkpt>
      <trkpt lat="43.8778" lon="2.04323">
        <ele>184.52</ele>
        <time>2019-02-16T12:52:20Z</time>
      </trkpt>
      <trkpt lat="43.87758" lon="2.04352">
        <ele>183.71</ele>
        <time>2019-02-16T12:52:44Z</time>
      </trkpt>
      <trkpt lat="43.87738" lon="2.04373">
        <ele>183.6</ele>
        <time>2019-02-16T12:53:05Z</time>
      </trkpt>
      <trkpt lat="43.8773" lon="2.0438">
        <ele>184.52</ele>
        <time>2019-02-16T12:53:22Z</time>
      </trkpt>
      <trkpt lat="43.87719" lon="2.04386">
        <ele>184.43</ele>
        <time>2019-02-16T12:53:35Z</time>
      </trkpt>
      <trkpt lat="43.87714" lon="2.04388">
        <ele>184.58</ele>
        <time>2019-02-16T12:53:39Z</time>
      </trkpt>
      <trkpt lat="43.87696" lon="2.04405">
        <ele>185.83</ele>
        <time>2019-02-16T12:53:57Z</time>
      </trkpt>
      <trkpt lat="43.87687" lon="2.04419">
        <ele>186.52</ele>
        <time>2019-02-16T12:54:11Z</time>
      </trkpt>
      <trkpt lat="43.87683" lon="2.04426">
        <ele>186.88</ele>
        <time>2019-02-16T12:54:17Z</time>
      </trkpt>
      <trkpt lat="43.87671" lon="2.0445">
        <ele>189.13</ele>
        <time>2019-02-16T12:54:38Z</time>
      </trkpt>
      <trkpt lat="43.87662" lon="2.04474">
        <ele>191.76</ele>
        <time>2019-02-16T12:54:57Z</time>
      </trkpt>
      <trkpt lat="43.87652" lon="2.04492">
        <ele>192.78</ele>
        <time>2019-02-16T12:55:12Z</time>
      </trkpt>
      <trkpt lat="43.87641" lon="2.0451">
        <ele>194.04</ele>
        <time>2019-02-16T12:55:28Z</time>
      </trkpt>
      <trkpt lat="43.87639" lon="2.04513">
        <ele>193.97</ele>
        <time>2019-02-16T12:55:37Z</time>
      </trkpt>
      <trkpt lat="43.87636" lon="2.0452">
        <ele>194.03</ele>
        <time>2019-02-16T12:55:43Z</time>
      </trkpt>
      <trkpt lat="43.87633" lon="2.04524">
        <ele>193.72</ele>
        <time>2019-02-16T12:55:48Z</time>
      </trkpt>
      <trkpt lat="43.87629" lon="2.04529">
        <ele>193.93</ele>
        <time>2019-02-16T12:55:53Z</time>
      </trkpt>
      <trkpt lat="43.87614" lon="2.04549">
        <ele>195.18</ele>
        <time>2019-02-16T12:56:11Z</time>
      </trkpt>
      <trkpt lat="43.8761" lon="2.04554">
        <ele>194.76</ele>
        <time>2019-02-16T12:56:16Z</time>
      </trkpt>
      <trkpt lat="43.87599" lon="2.04569">
        <ele>194.86</ele>
        <time>2019-02-16T12:56:30Z</time>
      </trkpt>
      <trkpt lat="43.87585" lon="2.0459">
        <ele>195.21</ele>
        <time>2019-02-16T12:56:47Z</time>
      </trkpt>
      <trkpt lat="43.87573" lon="2.04608">
        <ele>195.21</ele>
        <time>2019-02-16T12:57:02Z</time>
      </trkpt>
      <trkpt lat="43.87561" lon="2.04627">
        <ele>194.85</ele>
        <time>2019-02-16T12:57:17Z</time>
      </trkpt>
      <trkpt lat="43.87547" lon="2.04651">
        <ele>195.22</ele>
        <time>2019-02-16T12:57:36Z</time>
      </trkpt>
      <trkpt lat="43.87534" lon="2.04672">
        <ele>196.18</ele>
        <time>2019-02-16T12:57:54Z</time>
      </trkpt>
      <trkpt lat="43.87521" lon="2.04696">
        <ele>196.73</ele>
        <time>2019-02-16T12:58:13Z</time>
      </trkpt>
      <trkpt lat="43.8751" lon="2.0472">
        <ele>197.78</ele>
        <time>2019-02-16T12:58:30Z</time>
      </trkpt>
      <trkpt lat="43.87509" lon="2.04721">
        <ele>197.93</ele>
        <time>2019-02-16T12:58:39Z</time>
      </trkpt>
      <trkpt lat="43.87507" lon="2.04726">
        <ele>197.65</ele>
        <time>2019-02-16T12:58:43Z</time>
      </trkpt>
      <trkpt lat="43.87494" lon="2.04755">
        <ele>198.06</ele>
        <time>2019-02-16T12:59:02Z</time>
      </trkpt>
      <trkpt lat="43.87478" lon="2.04784">
        <ele>198.69</ele>
        <time>2019-02-16T12:59:25Z</time>
      </trkpt>
      <trkpt lat="43.87462" lon="2.04813">
        <ele>199.65</ele>
        <time>2019-02-16T12:59:46Z</time>
      </trkpt>
      <trkpt lat="43.87448" lon="2.04838">
        <ele>199.75</ele>
        <time>2019-02-16T13:00:05Z</time>
      </trkpt>
      <trkpt lat="43.87436" lon="2.04856">
        <ele>200.54</ele>
        <time>2019-02-16T13:00:20Z</time>
      </trkpt>
      <trkpt lat="43.87426" lon="2.04869">
        <ele>199.76</ele>
        <time>2019-02-16T13:00:33Z</time>
      </trkpt>
      <trkpt lat="43.87412" lon="2.0488">
        <ele>198.07</ele>
        <time>2019-02-16T13:00:49Z</time>
      </trkpt>
      <trkpt lat="43.87397" lon="2.04882">
        <ele>197.06</ele>
        <time>2019-02-16T13:01:04Z</time>
      </trkpt>
      <trkpt lat="43.8738" lon="2.04883">
        <ele>196.07</ele>
        <time>2019-02-16T13:01:21Z</time>
      </trkpt>
      <trkpt lat="43.87361" lon="2.04883">
        <ele>194.81</ele>
        <time>2019-02-16T13:01:38Z</time>
      </trkpt>
      <trkpt lat="43.87341" lon="2.04884">
        <ele>195.76</ele>
        <time>2019-02-16T13:01:56Z</time>
      </trkpt>
      <trkpt lat="43.87323" lon="2.04885">
        <ele>196.48</ele>
        <time>2019-02-16T13:02:12Z</time>
      </trkpt>
      <trkpt lat="43.87302" lon="2.04888">
        <ele>198.77</ele>
        <time>2019-02-16T13:02:37Z</time>
      </trkpt>
      <trkpt lat="43.87282" lon="2.0489">
        <ele>201.45</ele>
        <time>2019-02-16T13:03:02Z</time>
      </trkpt>
      <trkpt lat="43.87265" lon="2.04889">
        <ele>202.7</ele>
        <time>2019-02-16T13:03:25Z</time>
      </trkpt>
      <trkpt lat="43.87247" lon="2.04886">
        <ele>201.23</ele>
        <time>2019-02-16T13:03:45Z</time>
      </trkpt>
      <trkpt lat="43.87231" lon="2.04891">
        <ele>200.7</ele>
        <time>2019-02-16T13:04:02Z</time>
      </trkpt>
      <trkpt lat="43.87215" lon="2.04896">
        <ele>200.33</ele>
        <time>2019-02-16T13:04:18Z</time>
      </trkpt>
      <trkpt lat="43.87202" lon="2.04902">
        <ele>200.47</ele>
        <time>2019-02-16T13:04:32Z</time>
      </trkpt>
      <trkpt lat="43.87187" lon="2.04908">
        <ele>200.4</ele>
        <time>2019-02-16T13:04:46Z</time>
      </trkpt>
      <trkpt lat="43.87183" lon="2.0491">
        <ele>200.45</ele>
        <time>2019-02-16T13:04:51Z</time>
      </trkpt>
      <trkpt lat="43.8718" lon="2.04912">
        <ele>200.82</ele>
        <time>2019-02-16T13:04:54Z</time>
      </trkpt>
      <trkpt lat="43.87178" lon="2.04913">
        <ele>200.86</ele>
        <time>2019-02-16T13:04:56Z</time>
      </trkpt>
      <trkpt lat="43.87161" lon="2.04922">
        <ele>201.16</ele>
        <time>2019-02-16T13:05:14Z</time>
      </trkpt>
      <trkpt lat="43.87158" lon="2.04928">
        <ele>200.73</ele>
        <time>2019-02-16T13:05:33Z</time>
      </trkpt>
      <trkpt lat="43.87157" lon="2.04929">
        <ele>201.02</ele>
        <time>2019-02-16T13:06:00Z</time>
      </trkpt>
      <trkpt lat="43.87156" lon="2.04935">
        <ele>200.87</ele>
        <time>2019-02-16T13:06:17Z</time>
      </trkpt>
      <trkpt lat="43.87163" lon="2.04945">
        <ele>199.99</ele>
        <time>2019-02-16T13:06:29Z</time>
      </trkpt>
      <trkpt lat="43.87173" lon="2.04957">
        <ele>199.02</ele>
        <time>2019-02-16T13:06:45Z</time>
      </trkpt>
      <trkpt lat="43.87174" lon="2.04958">
        <ele>198.94</ele>
        <time>2019-02-16T13:06:46Z</time>
      </trkpt>
      <trkpt lat="43.87185" lon="2.04973">
        <ele>197.74</ele>
        <time>2019-02-16T13:07:02Z</time>
      </trkpt>
      <trkpt lat="43.87189" lon="2.04989">
        <ele>196.65</ele>
        <time>2019-02-16T13:07:16Z</time>
      </trkpt>
      <trkpt lat="43.87189" lon="2.04998">
        <ele>196.28</ele>
        <time>2019-02-16T13:07:22Z</time>
      </trkpt>
      <trkpt lat="43.87188" lon="2.05002">
        <ele>195.87</ele>
        <time>2019-02-16T13:07:25Z</time>
      </trkpt>
      <trkpt lat="43.87186" lon="2.05024">
        <ele>194.21</ele>
        <time>2019-02-16T13:07:42Z</time>
      </trkpt>
      <trkpt lat="43.87183" lon="2.05043">
        <ele>191.79</ele>
        <time>2019-02-16T13:07:56Z</time>
      </trkpt>
      <trkpt lat="43.87179" lon="2.05066">
        <ele>190.77</ele>
        <time>2019-02-16T13:08:12Z</time>
      </trkpt>
      <trkpt lat="43.87172" lon="2.05086">
        <ele>189.93</ele>
        <time>2019-02-16T13:08:27Z</time>
      </trkpt>
      <trkpt lat="43.87154" lon="2.05097">
        <ele>189.05</ele>
        <time>2019-02-16T13:08:45Z</time>
      </trkpt>
      <trkpt lat="43.87134" lon="2.05094">
        <ele>188.09</ele>
        <time>2019-02-16T13:09:02Z</time>
      </trkpt>
      <trkpt lat="43.87114" lon="2.0509">
        <ele>187.84</ele>
        <time>2019-02-16T13:09:20Z</time>
      </trkpt>
      <trkpt lat="43.87095" lon="2.05089">
        <ele>186.74</ele>
        <time>2019-02-16T13:09:36Z</time>
      </trkpt>
      <trkpt lat="43.87076" lon="2.05093">
        <ele>186.38</ele>
        <time>2019-02-16T13:09:52Z</time>
      </trkpt>
      <trkpt lat="43.87057" lon="2.05102">
        <ele>185.2</ele>
        <time>2019-02-16T13:10:09Z</time>
      </trkpt>
      <trkpt lat="43.87041" lon="2.05109">
        <ele>184.84</ele>
        <time>2019-02-16T13:10:24Z</time>
      </trkpt>
      <trkpt lat="43.87022" lon="2.05115">
        <ele>183.77</ele>
        <time>2019-02-16T13:10:41Z</time>
      </trkpt>
      <trkpt lat="43.8701" lon="2.05119">
        <ele>182.18</ele>
        <time>2019-02-16T13:10:54Z</time>
      </trkpt>
      <trkpt lat="43.86995" lon="2.05124">
        <ele>181.77</ele>
        <time>2019-02-16T13:11:09Z</time>
      </trkpt>
      <trkpt lat="43.86986" lon="2.05129">
        <ele>180.67</ele>
        <time>2019-02-16T13:11:26Z</time>
      </trkpt>
      <trkpt lat="43.86984" lon="2.05129">
        <ele>180.58</ele>
        <time>2019-02-16T13:11:56Z</time>
      </trkpt>
      <trkpt lat="43.86981" lon="2.05137">
        <ele>180.76</ele>
        <time>2019-02-16T13:12:26Z</time>
      </trkpt>
      <trkpt lat="43.86979" lon="2.05143">
        <ele>180.49</ele>
        <time>2019-02-16T13:12:32Z</time>
      </trkpt>
      <trkpt lat="43.86979" lon="2.05164">
        <ele>180.68</ele>
        <time>2019-02-16T13:12:49Z</time>
      </trkpt>
      <trkpt lat="43.86981" lon="2.05192">
        <ele>181.81</ele>
        <time>2019-02-16T13:13:09Z</time>
      </trkpt>
      <trkpt lat="43.86985" lon="2.05228">
        <ele>182.13</ele>
        <time>2019-02-16T13:13:32Z</time>
      </trkpt>
      <trkpt lat="43.86987" lon="2.05255">
        <ele>183.69</ele>
        <time>2019-02-16T13:13:50Z</time>
      </trkpt>
      <trkpt lat="43.8699" lon="2.05279">
        <ele>183.72</ele>
        <time>2019-02-16T13:14:06Z</time>
      </trkpt>
      <trkpt lat="43.8699" lon="2.05283">
        <ele>183.38</ele>
        <time>2019-02-16T13:14:09Z</time>
      </trkpt>
      <trkpt lat="43.8699" lon="2.05286">
        <ele>183.26</ele>
        <time>2019-02-16T13:14:11Z</time>
      </trkpt>
      <trkpt lat="43.86991" lon="2.05289">
        <ele>183.58</ele>
        <time>2019-02-16T13:14:13Z</time>
      </trkpt>
      <trkpt lat="43.86992" lon="2.05304">
        <ele>184.04</ele>
        <time>2019-02-16T13:14:23Z</time>
      </trkpt>
      <trkpt lat="43.86996" lon="2.05326">
        <ele>184.37</ele>
        <time>2019-02-16T13:14:39Z</time>
      </trkpt>
      <trkpt lat="43.86999" lon="2.05339">
        <ele>184.34</ele>
        <time>2019-02-16T13:14:52Z</time>
      </trkpt>
      <trkpt lat="43.87001" lon="2.05346">
        <ele>184.57</ele>
        <time>2019-02-16T13:14:58Z</time>
      </trkpt>
      <trkpt lat="43.87005" lon="2.05361">
        <ele>184.72</ele>
        <time>2019-02-16T13:15:12Z</time>
      </trkpt>
      <trkpt lat="43.87006" lon="2.05363">
        <ele>184.42</ele>
        <time>2019-02-16T13:15:14Z</time>
      </trkpt>
      <trkpt lat="43.8701" lon="2.05373">
        <ele>184.6</ele>
        <time>2019-02-16T13:15:23Z</time>
      </trkpt>
      <trkpt lat="43.87016" lon="2.05387">
        <ele>184.55</ele>
        <time>2019-02-16T13:15:34Z</time>
      </trkpt>
      <trkpt lat="43.87021" lon="2.05401">
        <ele>184.33</ele>
        <time>2019-02-16T13:15:45Z</time>
      </trkpt>
      <trkpt lat="43.87028" lon="2.05421">
        <ele>184.84</ele>
        <time>2019-02-16T13:16:01Z</time>
      </trkpt>
      <trkpt lat="43.87034" lon="2.05436">
        <ele>184.86</ele>
        <time>2019-02-16T13:16:12Z</time>
      </trkpt>
      <trkpt lat="43.87037" lon="2.05442">
        <ele>185.34</ele>
        <time>2019-02-16T13:16:17Z</time>
      </trkpt>
      <trkpt lat="43.87044" lon="2.05461">
        <ele>186.4</ele>
        <time>2019-02-16T13:16:31Z</time>
      </trkpt>
      <trkpt lat="43.87056" lon="2.05479">
        <ele>187.62</ele>
        <time>2019-02-16T13:16:47Z</time>
      </trkpt>
      <trkpt lat="43.87063" lon="2.05489">
        <ele>189.09</ele>
        <time>2019-02-16T13:16:57Z</time>
      </trkpt>
      <trkpt lat="43.87075" lon="2.05505">
        <ele>190.29</ele>
        <time>2019-02-16T13:17:13Z</time>
      </trkpt>
      <trkpt lat="43.87091" lon="2.05525">
        <ele>192.11</ele>
        <time>2019-02-16T13:17:35Z</time>
      </trkpt>
      <trkpt lat="43.87104" lon="2.05544">
        <ele>194.23</ele>
        <time>2019-02-16T13:17:55Z</time>
      </trkpt>
      <trkpt lat="43.87113" lon="2.05557">
        <ele>195.49</ele>
        <time>2019-02-16T13:18:10Z</time>
      </trkpt>
      <trkpt lat="43.87113" lon="2.05558">
        <ele>195.43</ele>
        <time>2019-02-16T13:18:11Z</time>
      </trkpt>
      <trkpt lat="43.87118" lon="2.05565">
        <ele>196.09</ele>
        <time>2019-02-16T13:18:19Z</time>
      </trkpt>
      <trkpt lat="43.87128" lon="2.05579">
        <ele>197.23</ele>
        <time>2019-02-16T13:18:36Z</time>
      </trkpt>
      <trkpt lat="43.87129" lon="2.05581">
        <ele>198.03</ele>
        <time>2019-02-16T13:18:47Z</time>
      </trkpt>
      <trkpt lat="43.87139" lon="2.056">
        <ele>199.34</ele>
        <time>2019-02-16T13:19:03Z</time>
      </trkpt>
      <trkpt lat="43.87148" lon="2.0562">
        <ele>201.05</ele>
        <time>2019-02-16T13:19:20Z</time>
      </trkpt>
      <trkpt lat="43.87155" lon="2.05637">
        <ele>201.94</ele>
        <time>2019-02-16T13:19:37Z</time>
      </trkpt>
      <trkpt lat="43.87157" lon="2.05659">
        <ele>202.73</ele>
        <time>2019-02-16T13:19:52Z</time>
      </trkpt>
      <trkpt lat="43.87157" lon="2.05683">
        <ele>203.95</ele>
        <time>2019-02-16T13:20:08Z</time>
      </trkpt>
      <trkpt lat="43.87152" lon="2.05713">
        <ele>205.6</ele>
        <time>2019-02-16T13:20:28Z</time>
      </trkpt>
      <trkpt lat="43.87147" lon="2.05741">
        <ele>206.37</ele>
        <time>2019-02-16T13:20:46Z</time>
      </trkpt>
      <trkpt lat="43.87142" lon="2.05769">
        <ele>207.07</ele>
        <time>2019-02-16T13:21:05Z</time>
      </trkpt>
      <trkpt lat="43.87137" lon="2.05801">
        <ele>208.19</ele>
        <time>2019-02-16T13:21:25Z</time>
      </trkpt>
      <trkpt lat="43.87136" lon="2.05812">
        <ele>208.5</ele>
        <time>2019-02-16T13:21:32Z</time>
      </trkpt>
      <trkpt lat="43.87135" lon="2.0582">
        <ele>208.71</ele>
        <time>2019-02-16T13:21:38Z</time>
      </trkpt>
      <trkpt lat="43.87136" lon="2.05856">
        <ele>209.33</ele>
        <time>2019-02-16T13:22:02Z</time>
      </trkpt>
      <trkpt lat="43.87136" lon="2.05858">
        <ele>209.29</ele>
        <time>2019-02-16T13:22:19Z</time>
      </trkpt>
      <trkpt lat="43.87134" lon="2.0587">
        <ele>210.08</ele>
        <time>2019-02-16T13:22:33Z</time>
      </trkpt>
      <trkpt lat="43.87134" lon="2.0587">
        <ele>210.03</ele>
        <time>2019-02-16T13:23:01Z</time>
      </trkpt>
      <trkpt lat="43.87134" lon="2.05871">
        <ele>209.96</ele>
        <time>2019-02-16T13:23:38Z</time>
      </trkpt>
      <trkpt lat="43.87134" lon="2.05871">
        <ele>210.15</ele>
        <time>2019-02-16T13:24:16Z</time>
      </trkpt>
      <trkpt lat="43.87134" lon="2.05872">
        <ele>209.81</ele>
        <time>2019-02-16T13:24:49Z</time>
      </trkpt>
      <trkpt lat="43.87134" lon="2.05873">
        <ele>209.74</ele>
        <time>2019-02-16T13:25:28Z</time>
      </trkpt>
      <trkpt lat="43.87134" lon="2.0588">
        <ele>210.31</ele>
        <time>2019-02-16T13:25:50Z</time>
      </trkpt>
      <trkpt lat="43.87137" lon="2.05894">
        <ele>210.18</ele>
        <time>2019-02-16T13:26:08Z</time>
      </trkpt>
      <trkpt lat="43.87137" lon="2.05896">
        <ele>210.49</ele>
        <time>2019-02-16T13:26:10Z</time>
      </trkpt>
      <trkpt lat="43.8714" lon="2.05909">
        <ele>210.13</ele>
        <time>2019-02-16T13:26:23Z</time>
      </trkpt>
      <trkpt lat="43.87141" lon="2.05913">
        <ele>210.35</ele>
        <time>2019-02-16T13:26:26Z</time>
      </trkpt>
      <trkpt lat="43.87144" lon="2.0593">
        <ele>210.39</ele>
        <time>2019-02-16T13:26:38Z</time>
      </trkpt>
      <trkpt lat="43.87147" lon="2.05942">
        <ele>210.08</ele>
        <time>2019-02-16T13:26:48Z</time>
      </trkpt>
      <trkpt lat="43.87154" lon="2.0597">
        <ele>210.01</ele>
        <time>2019-02-16T13:27:08Z</time>
      </trkpt>
      <trkpt lat="43.87159" lon="2.05992">
        <ele>210.8</ele>
        <time>2019-02-16T13:27:24Z</time>
      </trkpt>
      <trkpt lat="43.87164" lon="2.06008">
        <ele>210.61</ele>
        <time>2019-02-16T13:27:35Z</time>
      </trkpt>
      <trkpt lat="43.8717" lon="2.06036">
        <ele>210.6</ele>
        <time>2019-02-16T13:27:55Z</time>
      </trkpt>
      <trkpt lat="43.87177" lon="2.06064">
        <ele>210.6</ele>
        <time>2019-02-16T13:28:14Z</time>
      </trkpt>
      <trkpt lat="43.87181" lon="2.06089">
        <ele>212.13</ele>
        <time>2019-02-16T13:28:32Z</time>
      </trkpt>
      <trkpt lat="43.87185" lon="2.06118">
        <ele>213.75</ele>
        <time>2019-02-16T13:28:53Z</time>
      </trkpt>
      <trkpt lat="43.87188" lon="2.06146">
        <ele>214.72</ele>
        <time>2019-02-16T13:29:12Z</time>
      </trkpt>
      <trkpt lat="43.87191" lon="2.0617">
        <ele>216.1</ele>
        <time>2019-02-16T13:29:29Z</time>
      </trkpt>
      <trkpt lat="43.87195" lon="2.06194">
        <ele>216.99</ele>
        <time>2019-02-16T13:29:46Z</time>
      </trkpt>
      <trkpt lat="43.87199" lon="2.06204">
        <ele>217.78</ele>
        <time>2019-02-16T13:29:56Z</time>
      </trkpt>
      <trkpt lat="43.8721" lon="2.06227">
        <ele>218.5</ele>
        <time>2019-02-16T13:30:15Z</time>
      </trkpt>
      <trkpt lat="43.87222" lon="2.0624">
        <ele>218.15</ele>
        <time>2019-02-16T13:30:29Z</time>
      </trkpt>
      <trkpt lat="43.87232" lon="2.06256">
        <ele>217.53</ele>
        <time>2019-02-16T13:30:44Z</time>
      </trkpt>
      <trkpt lat="43.87235" lon="2.06265">
        <ele>217.43</ele>
        <time>2019-02-16T13:30:51Z</time>
      </trkpt>
      <trkpt lat="43.87242" lon="2.06285">
        <ele>217.53</ele>
        <time>2019-02-16T13:31:07Z</time>
      </trkpt>
      <trkpt lat="43.87248" lon="2.06305">
        <ele>217.67</ele>
        <time>2019-02-16T13:31:21Z</time>
      </trkpt>
      <trkpt lat="43.87251" lon="2.0633">
        <ele>218.8</ele>
        <time>2019-02-16T13:31:36Z</time>
      </trkpt>
      <trkpt lat="43.87252" lon="2.0634">
        <ele>218.65</ele>
        <time>2019-02-16T13:31:42Z</time>
      </trkpt>
      <trkpt lat="43.87253" lon="2.06343">
        <ele>218.2</ele>
        <time>2019-02-16T13:31:44Z</time>
      </trkpt>
      <trkpt lat="43.87254" lon="2.06353">
        <ele>219.43</ele>
        <time>2019-02-16T13:31:50Z</time>
      </trkpt>
      <trkpt lat="43.87257" lon="2.06387">
        <ele>220.58</ele>
        <time>2019-02-16T13:32:12Z</time>
      </trkpt>
      <trkpt lat="43.87262" lon="2.0642">
        <ele>222.2</ele>
        <time>2019-02-16T13:32:34Z</time>
      </trkpt>
      <trkpt lat="43.87268" lon="2.0644">
        <ele>223.8</ele>
        <time>2019-02-16T13:32:51Z</time>
      </trkpt>
      <trkpt lat="43.87279" lon="2.06454">
        <ele>226.01</ele>
        <time>2019-02-16T13:33:08Z</time>
      </trkpt>
      <trkpt lat="43.87285" lon="2.06461">
        <ele>225.4</ele>
        <time>2019-02-16T13:33:15Z</time>
      </trkpt>
      <trkpt lat="43.87309" lon="2.06476">
        <ele>226</ele>
        <time>2019-02-16T13:33:36Z</time>
      </trkpt>
      <trkpt lat="43.87323" lon="2.06486">
        <ele>227</ele>
        <time>2019-02-16T13:33:51Z</time>
      </trkpt>
      <trkpt lat="43.87342" lon="2.06502">
        <ele>226.92</ele>
        <time>2019-02-16T13:34:11Z</time>
      </trkpt>
      <trkpt lat="43.87347" lon="2.06506">
        <ele>227.31</ele>
        <time>2019-02-16T13:34:15Z</time>
      </trkpt>
      <trkpt lat="43.87348" lon="2.06508">
        <ele>227.19</ele>
        <time>2019-02-16T13:34:17Z</time>
      </trkpt>
      <trkpt lat="43.87362" lon="2.06519">
        <ele>227.8</ele>
        <time>2019-02-16T13:34:31Z</time>
      </trkpt>
      <trkpt lat="43.87365" lon="2.06522">
        <ele>228.04</ele>
        <time>2019-02-16T13:34:35Z</time>
      </trkpt>
      <trkpt lat="43.87377" lon="2.06533">
        <ele>227.44</ele>
        <time>2019-02-16T13:34:48Z</time>
      </trkpt>
      <trkpt lat="43.8738" lon="2.06536">
        <ele>227.84</ele>
        <time>2019-02-16T13:35:00Z</time>
      </trkpt>
      <trkpt lat="43.87381" lon="2.06538">
        <ele>227.2</ele>
        <time>2019-02-16T13:35:02Z</time>
      </trkpt>
      <trkpt lat="43.87386" lon="2.06543">
        <ele>226.82</ele>
        <time>2019-02-16T13:35:09Z</time>
      </trkpt>
      <trkpt lat="43.87397" lon="2.06557">
        <ele>224.72</ele>
        <time>2019-02-16T13:35:24Z</time>
      </trkpt>
      <trkpt lat="43.87408" lon="2.06569">
        <ele>223.68</ele>
        <time>2019-02-16T13:35:37Z</time>
      </trkpt>
      <trkpt lat="43.87415" lon="2.06575">
        <ele>222.06</ele>
        <time>2019-02-16T13:35:47Z</time>
      </trkpt>
      <trkpt lat="43.87418" lon="2.06576">
        <ele>221.68</ele>
        <time>2019-02-16T13:35:50Z</time>
      </trkpt>
      <trkpt lat="43.87422" lon="2.06577">
        <ele>221.02</ele>
        <time>2019-02-16T13:35:54Z</time>
      </trkpt>
      <trkpt lat="43.8743" lon="2.06582">
        <ele>218.91</ele>
        <time>2019-02-16T13:36:03Z</time>
      </trkpt>
      <trkpt lat="43.87434" lon="2.06584">
        <ele>218.63</ele>
        <time>2019-02-16T13:36:07Z</time>
      </trkpt>
      <trkpt lat="43.87447" lon="2.06591">
        <ele>217.72</ele>
        <time>2019-02-16T13:36:22Z</time>
      </trkpt>
      <trkpt lat="43.87462" lon="2.066">
        <ele>217.11</ele>
        <time>2019-02-16T13:36:37Z</time>
      </trkpt>
      <trkpt lat="43.87472" lon="2.06612">
        <ele>216.07</ele>
        <time>2019-02-16T13:36:50Z</time>
      </trkpt>
      <trkpt lat="43.8748" lon="2.06626">
        <ele>215.23</ele>
        <time>2019-02-16T13:37:03Z</time>
      </trkpt>
      <trkpt lat="43.87482" lon="2.0663">
        <ele>215.18</ele>
        <time>2019-02-16T13:37:07Z</time>
      </trkpt>
      <trkpt lat="43.87492" lon="2.06649">
        <ele>214.32</ele>
        <time>2019-02-16T13:37:23Z</time>
      </trkpt>
      <trkpt lat="43.875" lon="2.06672">
        <ele>213.99</ele>
        <time>2019-02-16T13:37:40Z</time>
      </trkpt>
      <trkpt lat="43.87507" lon="2.06686">
        <ele>212.86</ele>
        <time>2019-02-16T13:37:53Z</time>
      </trkpt>
      <trkpt lat="43.8751" lon="2.06692">
        <ele>212.69</ele>
        <time>2019-02-16T13:37:58Z</time>
      </trkpt>
      <trkpt lat="43.87519" lon="2.06712">
        <ele>211.62</ele>
        <time>2019-02-16T13:38:14Z</time>
      </trkpt>
      <trkpt lat="43.87527" lon="2.06729">
        <ele>210.91</ele>
        <time>2019-02-16T13:38:29Z</time>
      </trkpt>
      <trkpt lat="43.8753" lon="2.06738">
        <ele>210.67</ele>
        <time>2019-02-16T13:38:36Z</time>
      </trkpt>
      <trkpt lat="43.87537" lon="2.06756">
        <ele>210</ele>
        <time>2019-02-16T13:38:51Z</time>
      </trkpt>
      <trkpt lat="43.87542" lon="2.06767">
        <ele>209.01</ele>
        <time>2019-02-16T13:39:00Z</time>
      </trkpt>
      <trkpt lat="43.87544" lon="2.06771">
        <ele>209.09</ele>
        <time>2019-02-16T13:39:03Z</time>
      </trkpt>
      <trkpt lat="43.87551" lon="2.06792">
        <ele>208.07</ele>
        <time>2019-02-16T13:39:19Z</time>
      </trkpt>
      <trkpt lat="43.87557" lon="2.06808">
        <ele>207.16</ele>
        <time>2019-02-16T13:39:34Z</time>
      </trkpt>
      <trkpt lat="43.87564" lon="2.06827">
        <ele>206.9</ele>
        <time>2019-02-16T13:39:49Z</time>
      </trkpt>
      <trkpt lat="43.87572" lon="2.06851">
        <ele>205.79</ele>
        <time>2019-02-16T13:40:06Z</time>
      </trkpt>
      <trkpt lat="43.87582" lon="2.06877">
        <ele>204.43</ele>
        <time>2019-02-16T13:40:25Z</time>
      </trkpt>
      <trkpt lat="43.87591" lon="2.069">
        <ele>204.2</ele>
        <time>2019-02-16T13:40:43Z</time>
      </trkpt>
      <trkpt lat="43.87596" lon="2.0692">
        <ele>203.73</ele>
        <time>2019-02-16T13:40:58Z</time>
      </trkpt>
      <trkpt lat="43.87601" lon="2.06943">
        <ele>202.44</ele>
        <time>2019-02-16T13:41:13Z</time>
      </trkpt>
      <trkpt lat="43.87606" lon="2.06966">
        <ele>201.72</ele>
        <time>2019-02-16T13:41:30Z</time>
      </trkpt>
      <trkpt lat="43.87607" lon="2.06979">
        <ele>201.17</ele>
        <time>2019-02-16T13:41:39Z</time>
      </trkpt>
      <trkpt lat="43.87609" lon="2.07004">
        <ele>200.34</ele>
        <time>2019-02-16T13:41:56Z</time>
      </trkpt>
      <trkpt lat="43.87611" lon="2.07024">
        <ele>199.38</ele>
        <time>2019-02-16T13:42:11Z</time>
      </trkpt>
      <trkpt lat="43.87611" lon="2.07033">
        <ele>198.84</ele>
        <time>2019-02-16T13:42:17Z</time>
      </trkpt>
      <trkpt lat="43.87613" lon="2.07058">
        <ele>198.68</ele>
        <time>2019-02-16T13:42:34Z</time>
      </trkpt>
      <trkpt lat="43.87613" lon="2.0708">
        <ele>198.41</ele>
        <time>2019-02-16T13:42:50Z</time>
      </trkpt>
      <trkpt lat="43.8761" lon="2.07103">
        <ele>198.46</ele>
        <time>2019-02-16T13:43:07Z</time>
      </trkpt>
      <trkpt lat="43.87609" lon="2.07123">
        <ele>197.96</ele>
        <time>2019-02-16T13:43:22Z</time>
      </trkpt>
      <trkpt lat="43.87607" lon="2.07142">
        <ele>197.89</ele>
        <time>2019-02-16T13:43:37Z</time>
      </trkpt>
      <trkpt lat="43.87606" lon="2.07161">
        <ele>198.83</ele>
        <time>2019-02-16T13:43:52Z</time>
      </trkpt>
      <trkpt lat="43.87609" lon="2.07169">
        <ele>198.72</ele>
        <time>2019-02-16T13:44:09Z</time>
      </trkpt>
      <trkpt lat="43.87622" lon="2.07181">
        <ele>198.29</ele>
        <time>2019-02-16T13:44:25Z</time>
      </trkpt>
      <trkpt lat="43.87633" lon="2.07192">
        <ele>198.1</ele>
        <time>2019-02-16T13:44:37Z</time>
      </trkpt>
      <trkpt lat="43.87643" lon="2.07198">
        <ele>197.98</ele>
        <time>2019-02-16T13:44:47Z</time>
      </trkpt>
      <trkpt lat="43.87651" lon="2.07201">
        <ele>198.15</ele>
        <time>2019-02-16T13:44:56Z</time>
      </trkpt>
      <trkpt lat="43.87667" lon="2.07198">
        <ele>197.7</ele>
        <time>2019-02-16T13:45:12Z</time>
      </trkpt>
      <trkpt lat="43.87681" lon="2.0719">
        <ele>197.28</ele>
        <time>2019-02-16T13:45:28Z</time>
      </trkpt>
      <trkpt lat="43.87687" lon="2.07187">
        <ele>197.09</ele>
        <time>2019-02-16T13:45:34Z</time>
      </trkpt>
      <trkpt lat="43.87704" lon="2.07179">
        <ele>196.92</ele>
        <time>2019-02-16T13:45:51Z</time>
      </trkpt>
      <trkpt lat="43.87721" lon="2.07168">
        <ele>196.34</ele>
        <time>2019-02-16T13:46:08Z</time>
      </trkpt>
      <trkpt lat="43.87738" lon="2.0716">
        <ele>195.55</ele>
        <time>2019-02-16T13:46:25Z</time>
      </trkpt>
      <trkpt lat="43.87755" lon="2.07153">
        <ele>195.75</ele>
        <time>2019-02-16T13:46:42Z</time>
      </trkpt>
      <trkpt lat="43.87769" lon="2.07147">
        <ele>195.16</ele>
        <time>2019-02-16T13:46:56Z</time>
      </trkpt>
      <trkpt lat="43.87783" lon="2.07142">
        <ele>195.07</ele>
        <time>2019-02-16T13:47:09Z</time>
      </trkpt>
      <trkpt lat="43.87804" lon="2.07133">
        <ele>194.69</ele>
        <time>2019-02-16T13:47:28Z</time>
      </trkpt>
      <trkpt lat="43.87823" lon="2.07123">
        <ele>194.32</ele>
        <time>2019-02-16T13:47:46Z</time>
      </trkpt>
      <trkpt lat="43.87843" lon="2.0711">
        <ele>194.21</ele>
        <time>2019-02-16T13:48:06Z</time>
      </trkpt>
      <trkpt lat="43.87865" lon="2.07095">
        <ele>193.11</ele>
        <time>2019-02-16T13:48:28Z</time>
      </trkpt>
      <trkpt lat="43.87885" lon="2.07084">
        <ele>192.93</ele>
        <time>2019-02-16T13:48:47Z</time>
      </trkpt>
      <trkpt lat="43.87903" lon="2.07075">
        <ele>192.7</ele>
        <time>2019-02-16T13:49:05Z</time>
      </trkpt>
      <trkpt lat="43.87916" lon="2.07068">
        <ele>192.99</ele>
        <time>2019-02-16T13:49:19Z</time>
      </trkpt>
      <trkpt lat="43.87929" lon="2.07064">
        <ele>192.71</ele>
        <time>2019-02-16T13:49:32Z</time>
      </trkpt>
      <trkpt lat="43.8793" lon="2.07064">
        <ele>192.84</ele>
        <time>2019-02-16T13:49:33Z</time>
      </trkpt>
      <trkpt lat="43.87946" lon="2.07057">
        <ele>192.27</ele>
        <time>2019-02-16T13:49:49Z</time>
      </trkpt>
      <trkpt lat="43.87965" lon="2.07047">
        <ele>192.06</ele>
        <time>2019-02-16T13:50:06Z</time>
      </trkpt>
      <trkpt lat="43.8798" lon="2.07041">
        <ele>192.32</ele>
        <time>2019-02-16T13:50:20Z</time>
      </trkpt>
      <trkpt lat="43.87998" lon="2.07032">
        <ele>191.97</ele>
        <time>2019-02-16T13:50:37Z</time>
      </trkpt>
      <trkpt lat="43.88017" lon="2.07028">
        <ele>191.49</ele>
        <time>2019-02-16T13:50:55Z</time>
      </trkpt>
      <trkpt lat="43.88033" lon="2.07029">
        <ele>191.06</ele>
        <time>2019-02-16T13:51:11Z</time>
      </trkpt>
      <trkpt lat="43.88053" lon="2.07032">
        <ele>190.43</ele>
        <time>2019-02-16T13:51:30Z</time>
      </trkpt>
      <trkpt lat="43.8807" lon="2.07033">
        <ele>190.03</ele>
        <time>2019-02-16T13:51:46Z</time>
      </trkpt>
      <trkpt lat="43.88088" lon="2.07033">
        <ele>190.24</ele>
        <time>2019-02-16T13:52:02Z</time>
      </trkpt>
      <trkpt lat="43.88105" lon="2.07026">
        <ele>191.17</ele>
        <time>2019-02-16T13:52:18Z</time>
      </trkpt>
      <trkpt lat="43.88118" lon="2.07024">
        <ele>191.07</ele>
        <time>2019-02-16T13:52:31Z</time>
      </trkpt>
      <trkpt lat="43.88134" lon="2.07024">
        <ele>192.57</ele>
        <time>2019-02-16T13:52:46Z</time>
      </trkpt>
      <trkpt lat="43.88144" lon="2.07025">
        <ele>194.18</ele>
        <time>2019-02-16T13:52:57Z</time>
      </trkpt>
      <trkpt lat="43.88155" lon="2.07025">
        <ele>195.32</ele>
        <time>2019-02-16T13:53:09Z</time>
      </trkpt>
      <trkpt lat="43.88166" lon="2.07024">
        <ele>197.14</ele>
        <time>2019-02-16T13:53:21Z</time>
      </trkpt>
      <trkpt lat="43.8818" lon="2.07024">
        <ele>199.11</ele>
        <time>2019-02-16T13:53:37Z</time>
      </trkpt>
      <trkpt lat="43.88183" lon="2.07023">
        <ele>199.35</ele>
        <time>2019-02-16T13:53:41Z</time>
      </trkpt>
      <trkpt lat="43.88186" lon="2.07023">
        <ele>199.63</ele>
        <time>2019-02-16T13:53:45Z</time>
      </trkpt>
      <trkpt lat="43.88191" lon="2.07022">
        <ele>200.83</ele>
        <time>2019-02-16T13:53:51Z</time>
      </trkpt>
      <trkpt lat="43.88204" lon="2.07019">
        <ele>201.99</ele>
        <time>2019-02-16T13:54:06Z</time>
      </trkpt>
      <trkpt lat="43.88218" lon="2.07012">
        <ele>203.64</ele>
        <time>2019-02-16T13:54:23Z</time>
      </trkpt>
      <trkpt lat="43.88224" lon="2.07008">
        <ele>205.59</ele>
        <time>2019-02-16T13:54:31Z</time>
      </trkpt>
      <trkpt lat="43.88237" lon="2.07004">
        <ele>208.79</ele>
        <time>2019-02-16T13:54:46Z</time>
      </trkpt>
      <trkpt lat="43.88246" lon="2.06994">
        <ele>210.48</ele>
        <time>2019-02-16T13:55:01Z</time>
      </trkpt>
      <trkpt lat="43.88246" lon="2.06992">
        <ele>210.63</ele>
        <time>2019-02-16T13:55:03Z</time>
      </trkpt>
      <trkpt lat="43.88247" lon="2.06989">
        <ele>210.8</ele>
        <time>2019-02-16T13:55:05Z</time>
      </trkpt>
      <trkpt lat="43.88247" lon="2.06987">
        <ele>210.98</ele>
        <time>2019-02-16T13:55:07Z</time>
      </trkpt>
      <trkpt lat="43.88248" lon="2.06984">
        <ele>211.33</ele>
        <time>2019-02-16T13:55:09Z</time>
      </trkpt>
      <trkpt lat="43.88248" lon="2.06978">
        <ele>211.74</ele>
        <time>2019-02-16T13:55:14Z</time>
      </trkpt>
      <trkpt lat="43.88244" lon="2.06941">
        <ele>214</ele>
        <time>2019-02-16T13:55:43Z</time>
      </trkpt>
    </trkseg>
  </trk>
</gpx>